<?xml version="1.0" encoding="UTF-8" standalone="no" ?>
<gpx xmlns="http://www.topografix.com/GPX/1/1" xmlns:xsi="http://www.w3.org/2001/XMLSchema-instance" xsi:schemaLocation="http://www.topografix.com/GPX/1/1 http://www.topografix.com/GPX/1/1/gpx.xsd" version="1.1" creator="VisuGPX - https://www.visugpx.com">
  <metadata>
    <name>Sun Trip 2019</name>
    <desc><![CDATA[Le parcours du Sun Trip 2019]]></desc>
  </metadata>
  <trk>
    <name><![CDATA[J6bis]]></name>
    <trkseg>
      <trkpt lat="46.16375" lon="5.76644">
        <ele>453</ele>
        <time>2019-04-17T10:11:50Z</time>
      </trkpt>
      <trkpt lat="46.16374" lon="5.76651">
        <ele>453</ele>
        <time>2019-04-17T10:12:50Z</time>
      </trkpt>
      <trkpt lat="46.16393" lon="5.76672">
        <ele>445</ele>
        <time>2019-04-17T10:13:50Z</time>
      </trkpt>
      <trkpt lat="46.1641" lon="5.76702">
        <ele>437</ele>
        <time>2019-04-17T10:14:50Z</time>
      </trkpt>
      <trkpt lat="46.16421" lon="5.76725">
        <ele>435</ele>
        <time>2019-04-17T10:15:50Z</time>
      </trkpt>
      <trkpt lat="46.16431" lon="5.76753">
        <ele>436</ele>
        <time>2019-04-17T10:16:50Z</time>
      </trkpt>
      <trkpt lat="46.16438" lon="5.76779">
        <ele>436</ele>
        <time>2019-04-17T10:17:50Z</time>
      </trkpt>
      <trkpt lat="46.16456" lon="5.76863">
        <ele>444</ele>
        <time>2019-04-17T10:18:50Z</time>
      </trkpt>
      <trkpt lat="46.16455" lon="5.76884">
        <ele>446</ele>
        <time>2019-04-17T10:19:50Z</time>
      </trkpt>
      <trkpt lat="46.16435" lon="5.76942">
        <ele>439</ele>
        <time>2019-04-17T10:20:50Z</time>
      </trkpt>
      <trkpt lat="46.1643" lon="5.76981">
        <ele>437</ele>
        <time>2019-04-17T10:21:50Z</time>
      </trkpt>
      <trkpt lat="46.16427" lon="5.77083">
        <ele>438</ele>
        <time>2019-04-17T10:22:50Z</time>
      </trkpt>
      <trkpt lat="46.16428" lon="5.77097">
        <ele>439</ele>
        <time>2019-04-17T10:23:50Z</time>
      </trkpt>
      <trkpt lat="46.1643" lon="5.77115">
        <ele>439</ele>
        <time>2019-04-17T10:24:50Z</time>
      </trkpt>
      <trkpt lat="46.16445" lon="5.77201">
        <ele>444</ele>
        <time>2019-04-17T10:25:50Z</time>
      </trkpt>
      <trkpt lat="46.16448" lon="5.77226">
        <ele>446</ele>
        <time>2019-04-17T10:26:50Z</time>
      </trkpt>
      <trkpt lat="46.16443" lon="5.77328">
        <ele>448</ele>
        <time>2019-04-17T10:27:50Z</time>
      </trkpt>
      <trkpt lat="46.16444" lon="5.77343">
        <ele>449</ele>
        <time>2019-04-17T10:28:50Z</time>
      </trkpt>
      <trkpt lat="46.16451" lon="5.77384">
        <ele>453</ele>
        <time>2019-04-17T10:29:50Z</time>
      </trkpt>
      <trkpt lat="46.16468" lon="5.77461">
        <ele>461</ele>
        <time>2019-04-17T10:30:50Z</time>
      </trkpt>
      <trkpt lat="46.16473" lon="5.77497">
        <ele>465</ele>
        <time>2019-04-17T10:31:50Z</time>
      </trkpt>
      <trkpt lat="46.16473" lon="5.77561">
        <ele>467</ele>
        <time>2019-04-17T10:32:50Z</time>
      </trkpt>
      <trkpt lat="46.16476" lon="5.77625">
        <ele>467</ele>
        <time>2019-04-17T10:33:50Z</time>
      </trkpt>
      <trkpt lat="46.16482" lon="5.77646">
        <ele>469</ele>
        <time>2019-04-17T10:34:50Z</time>
      </trkpt>
      <trkpt lat="46.16501" lon="5.7768">
        <ele>474</ele>
        <time>2019-04-17T10:35:50Z</time>
      </trkpt>
      <trkpt lat="46.16511" lon="5.77703">
        <ele>479</ele>
        <time>2019-04-17T10:36:50Z</time>
      </trkpt>
      <trkpt lat="46.16515" lon="5.77724">
        <ele>480</ele>
        <time>2019-04-17T10:37:50Z</time>
      </trkpt>
      <trkpt lat="46.16517" lon="5.77751">
        <ele>480</ele>
        <time>2019-04-17T10:38:50Z</time>
      </trkpt>
      <trkpt lat="46.16523" lon="5.77773">
        <ele>481</ele>
        <time>2019-04-17T10:39:50Z</time>
      </trkpt>
      <trkpt lat="46.1654" lon="5.77807">
        <ele>486</ele>
        <time>2019-04-17T10:40:50Z</time>
      </trkpt>
      <trkpt lat="46.16557" lon="5.77849">
        <ele>489</ele>
        <time>2019-04-17T10:41:50Z</time>
      </trkpt>
      <trkpt lat="46.16567" lon="5.77861">
        <ele>491</ele>
        <time>2019-04-17T10:42:50Z</time>
      </trkpt>
      <trkpt lat="46.16584" lon="5.77877">
        <ele>493</ele>
        <time>2019-04-17T10:43:50Z</time>
      </trkpt>
      <trkpt lat="46.16589" lon="5.77889">
        <ele>493</ele>
        <time>2019-04-17T10:44:50Z</time>
      </trkpt>
      <trkpt lat="46.16592" lon="5.77912">
        <ele>492</ele>
        <time>2019-04-17T10:45:50Z</time>
      </trkpt>
      <trkpt lat="46.16588" lon="5.77927">
        <ele>490</ele>
        <time>2019-04-17T10:46:50Z</time>
      </trkpt>
      <trkpt lat="46.16573" lon="5.77958">
        <ele>490</ele>
        <time>2019-04-17T10:47:50Z</time>
      </trkpt>
      <trkpt lat="46.16571" lon="5.77976">
        <ele>492</ele>
        <time>2019-04-17T10:48:50Z</time>
      </trkpt>
      <trkpt lat="46.16572" lon="5.78002">
        <ele>495</ele>
        <time>2019-04-17T10:49:50Z</time>
      </trkpt>
      <trkpt lat="46.16571" lon="5.78005">
        <ele>496</ele>
        <time>2019-04-17T10:50:50Z</time>
      </trkpt>
      <trkpt lat="46.16563" lon="5.78015">
        <ele>501</ele>
        <time>2019-04-17T10:51:50Z</time>
      </trkpt>
      <trkpt lat="46.16553" lon="5.78015">
        <ele>503</ele>
        <time>2019-04-17T10:52:50Z</time>
      </trkpt>
      <trkpt lat="46.16548" lon="5.78012">
        <ele>503</ele>
        <time>2019-04-17T10:53:50Z</time>
      </trkpt>
      <trkpt lat="46.16531" lon="5.77983">
        <ele>499</ele>
        <time>2019-04-17T10:54:50Z</time>
      </trkpt>
      <trkpt lat="46.16523" lon="5.77961">
        <ele>496</ele>
        <time>2019-04-17T10:55:50Z</time>
      </trkpt>
      <trkpt lat="46.16515" lon="5.77949">
        <ele>493</ele>
        <time>2019-04-17T10:56:50Z</time>
      </trkpt>
      <trkpt lat="46.16488" lon="5.77927">
        <ele>489</ele>
        <time>2019-04-17T10:57:50Z</time>
      </trkpt>
      <trkpt lat="46.16469" lon="5.77905">
        <ele>484</ele>
        <time>2019-04-17T10:58:50Z</time>
      </trkpt>
      <trkpt lat="46.16458" lon="5.77901">
        <ele>484</ele>
        <time>2019-04-17T10:59:50Z</time>
      </trkpt>
      <trkpt lat="46.16448" lon="5.77903">
        <ele>484</ele>
        <time>2019-04-17T11:00:50Z</time>
      </trkpt>
      <trkpt lat="46.16441" lon="5.77911">
        <ele>487</ele>
        <time>2019-04-17T11:01:50Z</time>
      </trkpt>
      <trkpt lat="46.16434" lon="5.77929">
        <ele>492</ele>
        <time>2019-04-17T11:02:50Z</time>
      </trkpt>
      <trkpt lat="46.16424" lon="5.77967">
        <ele>504</ele>
        <time>2019-04-17T11:03:50Z</time>
      </trkpt>
      <trkpt lat="46.16421" lon="5.77973">
        <ele>506</ele>
        <time>2019-04-17T11:04:50Z</time>
      </trkpt>
      <trkpt lat="46.16414" lon="5.77982">
        <ele>508</ele>
        <time>2019-04-17T11:05:50Z</time>
      </trkpt>
      <trkpt lat="46.16405" lon="5.77988">
        <ele>507</ele>
        <time>2019-04-17T11:06:50Z</time>
      </trkpt>
      <trkpt lat="46.16361" lon="5.77992">
        <ele>496</ele>
        <time>2019-04-17T11:07:50Z</time>
      </trkpt>
      <trkpt lat="46.16351" lon="5.77999">
        <ele>495</ele>
        <time>2019-04-17T11:08:50Z</time>
      </trkpt>
      <trkpt lat="46.1634" lon="5.78015">
        <ele>497</ele>
        <time>2019-04-17T11:09:50Z</time>
      </trkpt>
      <trkpt lat="46.16331" lon="5.78035">
        <ele>499</ele>
        <time>2019-04-17T11:10:50Z</time>
      </trkpt>
      <trkpt lat="46.16307" lon="5.7813">
        <ele>513</ele>
        <time>2019-04-17T11:11:50Z</time>
      </trkpt>
      <trkpt lat="46.16299" lon="5.78167">
        <ele>518</ele>
        <time>2019-04-17T11:12:50Z</time>
      </trkpt>
      <trkpt lat="46.1629" lon="5.78197">
        <ele>523</ele>
        <time>2019-04-17T11:13:50Z</time>
      </trkpt>
      <trkpt lat="46.16274" lon="5.78227">
        <ele>525</ele>
        <time>2019-04-17T11:14:50Z</time>
      </trkpt>
      <trkpt lat="46.16243" lon="5.78272">
        <ele>524</ele>
        <time>2019-04-17T11:15:50Z</time>
      </trkpt>
      <trkpt lat="46.16228" lon="5.783">
        <ele>523</ele>
        <time>2019-04-17T11:16:50Z</time>
      </trkpt>
      <trkpt lat="46.16198" lon="5.78375">
        <ele>525</ele>
        <time>2019-04-17T11:17:50Z</time>
      </trkpt>
      <trkpt lat="46.16171" lon="5.78497">
        <ele>534</ele>
        <time>2019-04-17T11:18:50Z</time>
      </trkpt>
      <trkpt lat="46.16149" lon="5.78562">
        <ele>538</ele>
        <time>2019-04-17T11:19:50Z</time>
      </trkpt>
      <trkpt lat="46.16095" lon="5.7867">
        <ele>542</ele>
        <time>2019-04-17T11:20:50Z</time>
      </trkpt>
      <trkpt lat="46.16038" lon="5.78828">
        <ele>556</ele>
        <time>2019-04-17T11:21:50Z</time>
      </trkpt>
      <trkpt lat="46.15984" lon="5.78939">
        <ele>560</ele>
        <time>2019-04-17T11:22:50Z</time>
      </trkpt>
      <trkpt lat="46.15863" lon="5.79156">
        <ele>566</ele>
        <time>2019-04-17T11:23:50Z</time>
      </trkpt>
      <trkpt lat="46.15807" lon="5.79276">
        <ele>567</ele>
        <time>2019-04-17T11:24:50Z</time>
      </trkpt>
      <trkpt lat="46.1577" lon="5.79372">
        <ele>569</ele>
        <time>2019-04-17T11:25:50Z</time>
      </trkpt>
      <trkpt lat="46.1575" lon="5.79419">
        <ele>570</ele>
        <time>2019-04-17T11:26:50Z</time>
      </trkpt>
      <trkpt lat="46.15734" lon="5.79445">
        <ele>569</ele>
        <time>2019-04-17T11:27:50Z</time>
      </trkpt>
      <trkpt lat="46.15713" lon="5.79474">
        <ele>569</ele>
        <time>2019-04-17T11:28:50Z</time>
      </trkpt>
      <trkpt lat="46.15689" lon="5.79518">
        <ele>572</ele>
        <time>2019-04-17T11:29:50Z</time>
      </trkpt>
      <trkpt lat="46.15678" lon="5.79543">
        <ele>574</ele>
        <time>2019-04-17T11:30:50Z</time>
      </trkpt>
      <trkpt lat="46.15675" lon="5.79559">
        <ele>576</ele>
        <time>2019-04-17T11:31:50Z</time>
      </trkpt>
      <trkpt lat="46.15675" lon="5.79575">
        <ele>578</ele>
        <time>2019-04-17T11:32:50Z</time>
      </trkpt>
      <trkpt lat="46.15676" lon="5.7959">
        <ele>579</ele>
        <time>2019-04-17T11:33:50Z</time>
      </trkpt>
      <trkpt lat="46.15684" lon="5.79616">
        <ele>580</ele>
        <time>2019-04-17T11:34:50Z</time>
      </trkpt>
      <trkpt lat="46.15696" lon="5.79636">
        <ele>581</ele>
        <time>2019-04-17T11:35:50Z</time>
      </trkpt>
      <trkpt lat="46.15819" lon="5.79749">
        <ele>587</ele>
        <time>2019-04-17T11:36:50Z</time>
      </trkpt>
      <trkpt lat="46.15922" lon="5.79861">
        <ele>589</ele>
        <time>2019-04-17T11:37:50Z</time>
      </trkpt>
      <trkpt lat="46.15938" lon="5.79876">
        <ele>590</ele>
        <time>2019-04-17T11:38:50Z</time>
      </trkpt>
      <trkpt lat="46.15969" lon="5.79899">
        <ele>590</ele>
        <time>2019-04-17T11:39:50Z</time>
      </trkpt>
      <trkpt lat="46.16019" lon="5.79924">
        <ele>590</ele>
        <time>2019-04-17T11:40:50Z</time>
      </trkpt>
      <trkpt lat="46.16036" lon="5.79932">
        <ele>591</ele>
        <time>2019-04-17T11:41:50Z</time>
      </trkpt>
      <trkpt lat="46.16095" lon="5.79949">
        <ele>593</ele>
        <time>2019-04-17T11:42:50Z</time>
      </trkpt>
      <trkpt lat="46.16111" lon="5.79955">
        <ele>594</ele>
        <time>2019-04-17T11:43:50Z</time>
      </trkpt>
      <trkpt lat="46.1613" lon="5.79967">
        <ele>594</ele>
        <time>2019-04-17T11:44:50Z</time>
      </trkpt>
      <trkpt lat="46.16192" lon="5.80022">
        <ele>594</ele>
        <time>2019-04-17T11:45:50Z</time>
      </trkpt>
      <trkpt lat="46.16338" lon="5.80161">
        <ele>598</ele>
        <time>2019-04-17T11:46:50Z</time>
      </trkpt>
      <trkpt lat="46.16383" lon="5.80202">
        <ele>600</ele>
        <time>2019-04-17T11:47:50Z</time>
      </trkpt>
      <trkpt lat="46.16397" lon="5.8021">
        <ele>601</ele>
        <time>2019-04-17T11:48:50Z</time>
      </trkpt>
      <trkpt lat="46.16416" lon="5.80217">
        <ele>603</ele>
        <time>2019-04-17T11:49:50Z</time>
      </trkpt>
      <trkpt lat="46.16439" lon="5.8022">
        <ele>604</ele>
        <time>2019-04-17T11:50:50Z</time>
      </trkpt>
      <trkpt lat="46.16484" lon="5.8022">
        <ele>608</ele>
        <time>2019-04-17T11:51:50Z</time>
      </trkpt>
      <trkpt lat="46.16488" lon="5.80223">
        <ele>608</ele>
        <time>2019-04-17T11:52:50Z</time>
      </trkpt>
      <trkpt lat="46.16543" lon="5.80305">
        <ele>610</ele>
        <time>2019-04-17T11:53:50Z</time>
      </trkpt>
      <trkpt lat="46.16565" lon="5.80334">
        <ele>610</ele>
        <time>2019-04-17T11:54:50Z</time>
      </trkpt>
      <trkpt lat="46.1658" lon="5.80349">
        <ele>609</ele>
        <time>2019-04-17T11:55:50Z</time>
      </trkpt>
      <trkpt lat="46.16607" lon="5.80374">
        <ele>610</ele>
        <time>2019-04-17T11:56:50Z</time>
      </trkpt>
      <trkpt lat="46.16695" lon="5.80433">
        <ele>606</ele>
        <time>2019-04-17T11:57:50Z</time>
      </trkpt>
      <trkpt lat="46.16711" lon="5.80437">
        <ele>606</ele>
        <time>2019-04-17T11:58:50Z</time>
      </trkpt>
      <trkpt lat="46.16732" lon="5.80437">
        <ele>606</ele>
        <time>2019-04-17T11:59:50Z</time>
      </trkpt>
      <trkpt lat="46.16754" lon="5.8043">
        <ele>606</ele>
        <time>2019-04-17T12:00:50Z</time>
      </trkpt>
      <trkpt lat="46.16762" lon="5.80425">
        <ele>606</ele>
        <time>2019-04-17T12:01:50Z</time>
      </trkpt>
      <trkpt lat="46.16787" lon="5.80401">
        <ele>606</ele>
        <time>2019-04-17T12:02:50Z</time>
      </trkpt>
      <trkpt lat="46.16807" lon="5.80377">
        <ele>607</ele>
        <time>2019-04-17T12:03:50Z</time>
      </trkpt>
      <trkpt lat="46.16844" lon="5.80329">
        <ele>609</ele>
        <time>2019-04-17T12:04:50Z</time>
      </trkpt>
      <trkpt lat="46.1686" lon="5.80314">
        <ele>612</ele>
        <time>2019-04-17T12:05:50Z</time>
      </trkpt>
      <trkpt lat="46.16878" lon="5.80304">
        <ele>614</ele>
        <time>2019-04-17T12:06:50Z</time>
      </trkpt>
      <trkpt lat="46.16889" lon="5.80301">
        <ele>615</ele>
        <time>2019-04-17T12:07:50Z</time>
      </trkpt>
      <trkpt lat="46.16917" lon="5.80312">
        <ele>612</ele>
        <time>2019-04-17T12:08:50Z</time>
      </trkpt>
      <trkpt lat="46.16977" lon="5.80367">
        <ele>613</ele>
        <time>2019-04-17T12:09:50Z</time>
      </trkpt>
      <trkpt lat="46.17008" lon="5.804">
        <ele>610</ele>
        <time>2019-04-17T12:10:50Z</time>
      </trkpt>
      <trkpt lat="46.17028" lon="5.80428">
        <ele>608</ele>
        <time>2019-04-17T12:11:50Z</time>
      </trkpt>
      <trkpt lat="46.17061" lon="5.80496">
        <ele>602</ele>
        <time>2019-04-17T12:12:50Z</time>
      </trkpt>
      <trkpt lat="46.17071" lon="5.80513">
        <ele>601</ele>
        <time>2019-04-17T12:13:50Z</time>
      </trkpt>
      <trkpt lat="46.17083" lon="5.80526">
        <ele>602</ele>
        <time>2019-04-17T12:14:50Z</time>
      </trkpt>
      <trkpt lat="46.17112" lon="5.80539">
        <ele>606</ele>
        <time>2019-04-17T12:15:50Z</time>
      </trkpt>
      <trkpt lat="46.17186" lon="5.8058">
        <ele>606</ele>
        <time>2019-04-17T12:16:50Z</time>
      </trkpt>
      <trkpt lat="46.17273" lon="5.80615">
        <ele>607</ele>
        <time>2019-04-17T12:17:50Z</time>
      </trkpt>
      <trkpt lat="46.17531" lon="5.8071">
        <ele>605</ele>
        <time>2019-04-17T12:18:50Z</time>
      </trkpt>
      <trkpt lat="46.17659" lon="5.80732">
        <ele>604</ele>
        <time>2019-04-17T12:19:50Z</time>
      </trkpt>
      <trkpt lat="46.17672" lon="5.80727">
        <ele>606</ele>
        <time>2019-04-17T12:20:50Z</time>
      </trkpt>
      <trkpt lat="46.17699" lon="5.80715">
        <ele>610</ele>
        <time>2019-04-17T12:21:50Z</time>
      </trkpt>
      <trkpt lat="46.17725" lon="5.80697">
        <ele>616</ele>
        <time>2019-04-17T12:22:50Z</time>
      </trkpt>
      <trkpt lat="46.17781" lon="5.80676">
        <ele>621</ele>
        <time>2019-04-17T12:23:50Z</time>
      </trkpt>
      <trkpt lat="46.1782" lon="5.80665">
        <ele>623</ele>
        <time>2019-04-17T12:24:50Z</time>
      </trkpt>
      <trkpt lat="46.17844" lon="5.80663">
        <ele>624</ele>
        <time>2019-04-17T12:25:50Z</time>
      </trkpt>
      <trkpt lat="46.1787" lon="5.80664">
        <ele>624</ele>
        <time>2019-04-17T12:26:50Z</time>
      </trkpt>
      <trkpt lat="46.17894" lon="5.80673">
        <ele>621</ele>
        <time>2019-04-17T12:27:50Z</time>
      </trkpt>
      <trkpt lat="46.17925" lon="5.80697">
        <ele>615</ele>
        <time>2019-04-17T12:28:50Z</time>
      </trkpt>
      <trkpt lat="46.17938" lon="5.80702">
        <ele>613</ele>
        <time>2019-04-17T12:29:50Z</time>
      </trkpt>
      <trkpt lat="46.17959" lon="5.807">
        <ele>614</ele>
        <time>2019-04-17T12:30:50Z</time>
      </trkpt>
      <trkpt lat="46.18025" lon="5.80673">
        <ele>619</ele>
        <time>2019-04-17T12:31:50Z</time>
      </trkpt>
      <trkpt lat="46.18048" lon="5.8067">
        <ele>617</ele>
        <time>2019-04-17T12:32:50Z</time>
      </trkpt>
      <trkpt lat="46.18072" lon="5.80679">
        <ele>613</ele>
        <time>2019-04-17T12:33:50Z</time>
      </trkpt>
      <trkpt lat="46.18142" lon="5.80719">
        <ele>614</ele>
        <time>2019-04-17T12:34:50Z</time>
      </trkpt>
      <trkpt lat="46.18166" lon="5.80743">
        <ele>612</ele>
        <time>2019-04-17T12:35:50Z</time>
      </trkpt>
      <trkpt lat="46.18192" lon="5.8076">
        <ele>614</ele>
        <time>2019-04-17T12:36:50Z</time>
      </trkpt>
      <trkpt lat="46.18222" lon="5.80775">
        <ele>617</ele>
        <time>2019-04-17T12:37:50Z</time>
      </trkpt>
      <trkpt lat="46.18292" lon="5.80828">
        <ele>616</ele>
        <time>2019-04-17T12:38:50Z</time>
      </trkpt>
      <trkpt lat="46.18331" lon="5.80861">
        <ele>617</ele>
        <time>2019-04-17T12:39:50Z</time>
      </trkpt>
      <trkpt lat="46.18362" lon="5.80879">
        <ele>621</ele>
        <time>2019-04-17T12:40:50Z</time>
      </trkpt>
      <trkpt lat="46.18398" lon="5.80891">
        <ele>624</ele>
        <time>2019-04-17T12:41:50Z</time>
      </trkpt>
      <trkpt lat="46.1844" lon="5.80895">
        <ele>629</ele>
        <time>2019-04-17T12:42:50Z</time>
      </trkpt>
      <trkpt lat="46.18518" lon="5.80894">
        <ele>636</ele>
        <time>2019-04-17T12:43:50Z</time>
      </trkpt>
      <trkpt lat="46.18536" lon="5.80886">
        <ele>637</ele>
        <time>2019-04-17T12:44:50Z</time>
      </trkpt>
      <trkpt lat="46.18582" lon="5.80855">
        <ele>637</ele>
        <time>2019-04-17T12:45:50Z</time>
      </trkpt>
      <trkpt lat="46.18601" lon="5.80847">
        <ele>638</ele>
        <time>2019-04-17T12:46:50Z</time>
      </trkpt>
      <trkpt lat="46.18642" lon="5.80846">
        <ele>641</ele>
        <time>2019-04-17T12:47:50Z</time>
      </trkpt>
      <trkpt lat="46.18681" lon="5.8085">
        <ele>643</ele>
        <time>2019-04-17T12:48:50Z</time>
      </trkpt>
      <trkpt lat="46.18701" lon="5.80855">
        <ele>644</ele>
        <time>2019-04-17T12:49:50Z</time>
      </trkpt>
      <trkpt lat="46.1872" lon="5.80866">
        <ele>645</ele>
        <time>2019-04-17T12:50:50Z</time>
      </trkpt>
      <trkpt lat="46.18741" lon="5.80881">
        <ele>645</ele>
        <time>2019-04-17T12:51:50Z</time>
      </trkpt>
      <trkpt lat="46.18926" lon="5.81081">
        <ele>658</ele>
        <time>2019-04-17T12:52:50Z</time>
      </trkpt>
      <trkpt lat="46.18988" lon="5.8114">
        <ele>660</ele>
        <time>2019-04-17T12:53:50Z</time>
      </trkpt>
      <trkpt lat="46.18987" lon="5.81146">
        <ele>660</ele>
        <time>2019-04-17T12:54:50Z</time>
      </trkpt>
      <trkpt lat="46.18989" lon="5.81159">
        <ele>660</ele>
        <time>2019-04-17T12:55:50Z</time>
      </trkpt>
      <trkpt lat="46.18993" lon="5.81163">
        <ele>660</ele>
        <time>2019-04-17T12:56:50Z</time>
      </trkpt>
      <trkpt lat="46.19001" lon="5.81166">
        <ele>659</ele>
        <time>2019-04-17T12:57:50Z</time>
      </trkpt>
      <trkpt lat="46.1901" lon="5.81161">
        <ele>659</ele>
        <time>2019-04-17T12:58:50Z</time>
      </trkpt>
      <trkpt lat="46.19017" lon="5.81166">
        <ele>658</ele>
        <time>2019-04-17T12:59:50Z</time>
      </trkpt>
      <trkpt lat="46.19123" lon="5.81311">
        <ele>656</ele>
        <time>2019-04-17T13:00:50Z</time>
      </trkpt>
      <trkpt lat="46.19185" lon="5.81372">
        <ele>653</ele>
        <time>2019-04-17T13:01:50Z</time>
      </trkpt>
      <trkpt lat="46.19233" lon="5.81444">
        <ele>651</ele>
        <time>2019-04-17T13:02:50Z</time>
      </trkpt>
      <trkpt lat="46.19276" lon="5.81494">
        <ele>649</ele>
        <time>2019-04-17T13:03:50Z</time>
      </trkpt>
      <trkpt lat="46.19405" lon="5.81626">
        <ele>646</ele>
        <time>2019-04-17T13:04:50Z</time>
      </trkpt>
      <trkpt lat="46.19451" lon="5.81671">
        <ele>644</ele>
        <time>2019-04-17T13:05:50Z</time>
      </trkpt>
      <trkpt lat="46.19461" lon="5.81683">
        <ele>643</ele>
        <time>2019-04-17T13:06:50Z</time>
      </trkpt>
      <trkpt lat="46.19466" lon="5.81705">
        <ele>643</ele>
        <time>2019-04-17T13:07:50Z</time>
      </trkpt>
      <trkpt lat="46.19503" lon="5.81775">
        <ele>641</ele>
        <time>2019-04-17T13:08:50Z</time>
      </trkpt>
      <trkpt lat="46.19519" lon="5.81813">
        <ele>643</ele>
        <time>2019-04-17T13:09:50Z</time>
      </trkpt>
      <trkpt lat="46.19533" lon="5.8187">
        <ele>646</ele>
        <time>2019-04-17T13:10:50Z</time>
      </trkpt>
      <trkpt lat="46.19539" lon="5.81913">
        <ele>648</ele>
        <time>2019-04-17T13:11:50Z</time>
      </trkpt>
      <trkpt lat="46.19538" lon="5.81984">
        <ele>650</ele>
        <time>2019-04-17T13:12:50Z</time>
      </trkpt>
      <trkpt lat="46.19529" lon="5.82045">
        <ele>651</ele>
        <time>2019-04-17T13:13:50Z</time>
      </trkpt>
      <trkpt lat="46.19509" lon="5.82215">
        <ele>656</ele>
        <time>2019-04-17T13:14:50Z</time>
      </trkpt>
      <trkpt lat="46.19507" lon="5.82248">
        <ele>656</ele>
        <time>2019-04-17T13:15:50Z</time>
      </trkpt>
      <trkpt lat="46.19519" lon="5.82474">
        <ele>659</ele>
        <time>2019-04-17T13:16:50Z</time>
      </trkpt>
      <trkpt lat="46.19525" lon="5.82511">
        <ele>659</ele>
        <time>2019-04-17T13:17:50Z</time>
      </trkpt>
      <trkpt lat="46.19559" lon="5.82621">
        <ele>662</ele>
        <time>2019-04-17T13:18:50Z</time>
      </trkpt>
      <trkpt lat="46.19563" lon="5.82651">
        <ele>663</ele>
        <time>2019-04-17T13:19:50Z</time>
      </trkpt>
      <trkpt lat="46.19561" lon="5.82676">
        <ele>663</ele>
        <time>2019-04-17T13:20:50Z</time>
      </trkpt>
      <trkpt lat="46.19553" lon="5.8274">
        <ele>667</ele>
        <time>2019-04-17T13:21:50Z</time>
      </trkpt>
      <trkpt lat="46.19543" lon="5.82796">
        <ele>674</ele>
        <time>2019-04-17T13:22:50Z</time>
      </trkpt>
      <trkpt lat="46.19524" lon="5.8283">
        <ele>673</ele>
        <time>2019-04-17T13:23:50Z</time>
      </trkpt>
      <trkpt lat="46.19497" lon="5.82867">
        <ele>671</ele>
        <time>2019-04-17T13:24:50Z</time>
      </trkpt>
      <trkpt lat="46.19487" lon="5.82875">
        <ele>671</ele>
        <time>2019-04-17T13:25:50Z</time>
      </trkpt>
      <trkpt lat="46.19463" lon="5.82881">
        <ele>668</ele>
        <time>2019-04-17T13:26:50Z</time>
      </trkpt>
      <trkpt lat="46.19447" lon="5.82881">
        <ele>666</ele>
        <time>2019-04-17T13:27:50Z</time>
      </trkpt>
      <trkpt lat="46.19435" lon="5.82886">
        <ele>665</ele>
        <time>2019-04-17T13:28:50Z</time>
      </trkpt>
      <trkpt lat="46.19416" lon="5.82911">
        <ele>667</ele>
        <time>2019-04-17T13:29:50Z</time>
      </trkpt>
      <trkpt lat="46.19411" lon="5.82924">
        <ele>667</ele>
        <time>2019-04-17T13:30:50Z</time>
      </trkpt>
      <trkpt lat="46.19412" lon="5.82935">
        <ele>666</ele>
        <time>2019-04-17T13:31:50Z</time>
      </trkpt>
      <trkpt lat="46.19416" lon="5.82944">
        <ele>665</ele>
        <time>2019-04-17T13:32:50Z</time>
      </trkpt>
      <trkpt lat="46.19428" lon="5.82954">
        <ele>666</ele>
        <time>2019-04-17T13:33:50Z</time>
      </trkpt>
      <trkpt lat="46.19508" lon="5.82981">
        <ele>678</ele>
        <time>2019-04-17T13:34:50Z</time>
      </trkpt>
      <trkpt lat="46.1953" lon="5.82993">
        <ele>684</ele>
        <time>2019-04-17T13:35:50Z</time>
      </trkpt>
      <trkpt lat="46.19533" lon="5.82997">
        <ele>684</ele>
        <time>2019-04-17T13:36:50Z</time>
      </trkpt>
      <trkpt lat="46.19536" lon="5.8301">
        <ele>684</ele>
        <time>2019-04-17T13:37:50Z</time>
      </trkpt>
      <trkpt lat="46.19536" lon="5.83023">
        <ele>683</ele>
        <time>2019-04-17T13:38:50Z</time>
      </trkpt>
      <trkpt lat="46.19532" lon="5.83035">
        <ele>681</ele>
        <time>2019-04-17T13:39:50Z</time>
      </trkpt>
      <trkpt lat="46.19516" lon="5.83056">
        <ele>674</ele>
        <time>2019-04-17T13:40:50Z</time>
      </trkpt>
      <trkpt lat="46.1951" lon="5.83069">
        <ele>671</ele>
        <time>2019-04-17T13:41:50Z</time>
      </trkpt>
      <trkpt lat="46.19508" lon="5.83076">
        <ele>670</ele>
        <time>2019-04-17T13:42:50Z</time>
      </trkpt>
      <trkpt lat="46.19509" lon="5.83085">
        <ele>669</ele>
        <time>2019-04-17T13:43:50Z</time>
      </trkpt>
      <trkpt lat="46.19511" lon="5.83097">
        <ele>668</ele>
        <time>2019-04-17T13:44:50Z</time>
      </trkpt>
      <trkpt lat="46.19517" lon="5.8311">
        <ele>669</ele>
        <time>2019-04-17T13:45:50Z</time>
      </trkpt>
      <trkpt lat="46.19527" lon="5.83123">
        <ele>671</ele>
        <time>2019-04-17T13:46:50Z</time>
      </trkpt>
      <trkpt lat="46.19544" lon="5.83132">
        <ele>676</ele>
        <time>2019-04-17T13:47:50Z</time>
      </trkpt>
      <trkpt lat="46.19557" lon="5.83137">
        <ele>681</ele>
        <time>2019-04-17T13:48:50Z</time>
      </trkpt>
      <trkpt lat="46.19565" lon="5.83144">
        <ele>683</ele>
        <time>2019-04-17T13:49:50Z</time>
      </trkpt>
      <trkpt lat="46.19571" lon="5.83154">
        <ele>684</ele>
        <time>2019-04-17T13:50:50Z</time>
      </trkpt>
      <trkpt lat="46.19583" lon="5.83203">
        <ele>685</ele>
        <time>2019-04-17T13:51:50Z</time>
      </trkpt>
      <trkpt lat="46.19586" lon="5.83223">
        <ele>685</ele>
        <time>2019-04-17T13:52:50Z</time>
      </trkpt>
      <trkpt lat="46.19585" lon="5.83238">
        <ele>683</ele>
        <time>2019-04-17T13:53:50Z</time>
      </trkpt>
      <trkpt lat="46.1958" lon="5.83257">
        <ele>681</ele>
        <time>2019-04-17T13:54:50Z</time>
      </trkpt>
      <trkpt lat="46.19561" lon="5.83303">
        <ele>674</ele>
        <time>2019-04-17T13:55:50Z</time>
      </trkpt>
      <trkpt lat="46.19551" lon="5.83358">
        <ele>667</ele>
        <time>2019-04-17T13:56:50Z</time>
      </trkpt>
      <trkpt lat="46.19552" lon="5.83372">
        <ele>666</ele>
        <time>2019-04-17T13:57:50Z</time>
      </trkpt>
      <trkpt lat="46.19556" lon="5.83386">
        <ele>666</ele>
        <time>2019-04-17T13:58:50Z</time>
      </trkpt>
      <trkpt lat="46.19563" lon="5.834">
        <ele>668</ele>
        <time>2019-04-17T13:59:50Z</time>
      </trkpt>
      <trkpt lat="46.19579" lon="5.83419">
        <ele>673</ele>
        <time>2019-04-17T14:00:50Z</time>
      </trkpt>
      <trkpt lat="46.19586" lon="5.83433">
        <ele>673</ele>
        <time>2019-04-17T14:01:50Z</time>
      </trkpt>
      <trkpt lat="46.19601" lon="5.83474">
        <ele>669</ele>
        <time>2019-04-17T14:02:50Z</time>
      </trkpt>
      <trkpt lat="46.19606" lon="5.83486">
        <ele>668</ele>
        <time>2019-04-17T14:03:50Z</time>
      </trkpt>
      <trkpt lat="46.19644" lon="5.83514">
        <ele>676</ele>
        <time>2019-04-17T14:04:50Z</time>
      </trkpt>
      <trkpt lat="46.19704" lon="5.83577">
        <ele>675</ele>
        <time>2019-04-17T14:05:50Z</time>
      </trkpt>
      <trkpt lat="46.19736" lon="5.83606">
        <ele>676</ele>
        <time>2019-04-17T14:06:50Z</time>
      </trkpt>
      <trkpt lat="46.19745" lon="5.83617">
        <ele>675</ele>
        <time>2019-04-17T14:07:50Z</time>
      </trkpt>
      <trkpt lat="46.19755" lon="5.83636">
        <ele>672</ele>
        <time>2019-04-17T14:08:50Z</time>
      </trkpt>
      <trkpt lat="46.19777" lon="5.83666">
        <ele>669</ele>
        <time>2019-04-17T14:09:50Z</time>
      </trkpt>
      <trkpt lat="46.19829" lon="5.83699">
        <ele>675</ele>
        <time>2019-04-17T14:10:50Z</time>
      </trkpt>
      <trkpt lat="46.19875" lon="5.83715">
        <ele>678</ele>
        <time>2019-04-17T14:11:50Z</time>
      </trkpt>
      <trkpt lat="46.19885" lon="5.83722">
        <ele>677</ele>
        <time>2019-04-17T14:12:50Z</time>
      </trkpt>
      <trkpt lat="46.19899" lon="5.83747">
        <ele>671</ele>
        <time>2019-04-17T14:13:50Z</time>
      </trkpt>
      <trkpt lat="46.19906" lon="5.83757">
        <ele>668</ele>
        <time>2019-04-17T14:14:50Z</time>
      </trkpt>
      <trkpt lat="46.19913" lon="5.83762">
        <ele>668</ele>
        <time>2019-04-17T14:15:50Z</time>
      </trkpt>
      <trkpt lat="46.19994" lon="5.83798">
        <ele>673</ele>
        <time>2019-04-17T14:16:50Z</time>
      </trkpt>
      <trkpt lat="46.20018" lon="5.83831">
        <ele>669</ele>
        <time>2019-04-17T14:17:50Z</time>
      </trkpt>
      <trkpt lat="46.20067" lon="5.83863">
        <ele>681</ele>
        <time>2019-04-17T14:18:50Z</time>
      </trkpt>
      <trkpt lat="46.20073" lon="5.8387">
        <ele>682</ele>
        <time>2019-04-17T14:19:50Z</time>
      </trkpt>
      <trkpt lat="46.20076" lon="5.83878">
        <ele>681</ele>
        <time>2019-04-17T14:20:50Z</time>
      </trkpt>
      <trkpt lat="46.20075" lon="5.8389">
        <ele>679</ele>
        <time>2019-04-17T14:21:50Z</time>
      </trkpt>
      <trkpt lat="46.20071" lon="5.83898">
        <ele>676</ele>
        <time>2019-04-17T14:22:50Z</time>
      </trkpt>
      <trkpt lat="46.20065" lon="5.83903">
        <ele>673</ele>
        <time>2019-04-17T14:23:50Z</time>
      </trkpt>
      <trkpt lat="46.2002" lon="5.83924">
        <ele>661</ele>
        <time>2019-04-17T14:24:50Z</time>
      </trkpt>
      <trkpt lat="46.20007" lon="5.83927">
        <ele>658</ele>
        <time>2019-04-17T14:25:50Z</time>
      </trkpt>
      <trkpt lat="46.19976" lon="5.83919">
        <ele>647</ele>
        <time>2019-04-17T14:26:50Z</time>
      </trkpt>
      <trkpt lat="46.1997" lon="5.8392">
        <ele>646</ele>
        <time>2019-04-17T14:27:50Z</time>
      </trkpt>
      <trkpt lat="46.19963" lon="5.83926">
        <ele>645</ele>
        <time>2019-04-17T14:28:50Z</time>
      </trkpt>
      <trkpt lat="46.19949" lon="5.83947">
        <ele>645</ele>
        <time>2019-04-17T14:29:50Z</time>
      </trkpt>
      <trkpt lat="46.19947" lon="5.83958">
        <ele>646</ele>
        <time>2019-04-17T14:30:50Z</time>
      </trkpt>
      <trkpt lat="46.19946" lon="5.83978">
        <ele>648</ele>
        <time>2019-04-17T14:31:50Z</time>
      </trkpt>
      <trkpt lat="46.19944" lon="5.8399">
        <ele>649</ele>
        <time>2019-04-17T14:32:50Z</time>
      </trkpt>
      <trkpt lat="46.19937" lon="5.84">
        <ele>648</ele>
        <time>2019-04-17T14:33:50Z</time>
      </trkpt>
      <trkpt lat="46.19922" lon="5.84016">
        <ele>642</ele>
        <time>2019-04-17T14:34:50Z</time>
      </trkpt>
      <trkpt lat="46.19917" lon="5.8403">
        <ele>640</ele>
        <time>2019-04-17T14:35:50Z</time>
      </trkpt>
      <trkpt lat="46.19917" lon="5.84044">
        <ele>640</ele>
        <time>2019-04-17T14:36:50Z</time>
      </trkpt>
      <trkpt lat="46.19919" lon="5.84064">
        <ele>641</ele>
        <time>2019-04-17T14:37:50Z</time>
      </trkpt>
      <trkpt lat="46.19926" lon="5.84099">
        <ele>643</ele>
        <time>2019-04-17T14:38:50Z</time>
      </trkpt>
      <trkpt lat="46.19946" lon="5.84176">
        <ele>647</ele>
        <time>2019-04-17T14:39:50Z</time>
      </trkpt>
      <trkpt lat="46.19948" lon="5.84193">
        <ele>647</ele>
        <time>2019-04-17T14:40:50Z</time>
      </trkpt>
      <trkpt lat="46.1994" lon="5.84249">
        <ele>637</ele>
        <time>2019-04-17T14:41:50Z</time>
      </trkpt>
      <trkpt lat="46.19939" lon="5.84272">
        <ele>633</ele>
        <time>2019-04-17T14:42:50Z</time>
      </trkpt>
      <trkpt lat="46.19944" lon="5.84304">
        <ele>633</ele>
        <time>2019-04-17T14:43:50Z</time>
      </trkpt>
      <trkpt lat="46.19963" lon="5.84362">
        <ele>638</ele>
        <time>2019-04-17T14:44:50Z</time>
      </trkpt>
      <trkpt lat="46.20007" lon="5.84486">
        <ele>636</ele>
        <time>2019-04-17T14:45:50Z</time>
      </trkpt>
      <trkpt lat="46.20033" lon="5.8458">
        <ele>636</ele>
        <time>2019-04-17T14:46:50Z</time>
      </trkpt>
      <trkpt lat="46.20036" lon="5.84602">
        <ele>635</ele>
        <time>2019-04-17T14:47:50Z</time>
      </trkpt>
      <trkpt lat="46.20039" lon="5.84689">
        <ele>626</ele>
        <time>2019-04-17T14:48:50Z</time>
      </trkpt>
      <trkpt lat="46.20076" lon="5.84846">
        <ele>619</ele>
        <time>2019-04-17T14:49:50Z</time>
      </trkpt>
      <trkpt lat="46.20083" lon="5.84887">
        <ele>614</ele>
        <time>2019-04-17T14:50:50Z</time>
      </trkpt>
      <trkpt lat="46.20088" lon="5.84903">
        <ele>614</ele>
        <time>2019-04-17T14:51:50Z</time>
      </trkpt>
      <trkpt lat="46.2016" lon="5.85032">
        <ele>617</ele>
        <time>2019-04-17T14:52:50Z</time>
      </trkpt>
      <trkpt lat="46.20201" lon="5.8509">
        <ele>620</ele>
        <time>2019-04-17T14:53:50Z</time>
      </trkpt>
      <trkpt lat="46.20248" lon="5.85189">
        <ele>604</ele>
        <time>2019-04-17T14:54:50Z</time>
      </trkpt>
      <trkpt lat="46.20269" lon="5.85218">
        <ele>606</ele>
        <time>2019-04-17T14:55:50Z</time>
      </trkpt>
      <trkpt lat="46.20296" lon="5.85252">
        <ele>609</ele>
        <time>2019-04-17T14:56:50Z</time>
      </trkpt>
      <trkpt lat="46.20308" lon="5.85266">
        <ele>610</ele>
        <time>2019-04-17T14:57:50Z</time>
      </trkpt>
      <trkpt lat="46.2033" lon="5.85296">
        <ele>610</ele>
        <time>2019-04-17T14:58:50Z</time>
      </trkpt>
      <trkpt lat="46.20339" lon="5.85314">
        <ele>607</ele>
        <time>2019-04-17T14:59:50Z</time>
      </trkpt>
      <trkpt lat="46.20347" lon="5.85339">
        <ele>602</ele>
        <time>2019-04-17T15:00:50Z</time>
      </trkpt>
      <trkpt lat="46.20368" lon="5.85384">
        <ele>597</ele>
        <time>2019-04-17T15:01:50Z</time>
      </trkpt>
      <trkpt lat="46.20377" lon="5.85396">
        <ele>597</ele>
        <time>2019-04-17T15:02:50Z</time>
      </trkpt>
      <trkpt lat="46.2041" lon="5.85416">
        <ele>603</ele>
        <time>2019-04-17T15:03:50Z</time>
      </trkpt>
      <trkpt lat="46.20419" lon="5.85425">
        <ele>604</ele>
        <time>2019-04-17T15:04:50Z</time>
      </trkpt>
      <trkpt lat="46.20443" lon="5.85457">
        <ele>603</ele>
        <time>2019-04-17T15:05:50Z</time>
      </trkpt>
      <trkpt lat="46.2046" lon="5.85486">
        <ele>599</ele>
        <time>2019-04-17T15:06:50Z</time>
      </trkpt>
      <trkpt lat="46.20477" lon="5.8551">
        <ele>598</ele>
        <time>2019-04-17T15:07:50Z</time>
      </trkpt>
      <trkpt lat="46.20497" lon="5.85534">
        <ele>597</ele>
        <time>2019-04-17T15:08:50Z</time>
      </trkpt>
      <trkpt lat="46.20519" lon="5.85555">
        <ele>594</ele>
        <time>2019-04-17T15:09:50Z</time>
      </trkpt>
      <trkpt lat="46.20546" lon="5.85574">
        <ele>592</ele>
        <time>2019-04-17T15:10:50Z</time>
      </trkpt>
      <trkpt lat="46.20574" lon="5.85587">
        <ele>593</ele>
        <time>2019-04-17T15:11:50Z</time>
      </trkpt>
      <trkpt lat="46.20595" lon="5.85593">
        <ele>593</ele>
        <time>2019-04-17T15:12:50Z</time>
      </trkpt>
      <trkpt lat="46.20679" lon="5.85601">
        <ele>594</ele>
        <time>2019-04-17T15:13:50Z</time>
      </trkpt>
      <trkpt lat="46.20733" lon="5.8561">
        <ele>600</ele>
        <time>2019-04-17T15:14:50Z</time>
      </trkpt>
      <trkpt lat="46.20753" lon="5.85616">
        <ele>600</ele>
        <time>2019-04-17T15:15:50Z</time>
      </trkpt>
      <trkpt lat="46.20786" lon="5.85632">
        <ele>597</ele>
        <time>2019-04-17T15:16:50Z</time>
      </trkpt>
      <trkpt lat="46.20841" lon="5.85654">
        <ele>594</ele>
        <time>2019-04-17T15:17:50Z</time>
      </trkpt>
      <trkpt lat="46.2087" lon="5.85663">
        <ele>593</ele>
        <time>2019-04-17T15:18:50Z</time>
      </trkpt>
      <trkpt lat="46.20897" lon="5.85677">
        <ele>593</ele>
        <time>2019-04-17T15:19:50Z</time>
      </trkpt>
      <trkpt lat="46.20928" lon="5.85704">
        <ele>594</ele>
        <time>2019-04-17T15:20:50Z</time>
      </trkpt>
      <trkpt lat="46.20966" lon="5.85729">
        <ele>600</ele>
        <time>2019-04-17T15:21:50Z</time>
      </trkpt>
      <trkpt lat="46.20983" lon="5.85746">
        <ele>600</ele>
        <time>2019-04-17T15:22:50Z</time>
      </trkpt>
      <trkpt lat="46.21018" lon="5.85789">
        <ele>597</ele>
        <time>2019-04-17T15:23:50Z</time>
      </trkpt>
      <trkpt lat="46.21031" lon="5.85798">
        <ele>597</ele>
        <time>2019-04-17T15:24:50Z</time>
      </trkpt>
      <trkpt lat="46.21046" lon="5.85803">
        <ele>597</ele>
        <time>2019-04-17T15:25:50Z</time>
      </trkpt>
      <trkpt lat="46.21062" lon="5.85803">
        <ele>598</ele>
        <time>2019-04-17T15:26:50Z</time>
      </trkpt>
      <trkpt lat="46.21111" lon="5.85788">
        <ele>604</ele>
        <time>2019-04-17T15:27:50Z</time>
      </trkpt>
      <trkpt lat="46.2117" lon="5.85788">
        <ele>609</ele>
        <time>2019-04-17T15:28:50Z</time>
      </trkpt>
      <trkpt lat="46.21214" lon="5.85786">
        <ele>611</ele>
        <time>2019-04-17T15:29:50Z</time>
      </trkpt>
      <trkpt lat="46.21243" lon="5.85789">
        <ele>611</ele>
        <time>2019-04-17T15:30:50Z</time>
      </trkpt>
      <trkpt lat="46.21262" lon="5.85797">
        <ele>610</ele>
        <time>2019-04-17T15:31:50Z</time>
      </trkpt>
      <trkpt lat="46.21331" lon="5.85834">
        <ele>606</ele>
        <time>2019-04-17T15:32:50Z</time>
      </trkpt>
      <trkpt lat="46.21401" lon="5.85849">
        <ele>603</ele>
        <time>2019-04-17T15:33:50Z</time>
      </trkpt>
      <trkpt lat="46.2142" lon="5.85848">
        <ele>602</ele>
        <time>2019-04-17T15:34:50Z</time>
      </trkpt>
      <trkpt lat="46.21439" lon="5.85842">
        <ele>602</ele>
        <time>2019-04-17T15:35:50Z</time>
      </trkpt>
      <trkpt lat="46.21517" lon="5.85785">
        <ele>608</ele>
        <time>2019-04-17T15:36:50Z</time>
      </trkpt>
      <trkpt lat="46.21535" lon="5.85773">
        <ele>609</ele>
        <time>2019-04-17T15:37:50Z</time>
      </trkpt>
      <trkpt lat="46.21548" lon="5.8577">
        <ele>608</ele>
        <time>2019-04-17T15:38:50Z</time>
      </trkpt>
      <trkpt lat="46.2156" lon="5.85771">
        <ele>606</ele>
        <time>2019-04-17T15:39:50Z</time>
      </trkpt>
      <trkpt lat="46.21572" lon="5.85777">
        <ele>605</ele>
        <time>2019-04-17T15:40:50Z</time>
      </trkpt>
      <trkpt lat="46.2158" lon="5.85785">
        <ele>603</ele>
        <time>2019-04-17T15:41:50Z</time>
      </trkpt>
      <trkpt lat="46.21603" lon="5.85816">
        <ele>602</ele>
        <time>2019-04-17T15:42:50Z</time>
      </trkpt>
      <trkpt lat="46.2164" lon="5.85862">
        <ele>604</ele>
        <time>2019-04-17T15:43:50Z</time>
      </trkpt>
      <trkpt lat="46.21684" lon="5.85925">
        <ele>606</ele>
        <time>2019-04-17T15:44:50Z</time>
      </trkpt>
      <trkpt lat="46.21708" lon="5.85966">
        <ele>606</ele>
        <time>2019-04-17T15:45:50Z</time>
      </trkpt>
      <trkpt lat="46.21763" lon="5.86079">
        <ele>604</ele>
        <time>2019-04-17T15:46:50Z</time>
      </trkpt>
      <trkpt lat="46.21841" lon="5.86204">
        <ele>595</ele>
        <time>2019-04-17T15:47:50Z</time>
      </trkpt>
      <trkpt lat="46.21885" lon="5.86266">
        <ele>594</ele>
        <time>2019-04-17T15:48:50Z</time>
      </trkpt>
      <trkpt lat="46.21909" lon="5.86296">
        <ele>593</ele>
        <time>2019-04-17T15:49:50Z</time>
      </trkpt>
      <trkpt lat="46.21934" lon="5.86323">
        <ele>592</ele>
        <time>2019-04-17T15:50:50Z</time>
      </trkpt>
      <trkpt lat="46.22054" lon="5.86422">
        <ele>590</ele>
        <time>2019-04-17T15:51:50Z</time>
      </trkpt>
      <trkpt lat="46.22076" lon="5.86451">
        <ele>588</ele>
        <time>2019-04-17T15:52:50Z</time>
      </trkpt>
      <trkpt lat="46.22103" lon="5.86494">
        <ele>585</ele>
        <time>2019-04-17T15:53:50Z</time>
      </trkpt>
      <trkpt lat="46.22116" lon="5.86511">
        <ele>586</ele>
        <time>2019-04-17T15:54:50Z</time>
      </trkpt>
      <trkpt lat="46.22135" lon="5.86527">
        <ele>589</ele>
        <time>2019-04-17T15:55:50Z</time>
      </trkpt>
      <trkpt lat="46.22172" lon="5.86551">
        <ele>591</ele>
        <time>2019-04-17T15:56:50Z</time>
      </trkpt>
      <trkpt lat="46.22176" lon="5.86561">
        <ele>590</ele>
        <time>2019-04-17T15:57:50Z</time>
      </trkpt>
      <trkpt lat="46.22183" lon="5.866">
        <ele>588</ele>
        <time>2019-04-17T15:58:50Z</time>
      </trkpt>
      <trkpt lat="46.22186" lon="5.86603">
        <ele>588</ele>
        <time>2019-04-17T15:59:50Z</time>
      </trkpt>
      <trkpt lat="46.22228" lon="5.86677">
        <ele>587</ele>
        <time>2019-04-17T16:00:50Z</time>
      </trkpt>
      <trkpt lat="46.22256" lon="5.86732">
        <ele>587</ele>
        <time>2019-04-17T16:01:50Z</time>
      </trkpt>
      <trkpt lat="46.22355" lon="5.8688">
        <ele>592</ele>
        <time>2019-04-17T16:02:50Z</time>
      </trkpt>
      <trkpt lat="46.2237" lon="5.86917">
        <ele>590</ele>
        <time>2019-04-17T16:03:50Z</time>
      </trkpt>
      <trkpt lat="46.22375" lon="5.86935">
        <ele>591</ele>
        <time>2019-04-17T16:04:50Z</time>
      </trkpt>
      <trkpt lat="46.22375" lon="5.86947">
        <ele>592</ele>
        <time>2019-04-17T16:05:50Z</time>
      </trkpt>
      <trkpt lat="46.22378" lon="5.86965">
        <ele>592</ele>
        <time>2019-04-17T16:06:50Z</time>
      </trkpt>
      <trkpt lat="46.22377" lon="5.86975">
        <ele>593</ele>
        <time>2019-04-17T16:07:50Z</time>
      </trkpt>
      <trkpt lat="46.22382" lon="5.86985">
        <ele>593</ele>
        <time>2019-04-17T16:08:50Z</time>
      </trkpt>
      <trkpt lat="46.22391" lon="5.87013">
        <ele>594</ele>
        <time>2019-04-17T16:09:50Z</time>
      </trkpt>
      <trkpt lat="46.22412" lon="5.87114">
        <ele>601</ele>
        <time>2019-04-17T16:10:50Z</time>
      </trkpt>
      <trkpt lat="46.22414" lon="5.87129">
        <ele>603</ele>
        <time>2019-04-17T16:11:50Z</time>
      </trkpt>
      <trkpt lat="46.22432" lon="5.87163">
        <ele>605</ele>
        <time>2019-04-17T16:12:50Z</time>
      </trkpt>
      <trkpt lat="46.22463" lon="5.87197">
        <ele>603</ele>
        <time>2019-04-17T16:13:50Z</time>
      </trkpt>
      <trkpt lat="46.22467" lon="5.87205">
        <ele>604</ele>
        <time>2019-04-17T16:14:50Z</time>
      </trkpt>
      <trkpt lat="46.22471" lon="5.87222">
        <ele>605</ele>
        <time>2019-04-17T16:15:50Z</time>
      </trkpt>
      <trkpt lat="46.22488" lon="5.87369">
        <ele>616</ele>
        <time>2019-04-17T16:16:50Z</time>
      </trkpt>
      <trkpt lat="46.22496" lon="5.87425">
        <ele>619</ele>
        <time>2019-04-17T16:17:50Z</time>
      </trkpt>
      <trkpt lat="46.22503" lon="5.87447">
        <ele>620</ele>
        <time>2019-04-17T16:18:50Z</time>
      </trkpt>
      <trkpt lat="46.2251" lon="5.8746">
        <ele>620</ele>
        <time>2019-04-17T16:19:50Z</time>
      </trkpt>
      <trkpt lat="46.22518" lon="5.87467">
        <ele>619</ele>
        <time>2019-04-17T16:20:50Z</time>
      </trkpt>
      <trkpt lat="46.22557" lon="5.87489">
        <ele>615</ele>
        <time>2019-04-17T16:21:50Z</time>
      </trkpt>
      <trkpt lat="46.22567" lon="5.87497">
        <ele>614</ele>
        <time>2019-04-17T16:22:50Z</time>
      </trkpt>
      <trkpt lat="46.22573" lon="5.87508">
        <ele>614</ele>
        <time>2019-04-17T16:23:50Z</time>
      </trkpt>
      <trkpt lat="46.22582" lon="5.8753">
        <ele>617</ele>
        <time>2019-04-17T16:24:50Z</time>
      </trkpt>
      <trkpt lat="46.22605" lon="5.87621">
        <ele>625</ele>
        <time>2019-04-17T16:25:50Z</time>
      </trkpt>
      <trkpt lat="46.2262" lon="5.87722">
        <ele>631</ele>
        <time>2019-04-17T16:26:50Z</time>
      </trkpt>
      <trkpt lat="46.22653" lon="5.87818">
        <ele>634</ele>
        <time>2019-04-17T16:27:50Z</time>
      </trkpt>
      <trkpt lat="46.22666" lon="5.87846">
        <ele>634</ele>
        <time>2019-04-17T16:28:50Z</time>
      </trkpt>
      <trkpt lat="46.22681" lon="5.87869">
        <ele>634</ele>
        <time>2019-04-17T16:29:50Z</time>
      </trkpt>
      <trkpt lat="46.227" lon="5.8789">
        <ele>634</ele>
        <time>2019-04-17T16:30:50Z</time>
      </trkpt>
      <trkpt lat="46.22721" lon="5.87919">
        <ele>634</ele>
        <time>2019-04-17T16:31:50Z</time>
      </trkpt>
      <trkpt lat="46.22737" lon="5.87951">
        <ele>637</ele>
        <time>2019-04-17T16:32:50Z</time>
      </trkpt>
      <trkpt lat="46.2276" lon="5.88009">
        <ele>644</ele>
        <time>2019-04-17T16:33:50Z</time>
      </trkpt>
      <trkpt lat="46.22779" lon="5.88051">
        <ele>647</ele>
        <time>2019-04-17T16:34:50Z</time>
      </trkpt>
      <trkpt lat="46.22797" lon="5.88074">
        <ele>648</ele>
        <time>2019-04-17T16:35:50Z</time>
      </trkpt>
      <trkpt lat="46.22822" lon="5.88094">
        <ele>648</ele>
        <time>2019-04-17T16:36:50Z</time>
      </trkpt>
      <trkpt lat="46.2291" lon="5.88122">
        <ele>652</ele>
        <time>2019-04-17T16:37:50Z</time>
      </trkpt>
      <trkpt lat="46.2293" lon="5.88133">
        <ele>652</ele>
        <time>2019-04-17T16:38:50Z</time>
      </trkpt>
      <trkpt lat="46.22945" lon="5.88151">
        <ele>654</ele>
        <time>2019-04-17T16:39:50Z</time>
      </trkpt>
      <trkpt lat="46.22979" lon="5.88212">
        <ele>660</ele>
        <time>2019-04-17T16:40:50Z</time>
      </trkpt>
      <trkpt lat="46.22999" lon="5.88253">
        <ele>665</ele>
        <time>2019-04-17T16:41:50Z</time>
      </trkpt>
      <trkpt lat="46.23008" lon="5.88267">
        <ele>666</ele>
        <time>2019-04-17T16:42:50Z</time>
      </trkpt>
      <trkpt lat="46.23021" lon="5.88283">
        <ele>667</ele>
        <time>2019-04-17T16:43:50Z</time>
      </trkpt>
      <trkpt lat="46.23081" lon="5.88336">
        <ele>676</ele>
        <time>2019-04-17T16:44:50Z</time>
      </trkpt>
      <trkpt lat="46.23106" lon="5.8837">
        <ele>676</ele>
        <time>2019-04-17T16:45:50Z</time>
      </trkpt>
      <trkpt lat="46.23115" lon="5.88384">
        <ele>676</ele>
        <time>2019-04-17T16:46:50Z</time>
      </trkpt>
      <trkpt lat="46.23122" lon="5.88401">
        <ele>677</ele>
        <time>2019-04-17T16:47:50Z</time>
      </trkpt>
      <trkpt lat="46.23128" lon="5.88422">
        <ele>678</ele>
        <time>2019-04-17T16:48:50Z</time>
      </trkpt>
      <trkpt lat="46.23138" lon="5.88534">
        <ele>687</ele>
        <time>2019-04-17T16:49:50Z</time>
      </trkpt>
      <trkpt lat="46.23144" lon="5.88567">
        <ele>690</ele>
        <time>2019-04-17T16:50:50Z</time>
      </trkpt>
      <trkpt lat="46.23149" lon="5.88584">
        <ele>690</ele>
        <time>2019-04-17T16:51:50Z</time>
      </trkpt>
      <trkpt lat="46.23164" lon="5.88615">
        <ele>692</ele>
        <time>2019-04-17T16:52:50Z</time>
      </trkpt>
      <trkpt lat="46.23187" lon="5.88651">
        <ele>695</ele>
        <time>2019-04-17T16:53:50Z</time>
      </trkpt>
      <trkpt lat="46.23231" lon="5.88701">
        <ele>699</ele>
        <time>2019-04-17T16:54:50Z</time>
      </trkpt>
      <trkpt lat="46.23276" lon="5.88737">
        <ele>699</ele>
        <time>2019-04-17T16:55:50Z</time>
      </trkpt>
      <trkpt lat="46.2329" lon="5.88757">
        <ele>701</ele>
        <time>2019-04-17T16:56:50Z</time>
      </trkpt>
      <trkpt lat="46.23302" lon="5.88785">
        <ele>706</ele>
        <time>2019-04-17T16:57:50Z</time>
      </trkpt>
      <trkpt lat="46.23328" lon="5.88838">
        <ele>710</ele>
        <time>2019-04-17T16:58:50Z</time>
      </trkpt>
      <trkpt lat="46.23336" lon="5.88852">
        <ele>713</ele>
        <time>2019-04-17T16:59:50Z</time>
      </trkpt>
      <trkpt lat="46.23368" lon="5.8889">
        <ele>720</ele>
        <time>2019-04-17T17:00:50Z</time>
      </trkpt>
      <trkpt lat="46.23497" lon="5.89">
        <ele>726</ele>
        <time>2019-04-17T17:01:50Z</time>
      </trkpt>
      <trkpt lat="46.23511" lon="5.89007">
        <ele>726</ele>
        <time>2019-04-17T17:02:50Z</time>
      </trkpt>
      <trkpt lat="46.23525" lon="5.89011">
        <ele>725</ele>
        <time>2019-04-17T17:03:50Z</time>
      </trkpt>
      <trkpt lat="46.23566" lon="5.89017">
        <ele>721</ele>
        <time>2019-04-17T17:04:50Z</time>
      </trkpt>
      <trkpt lat="46.23624" lon="5.89066">
        <ele>727</ele>
        <time>2019-04-17T17:05:50Z</time>
      </trkpt>
      <trkpt lat="46.23645" lon="5.89075">
        <ele>728</ele>
        <time>2019-04-17T17:06:50Z</time>
      </trkpt>
      <trkpt lat="46.23678" lon="5.89083">
        <ele>725</ele>
        <time>2019-04-17T17:07:50Z</time>
      </trkpt>
      <trkpt lat="46.23688" lon="5.89092">
        <ele>725</ele>
        <time>2019-04-17T17:08:50Z</time>
      </trkpt>
      <trkpt lat="46.23696" lon="5.89105">
        <ele>726</ele>
        <time>2019-04-17T17:09:50Z</time>
      </trkpt>
      <trkpt lat="46.23715" lon="5.89167">
        <ele>732</ele>
        <time>2019-04-17T17:10:50Z</time>
      </trkpt>
      <trkpt lat="46.2379" lon="5.89324">
        <ele>721</ele>
        <time>2019-04-17T17:11:50Z</time>
      </trkpt>
      <trkpt lat="46.23818" lon="5.89357">
        <ele>719</ele>
        <time>2019-04-17T17:12:50Z</time>
      </trkpt>
      <trkpt lat="46.23894" lon="5.89413">
        <ele>713</ele>
        <time>2019-04-17T17:13:50Z</time>
      </trkpt>
      <trkpt lat="46.23915" lon="5.89433">
        <ele>713</ele>
        <time>2019-04-17T17:14:50Z</time>
      </trkpt>
      <trkpt lat="46.23936" lon="5.89457">
        <ele>715</ele>
        <time>2019-04-17T17:15:50Z</time>
      </trkpt>
      <trkpt lat="46.24034" lon="5.8954">
        <ele>719</ele>
        <time>2019-04-17T17:16:50Z</time>
      </trkpt>
      <trkpt lat="46.2406" lon="5.89559">
        <ele>719</ele>
        <time>2019-04-17T17:17:50Z</time>
      </trkpt>
      <trkpt lat="46.24073" lon="5.89571">
        <ele>719</ele>
        <time>2019-04-17T17:18:50Z</time>
      </trkpt>
      <trkpt lat="46.24103" lon="5.89617">
        <ele>720</ele>
        <time>2019-04-17T17:19:50Z</time>
      </trkpt>
      <trkpt lat="46.24121" lon="5.89636">
        <ele>718</ele>
        <time>2019-04-17T17:20:50Z</time>
      </trkpt>
      <trkpt lat="46.24137" lon="5.89644">
        <ele>717</ele>
        <time>2019-04-17T17:21:50Z</time>
      </trkpt>
      <trkpt lat="46.24204" lon="5.89645">
        <ele>715</ele>
        <time>2019-04-17T17:22:50Z</time>
      </trkpt>
      <trkpt lat="46.24235" lon="5.89649">
        <ele>717</ele>
        <time>2019-04-17T17:23:50Z</time>
      </trkpt>
      <trkpt lat="46.24271" lon="5.89661">
        <ele>718</ele>
        <time>2019-04-17T17:24:50Z</time>
      </trkpt>
      <trkpt lat="46.24306" lon="5.89683">
        <ele>720</ele>
        <time>2019-04-17T17:25:50Z</time>
      </trkpt>
      <trkpt lat="46.24363" lon="5.89725">
        <ele>728</ele>
        <time>2019-04-17T17:26:50Z</time>
      </trkpt>
      <trkpt lat="46.24384" lon="5.89734">
        <ele>730</ele>
        <time>2019-04-17T17:27:50Z</time>
      </trkpt>
      <trkpt lat="46.24408" lon="5.89735">
        <ele>731</ele>
        <time>2019-04-17T17:28:50Z</time>
      </trkpt>
      <trkpt lat="46.2445" lon="5.89719">
        <ele>735</ele>
        <time>2019-04-17T17:29:50Z</time>
      </trkpt>
      <trkpt lat="46.24497" lon="5.89709">
        <ele>742</ele>
        <time>2019-04-17T17:30:50Z</time>
      </trkpt>
      <trkpt lat="46.24538" lon="5.89705">
        <ele>745</ele>
        <time>2019-04-17T17:31:50Z</time>
      </trkpt>
      <trkpt lat="46.2457" lon="5.89705">
        <ele>748</ele>
        <time>2019-04-17T17:32:50Z</time>
      </trkpt>
      <trkpt lat="46.24598" lon="5.89697">
        <ele>749</ele>
        <time>2019-04-17T17:33:50Z</time>
      </trkpt>
      <trkpt lat="46.24607" lon="5.89688">
        <ele>748</ele>
        <time>2019-04-17T17:34:50Z</time>
      </trkpt>
      <trkpt lat="46.24618" lon="5.89668">
        <ele>743</ele>
        <time>2019-04-17T17:35:50Z</time>
      </trkpt>
      <trkpt lat="46.24625" lon="5.89634">
        <ele>745</ele>
        <time>2019-04-17T17:36:50Z</time>
      </trkpt>
      <trkpt lat="46.24624" lon="5.89619">
        <ele>745</ele>
        <time>2019-04-17T17:37:50Z</time>
      </trkpt>
      <trkpt lat="46.24619" lon="5.89597">
        <ele>745</ele>
        <time>2019-04-17T17:38:50Z</time>
      </trkpt>
      <trkpt lat="46.24592" lon="5.89544">
        <ele>743</ele>
        <time>2019-04-17T17:39:50Z</time>
      </trkpt>
      <trkpt lat="46.24588" lon="5.89527">
        <ele>744</ele>
        <time>2019-04-17T17:40:50Z</time>
      </trkpt>
      <trkpt lat="46.24588" lon="5.89507">
        <ele>746</ele>
        <time>2019-04-17T17:41:50Z</time>
      </trkpt>
      <trkpt lat="46.24591" lon="5.8949">
        <ele>749</ele>
        <time>2019-04-17T17:42:50Z</time>
      </trkpt>
      <trkpt lat="46.24599" lon="5.89475">
        <ele>754</ele>
        <time>2019-04-17T17:43:50Z</time>
      </trkpt>
      <trkpt lat="46.24634" lon="5.89434">
        <ele>768</ele>
        <time>2019-04-17T17:44:50Z</time>
      </trkpt>
      <trkpt lat="46.2482" lon="5.89294">
        <ele>798</ele>
        <time>2019-04-17T17:45:50Z</time>
      </trkpt>
      <trkpt lat="46.24841" lon="5.8929">
        <ele>795</ele>
        <time>2019-04-17T17:46:50Z</time>
      </trkpt>
      <trkpt lat="46.24956" lon="5.89314">
        <ele>791</ele>
        <time>2019-04-17T17:47:50Z</time>
      </trkpt>
      <trkpt lat="46.24988" lon="5.89325">
        <ele>792</ele>
        <time>2019-04-17T17:48:50Z</time>
      </trkpt>
      <trkpt lat="46.25035" lon="5.89351">
        <ele>790</ele>
        <time>2019-04-17T17:49:50Z</time>
      </trkpt>
      <trkpt lat="46.25052" lon="5.89358">
        <ele>789</ele>
        <time>2019-04-17T17:50:50Z</time>
      </trkpt>
      <trkpt lat="46.25122" lon="5.89375">
        <ele>780</ele>
        <time>2019-04-17T17:51:50Z</time>
      </trkpt>
      <trkpt lat="46.25175" lon="5.89384">
        <ele>770</ele>
        <time>2019-04-17T17:52:50Z</time>
      </trkpt>
      <trkpt lat="46.25209" lon="5.89397">
        <ele>769</ele>
        <time>2019-04-17T17:53:50Z</time>
      </trkpt>
      <trkpt lat="46.25246" lon="5.89405">
        <ele>761</ele>
        <time>2019-04-17T17:54:50Z</time>
      </trkpt>
      <trkpt lat="46.25288" lon="5.8943">
        <ele>768</ele>
        <time>2019-04-17T17:55:50Z</time>
      </trkpt>
      <trkpt lat="46.25344" lon="5.89474">
        <ele>772</ele>
        <time>2019-04-17T17:56:50Z</time>
      </trkpt>
      <trkpt lat="46.25397" lon="5.89498">
        <ele>769</ele>
        <time>2019-04-17T17:57:50Z</time>
      </trkpt>
      <trkpt lat="46.25441" lon="5.89522">
        <ele>770</ele>
        <time>2019-04-17T17:58:50Z</time>
      </trkpt>
      <trkpt lat="46.25486" lon="5.8956">
        <ele>771</ele>
        <time>2019-04-17T17:59:50Z</time>
      </trkpt>
      <trkpt lat="46.25551" lon="5.8963">
        <ele>772</ele>
        <time>2019-04-17T18:00:50Z</time>
      </trkpt>
      <trkpt lat="46.25767" lon="5.89889">
        <ele>802</ele>
        <time>2019-04-17T18:01:50Z</time>
      </trkpt>
      <trkpt lat="46.25835" lon="5.89977">
        <ele>798</ele>
        <time>2019-04-17T18:02:50Z</time>
      </trkpt>
      <trkpt lat="46.25907" lon="5.90049">
        <ele>798</ele>
        <time>2019-04-17T18:03:50Z</time>
      </trkpt>
      <trkpt lat="46.25945" lon="5.9008">
        <ele>794</ele>
        <time>2019-04-17T18:04:50Z</time>
      </trkpt>
      <trkpt lat="46.25971" lon="5.9011">
        <ele>797</ele>
        <time>2019-04-17T18:05:50Z</time>
      </trkpt>
      <trkpt lat="46.25993" lon="5.9014">
        <ele>798</ele>
        <time>2019-04-17T18:06:50Z</time>
      </trkpt>
      <trkpt lat="46.26024" lon="5.90193">
        <ele>806</ele>
        <time>2019-04-17T18:07:50Z</time>
      </trkpt>
      <trkpt lat="46.2605" lon="5.90233">
        <ele>813</ele>
        <time>2019-04-17T18:08:50Z</time>
      </trkpt>
      <trkpt lat="46.26073" lon="5.90255">
        <ele>809</ele>
        <time>2019-04-17T18:09:50Z</time>
      </trkpt>
      <trkpt lat="46.26144" lon="5.90297">
        <ele>800</ele>
        <time>2019-04-17T18:10:50Z</time>
      </trkpt>
      <trkpt lat="46.26272" lon="5.90361">
        <ele>798</ele>
        <time>2019-04-17T18:11:50Z</time>
      </trkpt>
      <trkpt lat="46.26312" lon="5.90384">
        <ele>800</ele>
        <time>2019-04-17T18:12:50Z</time>
      </trkpt>
      <trkpt lat="46.26376" lon="5.90446">
        <ele>803</ele>
        <time>2019-04-17T18:13:50Z</time>
      </trkpt>
      <trkpt lat="46.26428" lon="5.9048">
        <ele>797</ele>
        <time>2019-04-17T18:14:50Z</time>
      </trkpt>
      <trkpt lat="46.26489" lon="5.90515">
        <ele>795</ele>
        <time>2019-04-17T18:15:50Z</time>
      </trkpt>
      <trkpt lat="46.2655" lon="5.90543">
        <ele>795</ele>
        <time>2019-04-17T18:16:50Z</time>
      </trkpt>
      <trkpt lat="46.26583" lon="5.90575">
        <ele>796</ele>
        <time>2019-04-17T18:17:50Z</time>
      </trkpt>
      <trkpt lat="46.26637" lon="5.90651">
        <ele>803</ele>
        <time>2019-04-17T18:18:50Z</time>
      </trkpt>
      <trkpt lat="46.2671" lon="5.90768">
        <ele>810</ele>
        <time>2019-04-17T18:19:50Z</time>
      </trkpt>
      <trkpt lat="46.2677" lon="5.90829">
        <ele>806</ele>
        <time>2019-04-17T18:20:50Z</time>
      </trkpt>
      <trkpt lat="46.26808" lon="5.90885">
        <ele>813</ele>
        <time>2019-04-17T18:21:50Z</time>
      </trkpt>
      <trkpt lat="46.26851" lon="5.90964">
        <ele>819</ele>
        <time>2019-04-17T18:22:50Z</time>
      </trkpt>
      <trkpt lat="46.26888" lon="5.91043">
        <ele>823</ele>
        <time>2019-04-17T18:23:50Z</time>
      </trkpt>
      <trkpt lat="46.26898" lon="5.91068">
        <ele>823</ele>
        <time>2019-04-17T18:24:50Z</time>
      </trkpt>
      <trkpt lat="46.26915" lon="5.9113">
        <ele>822</ele>
        <time>2019-04-17T18:25:50Z</time>
      </trkpt>
      <trkpt lat="46.26926" lon="5.91194">
        <ele>828</ele>
        <time>2019-04-17T18:26:50Z</time>
      </trkpt>
      <trkpt lat="46.26928" lon="5.91217">
        <ele>830</ele>
        <time>2019-04-17T18:27:50Z</time>
      </trkpt>
      <trkpt lat="46.26918" lon="5.91267">
        <ele>837</ele>
        <time>2019-04-17T18:28:50Z</time>
      </trkpt>
      <trkpt lat="46.26919" lon="5.91283">
        <ele>835</ele>
        <time>2019-04-17T18:29:50Z</time>
      </trkpt>
      <trkpt lat="46.26923" lon="5.91301">
        <ele>833</ele>
        <time>2019-04-17T18:30:50Z</time>
      </trkpt>
      <trkpt lat="46.2693" lon="5.9132">
        <ele>830</ele>
        <time>2019-04-17T18:31:50Z</time>
      </trkpt>
      <trkpt lat="46.26934" lon="5.91341">
        <ele>828</ele>
        <time>2019-04-17T18:32:50Z</time>
      </trkpt>
      <trkpt lat="46.26939" lon="5.91396">
        <ele>835</ele>
        <time>2019-04-17T18:33:50Z</time>
      </trkpt>
      <trkpt lat="46.26945" lon="5.91408">
        <ele>835</ele>
        <time>2019-04-17T18:34:50Z</time>
      </trkpt>
      <trkpt lat="46.26954" lon="5.91417">
        <ele>833</ele>
        <time>2019-04-17T18:35:50Z</time>
      </trkpt>
      <trkpt lat="46.26972" lon="5.91425">
        <ele>830</ele>
        <time>2019-04-17T18:36:50Z</time>
      </trkpt>
      <trkpt lat="46.26989" lon="5.91435">
        <ele>828</ele>
        <time>2019-04-17T18:37:50Z</time>
      </trkpt>
      <trkpt lat="46.27019" lon="5.91462">
        <ele>830</ele>
        <time>2019-04-17T18:38:50Z</time>
      </trkpt>
      <trkpt lat="46.27071" lon="5.91514">
        <ele>833</ele>
        <time>2019-04-17T18:39:50Z</time>
      </trkpt>
      <trkpt lat="46.27122" lon="5.91574">
        <ele>839</ele>
        <time>2019-04-17T18:40:50Z</time>
      </trkpt>
      <trkpt lat="46.27159" lon="5.91614">
        <ele>839</ele>
        <time>2019-04-17T18:41:50Z</time>
      </trkpt>
      <trkpt lat="46.27298" lon="5.91734">
        <ele>847</ele>
        <time>2019-04-17T18:42:50Z</time>
      </trkpt>
      <trkpt lat="46.27319" lon="5.91755">
        <ele>848</ele>
        <time>2019-04-17T18:43:50Z</time>
      </trkpt>
      <trkpt lat="46.27339" lon="5.91789">
        <ele>849</ele>
        <time>2019-04-17T18:44:50Z</time>
      </trkpt>
      <trkpt lat="46.27343" lon="5.91811">
        <ele>851</ele>
        <time>2019-04-17T18:45:50Z</time>
      </trkpt>
      <trkpt lat="46.27345" lon="5.91858">
        <ele>860</ele>
        <time>2019-04-17T18:46:50Z</time>
      </trkpt>
      <trkpt lat="46.27351" lon="5.91869">
        <ele>861</ele>
        <time>2019-04-17T18:47:50Z</time>
      </trkpt>
      <trkpt lat="46.27358" lon="5.91879">
        <ele>861</ele>
        <time>2019-04-17T18:48:50Z</time>
      </trkpt>
      <trkpt lat="46.274" lon="5.9191">
        <ele>857</ele>
        <time>2019-04-17T18:49:50Z</time>
      </trkpt>
      <trkpt lat="46.27417" lon="5.91933">
        <ele>859</ele>
        <time>2019-04-17T18:50:50Z</time>
      </trkpt>
      <trkpt lat="46.27424" lon="5.91945">
        <ele>860</ele>
        <time>2019-04-17T18:51:50Z</time>
      </trkpt>
      <trkpt lat="46.27442" lon="5.91989">
        <ele>867</ele>
        <time>2019-04-17T18:52:50Z</time>
      </trkpt>
      <trkpt lat="46.27465" lon="5.92018">
        <ele>866</ele>
        <time>2019-04-17T18:53:50Z</time>
      </trkpt>
      <trkpt lat="46.27555" lon="5.92118">
        <ele>861</ele>
        <time>2019-04-17T18:54:50Z</time>
      </trkpt>
      <trkpt lat="46.27573" lon="5.9215">
        <ele>862</ele>
        <time>2019-04-17T18:55:50Z</time>
      </trkpt>
      <trkpt lat="46.27585" lon="5.92185">
        <ele>863</ele>
        <time>2019-04-17T18:56:50Z</time>
      </trkpt>
      <trkpt lat="46.2759" lon="5.92203">
        <ele>865</ele>
        <time>2019-04-17T18:57:50Z</time>
      </trkpt>
      <trkpt lat="46.27607" lon="5.9232">
        <ele>876</ele>
        <time>2019-04-17T18:58:50Z</time>
      </trkpt>
      <trkpt lat="46.27616" lon="5.92353">
        <ele>879</ele>
        <time>2019-04-17T18:59:50Z</time>
      </trkpt>
      <trkpt lat="46.27627" lon="5.92373">
        <ele>880</ele>
        <time>2019-04-17T19:00:50Z</time>
      </trkpt>
      <trkpt lat="46.27637" lon="5.92389">
        <ele>880</ele>
        <time>2019-04-17T19:01:50Z</time>
      </trkpt>
      <trkpt lat="46.27668" lon="5.92409">
        <ele>878</ele>
        <time>2019-04-17T19:02:50Z</time>
      </trkpt>
      <trkpt lat="46.27711" lon="5.92443">
        <ele>873</ele>
        <time>2019-04-17T19:03:50Z</time>
      </trkpt>
      <trkpt lat="46.27754" lon="5.92482">
        <ele>872</ele>
        <time>2019-04-17T19:04:50Z</time>
      </trkpt>
      <trkpt lat="46.27798" lon="5.92532">
        <ele>878</ele>
        <time>2019-04-17T19:05:50Z</time>
      </trkpt>
      <trkpt lat="46.27813" lon="5.92546">
        <ele>880</ele>
        <time>2019-04-17T19:06:50Z</time>
      </trkpt>
      <trkpt lat="46.27843" lon="5.92561">
        <ele>883</ele>
        <time>2019-04-17T19:07:50Z</time>
      </trkpt>
      <trkpt lat="46.27875" lon="5.9257">
        <ele>886</ele>
        <time>2019-04-17T19:08:50Z</time>
      </trkpt>
      <trkpt lat="46.2796" lon="5.92573">
        <ele>891</ele>
        <time>2019-04-17T19:09:50Z</time>
      </trkpt>
      <trkpt lat="46.28" lon="5.92563">
        <ele>892</ele>
        <time>2019-04-17T19:10:50Z</time>
      </trkpt>
      <trkpt lat="46.2804" lon="5.92546">
        <ele>892</ele>
        <time>2019-04-17T19:11:50Z</time>
      </trkpt>
      <trkpt lat="46.28077" lon="5.92539">
        <ele>894</ele>
        <time>2019-04-17T19:12:50Z</time>
      </trkpt>
      <trkpt lat="46.28119" lon="5.92557">
        <ele>898</ele>
        <time>2019-04-17T19:13:50Z</time>
      </trkpt>
      <trkpt lat="46.28147" lon="5.92564">
        <ele>901</ele>
        <time>2019-04-17T19:14:50Z</time>
      </trkpt>
      <trkpt lat="46.28195" lon="5.92564">
        <ele>902</ele>
        <time>2019-04-17T19:15:50Z</time>
      </trkpt>
      <trkpt lat="46.28227" lon="5.92569">
        <ele>903</ele>
        <time>2019-04-17T19:16:50Z</time>
      </trkpt>
      <trkpt lat="46.28287" lon="5.92596">
        <ele>903</ele>
        <time>2019-04-17T19:17:50Z</time>
      </trkpt>
      <trkpt lat="46.28337" lon="5.92627">
        <ele>901</ele>
        <time>2019-04-17T19:18:50Z</time>
      </trkpt>
      <trkpt lat="46.28373" lon="5.92666">
        <ele>906</ele>
        <time>2019-04-17T19:19:50Z</time>
      </trkpt>
      <trkpt lat="46.28403" lon="5.92687">
        <ele>906</ele>
        <time>2019-04-17T19:20:50Z</time>
      </trkpt>
      <trkpt lat="46.28439" lon="5.92709">
        <ele>905</ele>
        <time>2019-04-17T19:21:50Z</time>
      </trkpt>
      <trkpt lat="46.28476" lon="5.92728">
        <ele>903</ele>
        <time>2019-04-17T19:22:50Z</time>
      </trkpt>
      <trkpt lat="46.28627" lon="5.92781">
        <ele>900</ele>
        <time>2019-04-17T19:23:50Z</time>
      </trkpt>
      <trkpt lat="46.28741" lon="5.92806">
        <ele>900</ele>
        <time>2019-04-17T19:24:50Z</time>
      </trkpt>
      <trkpt lat="46.28771" lon="5.92824">
        <ele>903</ele>
        <time>2019-04-17T19:25:50Z</time>
      </trkpt>
      <trkpt lat="46.28785" lon="5.92842">
        <ele>906</ele>
        <time>2019-04-17T19:26:50Z</time>
      </trkpt>
      <trkpt lat="46.28824" lon="5.92877">
        <ele>911</ele>
        <time>2019-04-17T19:27:50Z</time>
      </trkpt>
      <trkpt lat="46.28843" lon="5.92884">
        <ele>911</ele>
        <time>2019-04-17T19:28:50Z</time>
      </trkpt>
      <trkpt lat="46.28889" lon="5.92882">
        <ele>907</ele>
        <time>2019-04-17T19:29:50Z</time>
      </trkpt>
      <trkpt lat="46.2891" lon="5.92883">
        <ele>905</ele>
        <time>2019-04-17T19:30:50Z</time>
      </trkpt>
      <trkpt lat="46.28939" lon="5.92892">
        <ele>904</ele>
        <time>2019-04-17T19:31:50Z</time>
      </trkpt>
      <trkpt lat="46.2895" lon="5.92901">
        <ele>904</ele>
        <time>2019-04-17T19:32:50Z</time>
      </trkpt>
      <trkpt lat="46.29002" lon="5.92953">
        <ele>907</ele>
        <time>2019-04-17T19:33:50Z</time>
      </trkpt>
      <trkpt lat="46.29018" lon="5.92965">
        <ele>907</ele>
        <time>2019-04-17T19:34:50Z</time>
      </trkpt>
      <trkpt lat="46.29072" lon="5.92994">
        <ele>907</ele>
        <time>2019-04-17T19:35:50Z</time>
      </trkpt>
      <trkpt lat="46.29107" lon="5.93009">
        <ele>906</ele>
        <time>2019-04-17T19:36:50Z</time>
      </trkpt>
      <trkpt lat="46.29166" lon="5.93029">
        <ele>905</ele>
        <time>2019-04-17T19:37:50Z</time>
      </trkpt>
      <trkpt lat="46.29179" lon="5.93038">
        <ele>905</ele>
        <time>2019-04-17T19:38:50Z</time>
      </trkpt>
      <trkpt lat="46.29193" lon="5.93052">
        <ele>906</ele>
        <time>2019-04-17T19:39:50Z</time>
      </trkpt>
      <trkpt lat="46.29204" lon="5.9307">
        <ele>907</ele>
        <time>2019-04-17T19:40:50Z</time>
      </trkpt>
      <trkpt lat="46.29224" lon="5.93124">
        <ele>911</ele>
        <time>2019-04-17T19:41:50Z</time>
      </trkpt>
      <trkpt lat="46.29233" lon="5.93144">
        <ele>911</ele>
        <time>2019-04-17T19:42:50Z</time>
      </trkpt>
      <trkpt lat="46.29246" lon="5.93163">
        <ele>909</ele>
        <time>2019-04-17T19:43:50Z</time>
      </trkpt>
      <trkpt lat="46.29263" lon="5.93178">
        <ele>908</ele>
        <time>2019-04-17T19:44:50Z</time>
      </trkpt>
      <trkpt lat="46.29303" lon="5.93207">
        <ele>906</ele>
        <time>2019-04-17T19:45:50Z</time>
      </trkpt>
      <trkpt lat="46.29325" lon="5.93217">
        <ele>904</ele>
        <time>2019-04-17T19:46:50Z</time>
      </trkpt>
      <trkpt lat="46.29348" lon="5.93221">
        <ele>901</ele>
        <time>2019-04-17T19:47:50Z</time>
      </trkpt>
      <trkpt lat="46.29388" lon="5.93224">
        <ele>896</ele>
        <time>2019-04-17T19:48:50Z</time>
      </trkpt>
      <trkpt lat="46.29404" lon="5.93229">
        <ele>895</ele>
        <time>2019-04-17T19:49:50Z</time>
      </trkpt>
      <trkpt lat="46.2942" lon="5.93237">
        <ele>894</ele>
        <time>2019-04-17T19:50:50Z</time>
      </trkpt>
      <trkpt lat="46.29432" lon="5.93252">
        <ele>895</ele>
        <time>2019-04-17T19:51:50Z</time>
      </trkpt>
      <trkpt lat="46.29447" lon="5.93276">
        <ele>896</ele>
        <time>2019-04-17T19:52:50Z</time>
      </trkpt>
      <trkpt lat="46.29493" lon="5.93364">
        <ele>896</ele>
        <time>2019-04-17T19:53:50Z</time>
      </trkpt>
      <trkpt lat="46.29509" lon="5.93385">
        <ele>894</ele>
        <time>2019-04-17T19:54:50Z</time>
      </trkpt>
      <trkpt lat="46.2955" lon="5.93427">
        <ele>890</ele>
        <time>2019-04-17T19:55:50Z</time>
      </trkpt>
      <trkpt lat="46.2956" lon="5.93441">
        <ele>889</ele>
        <time>2019-04-17T19:56:50Z</time>
      </trkpt>
      <trkpt lat="46.29581" lon="5.93496">
        <ele>887</ele>
        <time>2019-04-17T19:57:50Z</time>
      </trkpt>
      <trkpt lat="46.29598" lon="5.93525">
        <ele>891</ele>
        <time>2019-04-17T19:58:50Z</time>
      </trkpt>
      <trkpt lat="46.29664" lon="5.93578">
        <ele>887</ele>
        <time>2019-04-17T19:59:50Z</time>
      </trkpt>
      <trkpt lat="46.29783" lon="5.9367">
        <ele>887</ele>
        <time>2019-04-17T20:00:50Z</time>
      </trkpt>
      <trkpt lat="46.29798" lon="5.93689">
        <ele>889</ele>
        <time>2019-04-17T20:01:50Z</time>
      </trkpt>
      <trkpt lat="46.29824" lon="5.93736">
        <ele>892</ele>
        <time>2019-04-17T20:02:50Z</time>
      </trkpt>
      <trkpt lat="46.29852" lon="5.9378">
        <ele>896</ele>
        <time>2019-04-17T20:03:50Z</time>
      </trkpt>
      <trkpt lat="46.2988" lon="5.93814">
        <ele>896</ele>
        <time>2019-04-17T20:04:50Z</time>
      </trkpt>
      <trkpt lat="46.29911" lon="5.93845">
        <ele>892</ele>
        <time>2019-04-17T20:05:50Z</time>
      </trkpt>
      <trkpt lat="46.29947" lon="5.93872">
        <ele>894</ele>
        <time>2019-04-17T20:06:50Z</time>
      </trkpt>
      <trkpt lat="46.29965" lon="5.9388">
        <ele>892</ele>
        <time>2019-04-17T20:07:50Z</time>
      </trkpt>
      <trkpt lat="46.30066" lon="5.93914">
        <ele>885</ele>
        <time>2019-04-17T20:08:50Z</time>
      </trkpt>
      <trkpt lat="46.30102" lon="5.93938">
        <ele>886</ele>
        <time>2019-04-17T20:09:50Z</time>
      </trkpt>
      <trkpt lat="46.30114" lon="5.93952">
        <ele>887</ele>
        <time>2019-04-17T20:10:50Z</time>
      </trkpt>
      <trkpt lat="46.30148" lon="5.93982">
        <ele>889</ele>
        <time>2019-04-17T20:11:50Z</time>
      </trkpt>
      <trkpt lat="46.30201" lon="5.94018">
        <ele>890</ele>
        <time>2019-04-17T20:12:50Z</time>
      </trkpt>
      <trkpt lat="46.30253" lon="5.94078">
        <ele>892</ele>
        <time>2019-04-17T20:13:50Z</time>
      </trkpt>
      <trkpt lat="46.30309" lon="5.94181">
        <ele>897</ele>
        <time>2019-04-17T20:14:50Z</time>
      </trkpt>
      <trkpt lat="46.30334" lon="5.9422">
        <ele>897</ele>
        <time>2019-04-17T20:15:50Z</time>
      </trkpt>
      <trkpt lat="46.30363" lon="5.94255">
        <ele>899</ele>
        <time>2019-04-17T20:16:50Z</time>
      </trkpt>
      <trkpt lat="46.30464" lon="5.94366">
        <ele>901</ele>
        <time>2019-04-17T20:17:50Z</time>
      </trkpt>
      <trkpt lat="46.30492" lon="5.94382">
        <ele>900</ele>
        <time>2019-04-17T20:18:50Z</time>
      </trkpt>
      <trkpt lat="46.30504" lon="5.94393">
        <ele>900</ele>
        <time>2019-04-17T20:19:50Z</time>
      </trkpt>
      <trkpt lat="46.30607" lon="5.9446">
        <ele>899</ele>
        <time>2019-04-17T20:20:50Z</time>
      </trkpt>
      <trkpt lat="46.30717" lon="5.94536">
        <ele>900</ele>
        <time>2019-04-17T20:21:50Z</time>
      </trkpt>
      <trkpt lat="46.30737" lon="5.94546">
        <ele>900</ele>
        <time>2019-04-17T20:22:50Z</time>
      </trkpt>
      <trkpt lat="46.30876" lon="5.94591">
        <ele>902</ele>
        <time>2019-04-17T20:23:50Z</time>
      </trkpt>
      <trkpt lat="46.30927" lon="5.94611">
        <ele>903</ele>
        <time>2019-04-17T20:24:50Z</time>
      </trkpt>
      <trkpt lat="46.30954" lon="5.94619">
        <ele>903</ele>
        <time>2019-04-17T20:25:50Z</time>
      </trkpt>
      <trkpt lat="46.31027" lon="5.94655">
        <ele>905</ele>
        <time>2019-04-17T20:26:50Z</time>
      </trkpt>
      <trkpt lat="46.31079" lon="5.94687">
        <ele>911</ele>
        <time>2019-04-17T20:27:50Z</time>
      </trkpt>
      <trkpt lat="46.31092" lon="5.94692">
        <ele>913</ele>
        <time>2019-04-17T20:28:50Z</time>
      </trkpt>
      <trkpt lat="46.3116" lon="5.94708">
        <ele>918</ele>
        <time>2019-04-17T20:29:50Z</time>
      </trkpt>
      <trkpt lat="46.31189" lon="5.94721">
        <ele>915</ele>
        <time>2019-04-17T20:30:50Z</time>
      </trkpt>
      <trkpt lat="46.31307" lon="5.94783">
        <ele>898</ele>
        <time>2019-04-17T20:31:50Z</time>
      </trkpt>
      <trkpt lat="46.31341" lon="5.94806">
        <ele>897</ele>
        <time>2019-04-17T20:32:50Z</time>
      </trkpt>
      <trkpt lat="46.31426" lon="5.94872">
        <ele>897</ele>
        <time>2019-04-17T20:33:50Z</time>
      </trkpt>
      <trkpt lat="46.31584" lon="5.94983">
        <ele>904</ele>
        <time>2019-04-17T20:34:50Z</time>
      </trkpt>
      <trkpt lat="46.31623" lon="5.95015">
        <ele>902</ele>
        <time>2019-04-17T20:35:50Z</time>
      </trkpt>
      <trkpt lat="46.31639" lon="5.95024">
        <ele>901</ele>
        <time>2019-04-17T20:36:50Z</time>
      </trkpt>
      <trkpt lat="46.31732" lon="5.95069">
        <ele>902</ele>
        <time>2019-04-17T20:37:50Z</time>
      </trkpt>
      <trkpt lat="46.31814" lon="5.95119">
        <ele>903</ele>
        <time>2019-04-17T20:38:50Z</time>
      </trkpt>
      <trkpt lat="46.31831" lon="5.95132">
        <ele>903</ele>
        <time>2019-04-17T20:39:50Z</time>
      </trkpt>
      <trkpt lat="46.31876" lon="5.9518">
        <ele>904</ele>
        <time>2019-04-17T20:40:50Z</time>
      </trkpt>
      <trkpt lat="46.3192" lon="5.9524">
        <ele>904</ele>
        <time>2019-04-17T20:41:50Z</time>
      </trkpt>
      <trkpt lat="46.32094" lon="5.954">
        <ele>903</ele>
        <time>2019-04-17T20:42:50Z</time>
      </trkpt>
      <trkpt lat="46.32121" lon="5.95432">
        <ele>903</ele>
        <time>2019-04-17T20:43:50Z</time>
      </trkpt>
      <trkpt lat="46.32147" lon="5.95466">
        <ele>904</ele>
        <time>2019-04-17T20:44:50Z</time>
      </trkpt>
      <trkpt lat="46.32163" lon="5.95482">
        <ele>905</ele>
        <time>2019-04-17T20:45:50Z</time>
      </trkpt>
      <trkpt lat="46.32234" lon="5.95523">
        <ele>909</ele>
        <time>2019-04-17T20:46:50Z</time>
      </trkpt>
      <trkpt lat="46.32253" lon="5.95536">
        <ele>909</ele>
        <time>2019-04-17T20:47:50Z</time>
      </trkpt>
      <trkpt lat="46.32274" lon="5.95554">
        <ele>910</ele>
        <time>2019-04-17T20:48:50Z</time>
      </trkpt>
      <trkpt lat="46.32329" lon="5.95611">
        <ele>914</ele>
        <time>2019-04-17T20:49:50Z</time>
      </trkpt>
      <trkpt lat="46.3234" lon="5.95619">
        <ele>915</ele>
        <time>2019-04-17T20:50:50Z</time>
      </trkpt>
      <trkpt lat="46.32349" lon="5.95623">
        <ele>915</ele>
        <time>2019-04-17T20:51:50Z</time>
      </trkpt>
      <trkpt lat="46.32362" lon="5.95624">
        <ele>915</ele>
        <time>2019-04-17T20:52:50Z</time>
      </trkpt>
      <trkpt lat="46.32376" lon="5.95623">
        <ele>916</ele>
        <time>2019-04-17T20:53:50Z</time>
      </trkpt>
      <trkpt lat="46.32434" lon="5.95609">
        <ele>915</ele>
        <time>2019-04-17T20:54:50Z</time>
      </trkpt>
      <trkpt lat="46.32449" lon="5.95609">
        <ele>916</ele>
        <time>2019-04-17T20:55:50Z</time>
      </trkpt>
      <trkpt lat="46.32463" lon="5.95614">
        <ele>916</ele>
        <time>2019-04-17T20:56:50Z</time>
      </trkpt>
      <trkpt lat="46.3259" lon="5.95703">
        <ele>927</ele>
        <time>2019-04-17T20:57:50Z</time>
      </trkpt>
      <trkpt lat="46.3262" lon="5.95718">
        <ele>930</ele>
        <time>2019-04-17T20:58:50Z</time>
      </trkpt>
      <trkpt lat="46.32641" lon="5.95725">
        <ele>931</ele>
        <time>2019-04-17T20:59:50Z</time>
      </trkpt>
      <trkpt lat="46.3269" lon="5.95731">
        <ele>931</ele>
        <time>2019-04-17T21:00:50Z</time>
      </trkpt>
      <trkpt lat="46.32706" lon="5.95738">
        <ele>932</ele>
        <time>2019-04-17T21:01:50Z</time>
      </trkpt>
      <trkpt lat="46.32722" lon="5.95751">
        <ele>932</ele>
        <time>2019-04-17T21:02:50Z</time>
      </trkpt>
      <trkpt lat="46.3277" lon="5.95825">
        <ele>936</ele>
        <time>2019-04-17T21:03:50Z</time>
      </trkpt>
      <trkpt lat="46.3278" lon="5.95834">
        <ele>937</ele>
        <time>2019-04-17T21:04:50Z</time>
      </trkpt>
      <trkpt lat="46.32791" lon="5.9584">
        <ele>938</ele>
        <time>2019-04-17T21:05:50Z</time>
      </trkpt>
      <trkpt lat="46.32861" lon="5.95843">
        <ele>939</ele>
        <time>2019-04-17T21:06:50Z</time>
      </trkpt>
      <trkpt lat="46.32881" lon="5.95857">
        <ele>941</ele>
        <time>2019-04-17T21:07:50Z</time>
      </trkpt>
      <trkpt lat="46.32908" lon="5.95887">
        <ele>946</ele>
        <time>2019-04-17T21:08:50Z</time>
      </trkpt>
      <trkpt lat="46.32917" lon="5.95894">
        <ele>947</ele>
        <time>2019-04-17T21:09:50Z</time>
      </trkpt>
      <trkpt lat="46.32927" lon="5.95895">
        <ele>947</ele>
        <time>2019-04-17T21:10:50Z</time>
      </trkpt>
      <trkpt lat="46.32943" lon="5.9589">
        <ele>946</ele>
        <time>2019-04-17T21:11:50Z</time>
      </trkpt>
      <trkpt lat="46.32959" lon="5.95881">
        <ele>945</ele>
        <time>2019-04-17T21:12:50Z</time>
      </trkpt>
      <trkpt lat="46.32986" lon="5.95856">
        <ele>941</ele>
        <time>2019-04-17T21:13:50Z</time>
      </trkpt>
      <trkpt lat="46.32994" lon="5.95854">
        <ele>941</ele>
        <time>2019-04-17T21:14:50Z</time>
      </trkpt>
      <trkpt lat="46.33016" lon="5.95858">
        <ele>941</ele>
        <time>2019-04-17T21:15:50Z</time>
      </trkpt>
      <trkpt lat="46.33025" lon="5.95864">
        <ele>941</ele>
        <time>2019-04-17T21:16:50Z</time>
      </trkpt>
      <trkpt lat="46.33034" lon="5.95873">
        <ele>942</ele>
        <time>2019-04-17T21:17:50Z</time>
      </trkpt>
      <trkpt lat="46.33044" lon="5.95887">
        <ele>943</ele>
        <time>2019-04-17T21:18:50Z</time>
      </trkpt>
      <trkpt lat="46.33059" lon="5.95914">
        <ele>946</ele>
        <time>2019-04-17T21:19:50Z</time>
      </trkpt>
      <trkpt lat="46.33074" lon="5.95949">
        <ele>950</ele>
        <time>2019-04-17T21:20:50Z</time>
      </trkpt>
      <trkpt lat="46.33095" lon="5.95983">
        <ele>953</ele>
        <time>2019-04-17T21:21:50Z</time>
      </trkpt>
      <trkpt lat="46.33123" lon="5.96007">
        <ele>956</ele>
        <time>2019-04-17T21:22:50Z</time>
      </trkpt>
      <trkpt lat="46.33142" lon="5.96018">
        <ele>958</ele>
        <time>2019-04-17T21:23:50Z</time>
      </trkpt>
      <trkpt lat="46.33175" lon="5.96034">
        <ele>960</ele>
        <time>2019-04-17T21:24:50Z</time>
      </trkpt>
      <trkpt lat="46.33218" lon="5.9606">
        <ele>958</ele>
        <time>2019-04-17T21:25:50Z</time>
      </trkpt>
      <trkpt lat="46.33314" lon="5.96104">
        <ele>950</ele>
        <time>2019-04-17T21:26:50Z</time>
      </trkpt>
      <trkpt lat="46.33329" lon="5.96114">
        <ele>950</ele>
        <time>2019-04-17T21:27:50Z</time>
      </trkpt>
      <trkpt lat="46.33373" lon="5.96152">
        <ele>951</ele>
        <time>2019-04-17T21:28:50Z</time>
      </trkpt>
      <trkpt lat="46.3348" lon="5.96249">
        <ele>945</ele>
        <time>2019-04-17T21:29:50Z</time>
      </trkpt>
      <trkpt lat="46.33553" lon="5.96322">
        <ele>943</ele>
        <time>2019-04-17T21:30:50Z</time>
      </trkpt>
      <trkpt lat="46.33598" lon="5.96382">
        <ele>945</ele>
        <time>2019-04-17T21:31:50Z</time>
      </trkpt>
      <trkpt lat="46.33628" lon="5.96405">
        <ele>943</ele>
        <time>2019-04-17T21:32:50Z</time>
      </trkpt>
      <trkpt lat="46.3364" lon="5.96417">
        <ele>942</ele>
        <time>2019-04-17T21:33:50Z</time>
      </trkpt>
      <trkpt lat="46.33693" lon="5.965">
        <ele>944</ele>
        <time>2019-04-17T21:34:50Z</time>
      </trkpt>
      <trkpt lat="46.33704" lon="5.9651">
        <ele>944</ele>
        <time>2019-04-17T21:35:50Z</time>
      </trkpt>
      <trkpt lat="46.33773" lon="5.96559">
        <ele>944</ele>
        <time>2019-04-17T21:36:50Z</time>
      </trkpt>
      <trkpt lat="46.33786" lon="5.96572">
        <ele>943</ele>
        <time>2019-04-17T21:37:50Z</time>
      </trkpt>
      <trkpt lat="46.33818" lon="5.96617">
        <ele>943</ele>
        <time>2019-04-17T21:38:50Z</time>
      </trkpt>
      <trkpt lat="46.33831" lon="5.96633">
        <ele>942</ele>
        <time>2019-04-17T21:39:50Z</time>
      </trkpt>
      <trkpt lat="46.33846" lon="5.96647">
        <ele>942</ele>
        <time>2019-04-17T21:40:50Z</time>
      </trkpt>
      <trkpt lat="46.33901" lon="5.96688">
        <ele>944</ele>
        <time>2019-04-17T21:41:50Z</time>
      </trkpt>
      <trkpt lat="46.33991" lon="5.96744">
        <ele>943</ele>
        <time>2019-04-17T21:42:50Z</time>
      </trkpt>
      <trkpt lat="46.34026" lon="5.96761">
        <ele>944</ele>
        <time>2019-04-17T21:43:50Z</time>
      </trkpt>
      <trkpt lat="46.34071" lon="5.96779">
        <ele>943</ele>
        <time>2019-04-17T21:44:50Z</time>
      </trkpt>
      <trkpt lat="46.34147" lon="5.96802">
        <ele>948</ele>
        <time>2019-04-17T21:45:50Z</time>
      </trkpt>
      <trkpt lat="46.34171" lon="5.96813">
        <ele>950</ele>
        <time>2019-04-17T21:46:50Z</time>
      </trkpt>
      <trkpt lat="46.34197" lon="5.96832">
        <ele>951</ele>
        <time>2019-04-17T21:47:50Z</time>
      </trkpt>
      <trkpt lat="46.34216" lon="5.96851">
        <ele>952</ele>
        <time>2019-04-17T21:48:50Z</time>
      </trkpt>
      <trkpt lat="46.34229" lon="5.96871">
        <ele>952</ele>
        <time>2019-04-17T21:49:50Z</time>
      </trkpt>
      <trkpt lat="46.34327" lon="5.97029">
        <ele>955</ele>
        <time>2019-04-17T21:50:50Z</time>
      </trkpt>
      <trkpt lat="46.34441" lon="5.97146">
        <ele>958</ele>
        <time>2019-04-17T21:51:50Z</time>
      </trkpt>
      <trkpt lat="46.34471" lon="5.97173">
        <ele>954</ele>
        <time>2019-04-17T21:52:50Z</time>
      </trkpt>
      <trkpt lat="46.34503" lon="5.97196">
        <ele>949</ele>
        <time>2019-04-17T21:53:50Z</time>
      </trkpt>
      <trkpt lat="46.34529" lon="5.9722">
        <ele>946</ele>
        <time>2019-04-17T21:54:50Z</time>
      </trkpt>
      <trkpt lat="46.34622" lon="5.97316">
        <ele>942</ele>
        <time>2019-04-17T21:55:50Z</time>
      </trkpt>
      <trkpt lat="46.34715" lon="5.97399">
        <ele>946</ele>
        <time>2019-04-17T21:56:50Z</time>
      </trkpt>
      <trkpt lat="46.34822" lon="5.97475">
        <ele>947</ele>
        <time>2019-04-17T21:57:50Z</time>
      </trkpt>
      <trkpt lat="46.34874" lon="5.97518">
        <ele>951</ele>
        <time>2019-04-17T21:58:50Z</time>
      </trkpt>
      <trkpt lat="46.34986" lon="5.97619">
        <ele>962</ele>
        <time>2019-04-17T21:59:50Z</time>
      </trkpt>
      <trkpt lat="46.3507" lon="5.9768">
        <ele>957</ele>
        <time>2019-04-17T22:00:50Z</time>
      </trkpt>
      <trkpt lat="46.35089" lon="5.97698">
        <ele>956</ele>
        <time>2019-04-17T22:01:50Z</time>
      </trkpt>
      <trkpt lat="46.35152" lon="5.97774">
        <ele>957</ele>
        <time>2019-04-17T22:02:50Z</time>
      </trkpt>
      <trkpt lat="46.35181" lon="5.97805">
        <ele>959</ele>
        <time>2019-04-17T22:03:50Z</time>
      </trkpt>
      <trkpt lat="46.35261" lon="5.97878">
        <ele>960</ele>
        <time>2019-04-17T22:04:50Z</time>
      </trkpt>
      <trkpt lat="46.35278" lon="5.97898">
        <ele>960</ele>
        <time>2019-04-17T22:05:50Z</time>
      </trkpt>
      <trkpt lat="46.35313" lon="5.97955">
        <ele>962</ele>
        <time>2019-04-17T22:06:50Z</time>
      </trkpt>
      <trkpt lat="46.35328" lon="5.97973">
        <ele>961</ele>
        <time>2019-04-17T22:07:50Z</time>
      </trkpt>
      <trkpt lat="46.35345" lon="5.97987">
        <ele>961</ele>
        <time>2019-04-17T22:08:50Z</time>
      </trkpt>
      <trkpt lat="46.35395" lon="5.9801">
        <ele>960</ele>
        <time>2019-04-17T22:09:50Z</time>
      </trkpt>
      <trkpt lat="46.35407" lon="5.98017">
        <ele>960</ele>
        <time>2019-04-17T22:10:50Z</time>
      </trkpt>
      <trkpt lat="46.3551" lon="5.98097">
        <ele>963</ele>
        <time>2019-04-17T22:11:50Z</time>
      </trkpt>
      <trkpt lat="46.35584" lon="5.98142">
        <ele>964</ele>
        <time>2019-04-17T22:12:50Z</time>
      </trkpt>
      <trkpt lat="46.35674" lon="5.98207">
        <ele>967</ele>
        <time>2019-04-17T22:13:50Z</time>
      </trkpt>
      <trkpt lat="46.35729" lon="5.9823">
        <ele>969</ele>
        <time>2019-04-17T22:14:50Z</time>
      </trkpt>
      <trkpt lat="46.35749" lon="5.98243">
        <ele>971</ele>
        <time>2019-04-17T22:15:50Z</time>
      </trkpt>
      <trkpt lat="46.35768" lon="5.98259">
        <ele>972</ele>
        <time>2019-04-17T22:16:50Z</time>
      </trkpt>
      <trkpt lat="46.35789" lon="5.9828">
        <ele>975</ele>
        <time>2019-04-17T22:17:50Z</time>
      </trkpt>
      <trkpt lat="46.35806" lon="5.98301">
        <ele>978</ele>
        <time>2019-04-17T22:18:50Z</time>
      </trkpt>
      <trkpt lat="46.35854" lon="5.98375">
        <ele>984</ele>
        <time>2019-04-17T22:19:50Z</time>
      </trkpt>
      <trkpt lat="46.35871" lon="5.98394">
        <ele>984</ele>
        <time>2019-04-17T22:20:50Z</time>
      </trkpt>
      <trkpt lat="46.35913" lon="5.98434">
        <ele>983</ele>
        <time>2019-04-17T22:21:50Z</time>
      </trkpt>
      <trkpt lat="46.35931" lon="5.98456">
        <ele>984</ele>
        <time>2019-04-17T22:22:50Z</time>
      </trkpt>
      <trkpt lat="46.3594" lon="5.9847">
        <ele>984</ele>
        <time>2019-04-17T22:23:50Z</time>
      </trkpt>
      <trkpt lat="46.35978" lon="5.98549">
        <ele>989</ele>
        <time>2019-04-17T22:24:50Z</time>
      </trkpt>
      <trkpt lat="46.35998" lon="5.98576">
        <ele>989</ele>
        <time>2019-04-17T22:25:50Z</time>
      </trkpt>
      <trkpt lat="46.36047" lon="5.98632">
        <ele>993</ele>
        <time>2019-04-17T22:26:50Z</time>
      </trkpt>
      <trkpt lat="46.36137" lon="5.98756">
        <ele>995</ele>
        <time>2019-04-17T22:27:50Z</time>
      </trkpt>
      <trkpt lat="46.3618" lon="5.98806">
        <ele>993</ele>
        <time>2019-04-17T22:28:50Z</time>
      </trkpt>
      <trkpt lat="46.36208" lon="5.98853">
        <ele>994</ele>
        <time>2019-04-17T22:29:50Z</time>
      </trkpt>
      <trkpt lat="46.36254" lon="5.98904">
        <ele>993</ele>
        <time>2019-04-17T22:30:50Z</time>
      </trkpt>
      <trkpt lat="46.36266" lon="5.9892">
        <ele>994</ele>
        <time>2019-04-17T22:31:50Z</time>
      </trkpt>
      <trkpt lat="46.36277" lon="5.9894">
        <ele>996</ele>
        <time>2019-04-17T22:32:50Z</time>
      </trkpt>
      <trkpt lat="46.36312" lon="5.99022">
        <ele>999</ele>
        <time>2019-04-17T22:33:50Z</time>
      </trkpt>
      <trkpt lat="46.36333" lon="5.99058">
        <ele>997</ele>
        <time>2019-04-17T22:34:50Z</time>
      </trkpt>
      <trkpt lat="46.3642" lon="5.99169">
        <ele>998</ele>
        <time>2019-04-17T22:35:50Z</time>
      </trkpt>
      <trkpt lat="46.36443" lon="5.99206">
        <ele>998</ele>
        <time>2019-04-17T22:36:50Z</time>
      </trkpt>
      <trkpt lat="46.3646" lon="5.99238">
        <ele>998</ele>
        <time>2019-04-17T22:37:50Z</time>
      </trkpt>
      <trkpt lat="46.36522" lon="5.99377">
        <ele>997</ele>
        <time>2019-04-17T22:38:50Z</time>
      </trkpt>
      <trkpt lat="46.36535" lon="5.99398">
        <ele>996</ele>
        <time>2019-04-17T22:39:50Z</time>
      </trkpt>
      <trkpt lat="46.36561" lon="5.99464">
        <ele>995</ele>
        <time>2019-04-17T22:40:50Z</time>
      </trkpt>
      <trkpt lat="46.36564" lon="5.9948">
        <ele>995</ele>
        <time>2019-04-17T22:41:50Z</time>
      </trkpt>
      <trkpt lat="46.36568" lon="5.99493">
        <ele>995</ele>
        <time>2019-04-17T22:42:50Z</time>
      </trkpt>
      <trkpt lat="46.36623" lon="5.99625">
        <ele>995</ele>
        <time>2019-04-17T22:43:50Z</time>
      </trkpt>
      <trkpt lat="46.36678" lon="5.99698">
        <ele>994</ele>
        <time>2019-04-17T22:44:50Z</time>
      </trkpt>
      <trkpt lat="46.36698" lon="5.99772">
        <ele>996</ele>
        <time>2019-04-17T22:45:50Z</time>
      </trkpt>
      <trkpt lat="46.36702" lon="5.99783">
        <ele>996</ele>
        <time>2019-04-17T22:46:50Z</time>
      </trkpt>
      <trkpt lat="46.36715" lon="5.99812">
        <ele>997</ele>
        <time>2019-04-17T22:47:50Z</time>
      </trkpt>
      <trkpt lat="46.36733" lon="5.9984">
        <ele>996</ele>
        <time>2019-04-17T22:48:50Z</time>
      </trkpt>
      <trkpt lat="46.36741" lon="5.99847">
        <ele>996</ele>
        <time>2019-04-17T22:49:50Z</time>
      </trkpt>
      <trkpt lat="46.36785" lon="5.9987">
        <ele>998</ele>
        <time>2019-04-17T22:50:50Z</time>
      </trkpt>
      <trkpt lat="46.36793" lon="5.99879">
        <ele>999</ele>
        <time>2019-04-17T22:51:50Z</time>
      </trkpt>
      <trkpt lat="46.368" lon="5.99892">
        <ele>1001</ele>
        <time>2019-04-17T22:52:50Z</time>
      </trkpt>
      <trkpt lat="46.36804" lon="5.99908">
        <ele>1004</ele>
        <time>2019-04-17T22:53:50Z</time>
      </trkpt>
      <trkpt lat="46.36808" lon="5.99956">
        <ele>1008</ele>
        <time>2019-04-17T22:54:50Z</time>
      </trkpt>
      <trkpt lat="46.36816" lon="5.9999">
        <ele>1010</ele>
        <time>2019-04-17T22:55:50Z</time>
      </trkpt>
      <trkpt lat="46.36823" lon="6.00041">
        <ele>1014</ele>
        <time>2019-04-17T22:56:50Z</time>
      </trkpt>
      <trkpt lat="46.36842" lon="6.0013">
        <ele>1018</ele>
        <time>2019-04-17T22:57:50Z</time>
      </trkpt>
      <trkpt lat="46.36848" lon="6.00198">
        <ele>1017</ele>
        <time>2019-04-17T22:58:50Z</time>
      </trkpt>
      <trkpt lat="46.36848" lon="6.00217">
        <ele>1016</ele>
        <time>2019-04-17T22:59:50Z</time>
      </trkpt>
      <trkpt lat="46.36845" lon="6.00227">
        <ele>1017</ele>
        <time>2019-04-17T23:00:50Z</time>
      </trkpt>
      <trkpt lat="46.36825" lon="6.00283">
        <ele>1022</ele>
        <time>2019-04-17T23:01:50Z</time>
      </trkpt>
      <trkpt lat="46.3682" lon="6.00309">
        <ele>1025</ele>
        <time>2019-04-17T23:02:50Z</time>
      </trkpt>
      <trkpt lat="46.3682" lon="6.0033">
        <ele>1026</ele>
        <time>2019-04-17T23:03:50Z</time>
      </trkpt>
      <trkpt lat="46.36822" lon="6.00354">
        <ele>1029</ele>
        <time>2019-04-17T23:04:50Z</time>
      </trkpt>
      <trkpt lat="46.36828" lon="6.00384">
        <ele>1032</ele>
        <time>2019-04-17T23:05:50Z</time>
      </trkpt>
      <trkpt lat="46.36844" lon="6.00448">
        <ele>1039</ele>
        <time>2019-04-17T23:06:50Z</time>
      </trkpt>
      <trkpt lat="46.36857" lon="6.00488">
        <ele>1044</ele>
        <time>2019-04-17T23:07:50Z</time>
      </trkpt>
      <trkpt lat="46.36883" lon="6.00601">
        <ele>1053</ele>
        <time>2019-04-17T23:08:50Z</time>
      </trkpt>
      <trkpt lat="46.36895" lon="6.00662">
        <ele>1058</ele>
        <time>2019-04-17T23:09:50Z</time>
      </trkpt>
      <trkpt lat="46.36922" lon="6.00732">
        <ele>1058</ele>
        <time>2019-04-17T23:10:50Z</time>
      </trkpt>
      <trkpt lat="46.36936" lon="6.00781">
        <ele>1060</ele>
        <time>2019-04-17T23:11:50Z</time>
      </trkpt>
      <trkpt lat="46.36942" lon="6.00796">
        <ele>1060</ele>
        <time>2019-04-17T23:12:50Z</time>
      </trkpt>
      <trkpt lat="46.36951" lon="6.00807">
        <ele>1060</ele>
        <time>2019-04-17T23:13:50Z</time>
      </trkpt>
      <trkpt lat="46.36978" lon="6.00821">
        <ele>1059</ele>
        <time>2019-04-17T23:14:50Z</time>
      </trkpt>
      <trkpt lat="46.36997" lon="6.00839">
        <ele>1060</ele>
        <time>2019-04-17T23:15:50Z</time>
      </trkpt>
      <trkpt lat="46.37006" lon="6.00854">
        <ele>1059</ele>
        <time>2019-04-17T23:16:50Z</time>
      </trkpt>
      <trkpt lat="46.37018" lon="6.00883">
        <ele>1059</ele>
        <time>2019-04-17T23:17:50Z</time>
      </trkpt>
      <trkpt lat="46.37027" lon="6.00923">
        <ele>1061</ele>
        <time>2019-04-17T23:18:50Z</time>
      </trkpt>
      <trkpt lat="46.3703" lon="6.00945">
        <ele>1062</ele>
        <time>2019-04-17T23:19:50Z</time>
      </trkpt>
      <trkpt lat="46.37032" lon="6.01">
        <ele>1064</ele>
        <time>2019-04-17T23:20:50Z</time>
      </trkpt>
      <trkpt lat="46.37034" lon="6.0102">
        <ele>1065</ele>
        <time>2019-04-17T23:21:50Z</time>
      </trkpt>
      <trkpt lat="46.37037" lon="6.01037">
        <ele>1065</ele>
        <time>2019-04-17T23:22:50Z</time>
      </trkpt>
      <trkpt lat="46.37049" lon="6.01071">
        <ele>1064</ele>
        <time>2019-04-17T23:23:50Z</time>
      </trkpt>
      <trkpt lat="46.37054" lon="6.01091">
        <ele>1064</ele>
        <time>2019-04-17T23:24:50Z</time>
      </trkpt>
      <trkpt lat="46.37057" lon="6.01149">
        <ele>1070</ele>
        <time>2019-04-17T23:25:50Z</time>
      </trkpt>
      <trkpt lat="46.37065" lon="6.01183">
        <ele>1072</ele>
        <time>2019-04-17T23:26:50Z</time>
      </trkpt>
      <trkpt lat="46.37069" lon="6.01194">
        <ele>1073</ele>
        <time>2019-04-17T23:27:50Z</time>
      </trkpt>
      <trkpt lat="46.37092" lon="6.0123">
        <ele>1072</ele>
        <time>2019-04-17T23:28:50Z</time>
      </trkpt>
      <trkpt lat="46.37108" lon="6.01264">
        <ele>1073</ele>
        <time>2019-04-17T23:29:50Z</time>
      </trkpt>
      <trkpt lat="46.37129" lon="6.01322">
        <ele>1076</ele>
        <time>2019-04-17T23:30:50Z</time>
      </trkpt>
      <trkpt lat="46.37148" lon="6.01389">
        <ele>1078</ele>
        <time>2019-04-17T23:31:50Z</time>
      </trkpt>
      <trkpt lat="46.37153" lon="6.014">
        <ele>1078</ele>
        <time>2019-04-17T23:32:50Z</time>
      </trkpt>
      <trkpt lat="46.37173" lon="6.01432">
        <ele>1078</ele>
        <time>2019-04-17T23:33:50Z</time>
      </trkpt>
      <trkpt lat="46.3721" lon="6.01486">
        <ele>1082</ele>
        <time>2019-04-17T23:34:50Z</time>
      </trkpt>
      <trkpt lat="46.37224" lon="6.0151">
        <ele>1083</ele>
        <time>2019-04-17T23:35:50Z</time>
      </trkpt>
      <trkpt lat="46.37294" lon="6.01748">
        <ele>1088</ele>
        <time>2019-04-17T23:36:50Z</time>
      </trkpt>
      <trkpt lat="46.37309" lon="6.01792">
        <ele>1089</ele>
        <time>2019-04-17T23:37:50Z</time>
      </trkpt>
      <trkpt lat="46.37337" lon="6.0187">
        <ele>1092</ele>
        <time>2019-04-17T23:38:50Z</time>
      </trkpt>
      <trkpt lat="46.37353" lon="6.01924">
        <ele>1095</ele>
        <time>2019-04-17T23:39:50Z</time>
      </trkpt>
      <trkpt lat="46.37385" lon="6.01991">
        <ele>1095</ele>
        <time>2019-04-17T23:40:50Z</time>
      </trkpt>
      <trkpt lat="46.37393" lon="6.02013">
        <ele>1096</ele>
        <time>2019-04-17T23:41:50Z</time>
      </trkpt>
      <trkpt lat="46.37399" lon="6.02043">
        <ele>1099</ele>
        <time>2019-04-17T23:42:50Z</time>
      </trkpt>
      <trkpt lat="46.374" lon="6.02086">
        <ele>1106</ele>
        <time>2019-04-17T23:43:50Z</time>
      </trkpt>
      <trkpt lat="46.37403" lon="6.02104">
        <ele>1107</ele>
        <time>2019-04-17T23:44:50Z</time>
      </trkpt>
      <trkpt lat="46.37418" lon="6.02144">
        <ele>1103</ele>
        <time>2019-04-17T23:45:50Z</time>
      </trkpt>
      <trkpt lat="46.37434" lon="6.02192">
        <ele>1108</ele>
        <time>2019-04-17T23:46:50Z</time>
      </trkpt>
      <trkpt lat="46.37453" lon="6.02228">
        <ele>1111</ele>
        <time>2019-04-17T23:47:50Z</time>
      </trkpt>
      <trkpt lat="46.37467" lon="6.02272">
        <ele>1113</ele>
        <time>2019-04-17T23:48:50Z</time>
      </trkpt>
      <trkpt lat="46.37504" lon="6.024">
        <ele>1112</ele>
        <time>2019-04-17T23:49:50Z</time>
      </trkpt>
      <trkpt lat="46.37513" lon="6.02452">
        <ele>1115</ele>
        <time>2019-04-17T23:50:50Z</time>
      </trkpt>
      <trkpt lat="46.37522" lon="6.02478">
        <ele>1116</ele>
        <time>2019-04-17T23:51:50Z</time>
      </trkpt>
      <trkpt lat="46.37539" lon="6.02514">
        <ele>1118</ele>
        <time>2019-04-17T23:52:50Z</time>
      </trkpt>
      <trkpt lat="46.37555" lon="6.02576">
        <ele>1124</ele>
        <time>2019-04-17T23:53:50Z</time>
      </trkpt>
      <trkpt lat="46.37568" lon="6.02616">
        <ele>1126</ele>
        <time>2019-04-17T23:54:50Z</time>
      </trkpt>
      <trkpt lat="46.37571" lon="6.02637">
        <ele>1128</ele>
        <time>2019-04-17T23:55:50Z</time>
      </trkpt>
      <trkpt lat="46.37572" lon="6.02671">
        <ele>1132</ele>
        <time>2019-04-17T23:56:50Z</time>
      </trkpt>
      <trkpt lat="46.37575" lon="6.02684">
        <ele>1133</ele>
        <time>2019-04-17T23:57:50Z</time>
      </trkpt>
      <trkpt lat="46.37584" lon="6.02702">
        <ele>1130</ele>
        <time>2019-04-17T23:58:50Z</time>
      </trkpt>
      <trkpt lat="46.37636" lon="6.0278">
        <ele>1130</ele>
        <time>2019-04-17T23:59:50Z</time>
      </trkpt>
      <trkpt lat="46.37658" lon="6.02824">
        <ele>1131</ele>
        <time>2019-04-18T00:00:50Z</time>
      </trkpt>
      <trkpt lat="46.37673" lon="6.02862">
        <ele>1133</ele>
        <time>2019-04-18T00:01:50Z</time>
      </trkpt>
      <trkpt lat="46.37702" lon="6.02948">
        <ele>1142</ele>
        <time>2019-04-18T00:02:50Z</time>
      </trkpt>
      <trkpt lat="46.37707" lon="6.0296">
        <ele>1143</ele>
        <time>2019-04-18T00:03:50Z</time>
      </trkpt>
      <trkpt lat="46.3772" lon="6.02976">
        <ele>1142</ele>
        <time>2019-04-18T00:04:50Z</time>
      </trkpt>
      <trkpt lat="46.37749" lon="6.02998">
        <ele>1138</ele>
        <time>2019-04-18T00:05:50Z</time>
      </trkpt>
      <trkpt lat="46.37757" lon="6.03008">
        <ele>1139</ele>
        <time>2019-04-18T00:06:50Z</time>
      </trkpt>
      <trkpt lat="46.37855" lon="6.0321">
        <ele>1151</ele>
        <time>2019-04-18T00:07:50Z</time>
      </trkpt>
      <trkpt lat="46.37858" lon="6.03357">
        <ele>1175</ele>
        <time>2019-04-18T00:08:50Z</time>
      </trkpt>
      <trkpt lat="46.37861" lon="6.03382">
        <ele>1179</ele>
        <time>2019-04-18T00:09:50Z</time>
      </trkpt>
      <trkpt lat="46.37869" lon="6.03402">
        <ele>1179</ele>
        <time>2019-04-18T00:10:50Z</time>
      </trkpt>
      <trkpt lat="46.37898" lon="6.03446">
        <ele>1177</ele>
        <time>2019-04-18T00:11:50Z</time>
      </trkpt>
      <trkpt lat="46.37912" lon="6.03479">
        <ele>1177</ele>
        <time>2019-04-18T00:12:50Z</time>
      </trkpt>
      <trkpt lat="46.37928" lon="6.03509">
        <ele>1179</ele>
        <time>2019-04-18T00:13:50Z</time>
      </trkpt>
      <trkpt lat="46.37948" lon="6.03536">
        <ele>1180</ele>
        <time>2019-04-18T00:14:50Z</time>
      </trkpt>
      <trkpt lat="46.37962" lon="6.03549">
        <ele>1179</ele>
        <time>2019-04-18T00:15:50Z</time>
      </trkpt>
      <trkpt lat="46.37982" lon="6.03561">
        <ele>1175</ele>
        <time>2019-04-18T00:16:50Z</time>
      </trkpt>
      <trkpt lat="46.3799" lon="6.03571">
        <ele>1174</ele>
        <time>2019-04-18T00:17:50Z</time>
      </trkpt>
      <trkpt lat="46.37993" lon="6.03577">
        <ele>1174</ele>
        <time>2019-04-18T00:18:50Z</time>
      </trkpt>
      <trkpt lat="46.38016" lon="6.03658">
        <ele>1177</ele>
        <time>2019-04-18T00:19:50Z</time>
      </trkpt>
      <trkpt lat="46.3802" lon="6.03678">
        <ele>1178</ele>
        <time>2019-04-18T00:20:50Z</time>
      </trkpt>
      <trkpt lat="46.38019" lon="6.03692">
        <ele>1179</ele>
        <time>2019-04-18T00:21:50Z</time>
      </trkpt>
      <trkpt lat="46.38004" lon="6.03736">
        <ele>1185</ele>
        <time>2019-04-18T00:22:50Z</time>
      </trkpt>
      <trkpt lat="46.38005" lon="6.03754">
        <ele>1187</ele>
        <time>2019-04-18T00:23:50Z</time>
      </trkpt>
      <trkpt lat="46.38015" lon="6.03784">
        <ele>1192</ele>
        <time>2019-04-18T00:24:50Z</time>
      </trkpt>
      <trkpt lat="46.38044" lon="6.03836">
        <ele>1194</ele>
        <time>2019-04-18T00:25:50Z</time>
      </trkpt>
      <trkpt lat="46.38049" lon="6.03848">
        <ele>1195</ele>
        <time>2019-04-18T00:26:50Z</time>
      </trkpt>
      <trkpt lat="46.3806" lon="6.03898">
        <ele>1203</ele>
        <time>2019-04-18T00:27:50Z</time>
      </trkpt>
      <trkpt lat="46.3807" lon="6.03926">
        <ele>1206</ele>
        <time>2019-04-18T00:28:50Z</time>
      </trkpt>
      <trkpt lat="46.38081" lon="6.03943">
        <ele>1208</ele>
        <time>2019-04-18T00:29:50Z</time>
      </trkpt>
      <trkpt lat="46.38096" lon="6.03956">
        <ele>1210</ele>
        <time>2019-04-18T00:30:50Z</time>
      </trkpt>
      <trkpt lat="46.38137" lon="6.03966">
        <ele>1207</ele>
        <time>2019-04-18T00:31:50Z</time>
      </trkpt>
      <trkpt lat="46.38193" lon="6.03999">
        <ele>1206</ele>
        <time>2019-04-18T00:32:50Z</time>
      </trkpt>
      <trkpt lat="46.38205" lon="6.04012">
        <ele>1208</ele>
        <time>2019-04-18T00:33:50Z</time>
      </trkpt>
      <trkpt lat="46.38218" lon="6.04036">
        <ele>1213</ele>
        <time>2019-04-18T00:34:50Z</time>
      </trkpt>
      <trkpt lat="46.38228" lon="6.04051">
        <ele>1216</ele>
        <time>2019-04-18T00:35:50Z</time>
      </trkpt>
      <trkpt lat="46.38244" lon="6.04068">
        <ele>1218</ele>
        <time>2019-04-18T00:36:50Z</time>
      </trkpt>
      <trkpt lat="46.38258" lon="6.0408">
        <ele>1219</ele>
        <time>2019-04-18T00:37:50Z</time>
      </trkpt>
      <trkpt lat="46.38317" lon="6.04119">
        <ele>1218</ele>
        <time>2019-04-18T00:38:50Z</time>
      </trkpt>
      <trkpt lat="46.38434" lon="6.04192">
        <ele>1219</ele>
        <time>2019-04-18T00:39:50Z</time>
      </trkpt>
      <trkpt lat="46.38449" lon="6.04204">
        <ele>1219</ele>
        <time>2019-04-18T00:40:50Z</time>
      </trkpt>
      <trkpt lat="46.38465" lon="6.04222">
        <ele>1221</ele>
        <time>2019-04-18T00:41:50Z</time>
      </trkpt>
      <trkpt lat="46.38488" lon="6.04269">
        <ele>1228</ele>
        <time>2019-04-18T00:42:50Z</time>
      </trkpt>
      <trkpt lat="46.38498" lon="6.04284">
        <ele>1230</ele>
        <time>2019-04-18T00:43:50Z</time>
      </trkpt>
      <trkpt lat="46.38513" lon="6.04297">
        <ele>1231</ele>
        <time>2019-04-18T00:44:50Z</time>
      </trkpt>
      <trkpt lat="46.38548" lon="6.04314">
        <ele>1231</ele>
        <time>2019-04-18T00:45:50Z</time>
      </trkpt>
      <trkpt lat="46.38556" lon="6.0432">
        <ele>1232</ele>
        <time>2019-04-18T00:46:50Z</time>
      </trkpt>
      <trkpt lat="46.38564" lon="6.04333">
        <ele>1234</ele>
        <time>2019-04-18T00:47:50Z</time>
      </trkpt>
      <trkpt lat="46.38575" lon="6.04357">
        <ele>1237</ele>
        <time>2019-04-18T00:48:50Z</time>
      </trkpt>
      <trkpt lat="46.38593" lon="6.04387">
        <ele>1239</ele>
        <time>2019-04-18T00:49:50Z</time>
      </trkpt>
      <trkpt lat="46.38616" lon="6.04411">
        <ele>1240</ele>
        <time>2019-04-18T00:50:50Z</time>
      </trkpt>
      <trkpt lat="46.38662" lon="6.04451">
        <ele>1239</ele>
        <time>2019-04-18T00:51:50Z</time>
      </trkpt>
      <trkpt lat="46.38671" lon="6.04464">
        <ele>1239</ele>
        <time>2019-04-18T00:52:50Z</time>
      </trkpt>
      <trkpt lat="46.38686" lon="6.0449">
        <ele>1241</ele>
        <time>2019-04-18T00:53:50Z</time>
      </trkpt>
      <trkpt lat="46.38703" lon="6.04512">
        <ele>1242</ele>
        <time>2019-04-18T00:54:50Z</time>
      </trkpt>
      <trkpt lat="46.38707" lon="6.04521">
        <ele>1243</ele>
        <time>2019-04-18T00:55:50Z</time>
      </trkpt>
      <trkpt lat="46.38708" lon="6.04531">
        <ele>1244</ele>
        <time>2019-04-18T00:56:50Z</time>
      </trkpt>
      <trkpt lat="46.38703" lon="6.04542">
        <ele>1245</ele>
        <time>2019-04-18T00:57:50Z</time>
      </trkpt>
      <trkpt lat="46.38699" lon="6.04546">
        <ele>1246</ele>
        <time>2019-04-18T00:58:50Z</time>
      </trkpt>
      <trkpt lat="46.3869" lon="6.04546">
        <ele>1248</ele>
        <time>2019-04-18T00:59:50Z</time>
      </trkpt>
      <trkpt lat="46.38676" lon="6.04534">
        <ele>1248</ele>
        <time>2019-04-18T01:00:50Z</time>
      </trkpt>
      <trkpt lat="46.38651" lon="6.045">
        <ele>1246</ele>
        <time>2019-04-18T01:01:50Z</time>
      </trkpt>
      <trkpt lat="46.38634" lon="6.04485">
        <ele>1247</ele>
        <time>2019-04-18T01:02:50Z</time>
      </trkpt>
      <trkpt lat="46.3861" lon="6.04476">
        <ele>1249</ele>
        <time>2019-04-18T01:03:50Z</time>
      </trkpt>
      <trkpt lat="46.38585" lon="6.0447">
        <ele>1252</ele>
        <time>2019-04-18T01:04:50Z</time>
      </trkpt>
      <trkpt lat="46.38546" lon="6.04448">
        <ele>1254</ele>
        <time>2019-04-18T01:05:50Z</time>
      </trkpt>
      <trkpt lat="46.38505" lon="6.04431">
        <ele>1257</ele>
        <time>2019-04-18T01:06:50Z</time>
      </trkpt>
      <trkpt lat="46.38489" lon="6.04432">
        <ele>1259</ele>
        <time>2019-04-18T01:07:50Z</time>
      </trkpt>
      <trkpt lat="46.3848" lon="6.04438">
        <ele>1261</ele>
        <time>2019-04-18T01:08:50Z</time>
      </trkpt>
      <trkpt lat="46.38458" lon="6.04466">
        <ele>1266</ele>
        <time>2019-04-18T01:09:50Z</time>
      </trkpt>
      <trkpt lat="46.38446" lon="6.04471">
        <ele>1268</ele>
        <time>2019-04-18T01:10:50Z</time>
      </trkpt>
      <trkpt lat="46.38436" lon="6.04471">
        <ele>1269</ele>
        <time>2019-04-18T01:11:50Z</time>
      </trkpt>
      <trkpt lat="46.38424" lon="6.04463">
        <ele>1270</ele>
        <time>2019-04-18T01:12:50Z</time>
      </trkpt>
      <trkpt lat="46.38394" lon="6.04427">
        <ele>1270</ele>
        <time>2019-04-18T01:13:50Z</time>
      </trkpt>
      <trkpt lat="46.38382" lon="6.04417">
        <ele>1271</ele>
        <time>2019-04-18T01:14:50Z</time>
      </trkpt>
      <trkpt lat="46.38371" lon="6.04412">
        <ele>1271</ele>
        <time>2019-04-18T01:15:50Z</time>
      </trkpt>
      <trkpt lat="46.38363" lon="6.04412">
        <ele>1272</ele>
        <time>2019-04-18T01:16:50Z</time>
      </trkpt>
      <trkpt lat="46.38354" lon="6.04415">
        <ele>1274</ele>
        <time>2019-04-18T01:17:50Z</time>
      </trkpt>
      <trkpt lat="46.38343" lon="6.04426">
        <ele>1276</ele>
        <time>2019-04-18T01:18:50Z</time>
      </trkpt>
      <trkpt lat="46.38293" lon="6.04514">
        <ele>1283</ele>
        <time>2019-04-18T01:19:50Z</time>
      </trkpt>
      <trkpt lat="46.38289" lon="6.04534">
        <ele>1284</ele>
        <time>2019-04-18T01:20:50Z</time>
      </trkpt>
      <trkpt lat="46.38289" lon="6.04569">
        <ele>1286</ele>
        <time>2019-04-18T01:21:50Z</time>
      </trkpt>
      <trkpt lat="46.38287" lon="6.04583">
        <ele>1287</ele>
        <time>2019-04-18T01:22:50Z</time>
      </trkpt>
      <trkpt lat="46.38285" lon="6.0459">
        <ele>1287</ele>
        <time>2019-04-18T01:23:50Z</time>
      </trkpt>
      <trkpt lat="46.38279" lon="6.04601">
        <ele>1288</ele>
        <time>2019-04-18T01:24:50Z</time>
      </trkpt>
      <trkpt lat="46.38276" lon="6.04606">
        <ele>1288</ele>
        <time>2019-04-18T01:25:50Z</time>
      </trkpt>
      <trkpt lat="46.3827" lon="6.04611">
        <ele>1289</ele>
        <time>2019-04-18T01:26:50Z</time>
      </trkpt>
      <trkpt lat="46.38264" lon="6.04613">
        <ele>1289</ele>
        <time>2019-04-18T01:27:50Z</time>
      </trkpt>
      <trkpt lat="46.38254" lon="6.04615">
        <ele>1289</ele>
        <time>2019-04-18T01:28:50Z</time>
      </trkpt>
      <trkpt lat="46.38171" lon="6.04578">
        <ele>1288</ele>
        <time>2019-04-18T01:29:50Z</time>
      </trkpt>
      <trkpt lat="46.38139" lon="6.04567">
        <ele>1294</ele>
        <time>2019-04-18T01:30:50Z</time>
      </trkpt>
      <trkpt lat="46.38123" lon="6.04559">
        <ele>1296</ele>
        <time>2019-04-18T01:31:50Z</time>
      </trkpt>
      <trkpt lat="46.38108" lon="6.04545">
        <ele>1297</ele>
        <time>2019-04-18T01:32:50Z</time>
      </trkpt>
      <trkpt lat="46.38083" lon="6.04511">
        <ele>1296</ele>
        <time>2019-04-18T01:33:50Z</time>
      </trkpt>
      <trkpt lat="46.38064" lon="6.04473">
        <ele>1296</ele>
        <time>2019-04-18T01:34:50Z</time>
      </trkpt>
      <trkpt lat="46.38035" lon="6.04408">
        <ele>1294</ele>
        <time>2019-04-18T01:35:50Z</time>
      </trkpt>
      <trkpt lat="46.38025" lon="6.0439">
        <ele>1293</ele>
        <time>2019-04-18T01:36:50Z</time>
      </trkpt>
      <trkpt lat="46.38018" lon="6.04383">
        <ele>1293</ele>
        <time>2019-04-18T01:37:50Z</time>
      </trkpt>
      <trkpt lat="46.38013" lon="6.0438">
        <ele>1294</ele>
        <time>2019-04-18T01:38:50Z</time>
      </trkpt>
      <trkpt lat="46.38002" lon="6.0438">
        <ele>1296</ele>
        <time>2019-04-18T01:39:50Z</time>
      </trkpt>
      <trkpt lat="46.37996" lon="6.04383">
        <ele>1299</ele>
        <time>2019-04-18T01:40:50Z</time>
      </trkpt>
      <trkpt lat="46.37964" lon="6.04367">
        <ele>1311</ele>
        <time>2019-04-18T01:41:50Z</time>
      </trkpt>
      <trkpt lat="46.37953" lon="6.04359">
        <ele>1313</ele>
        <time>2019-04-18T01:42:50Z</time>
      </trkpt>
      <trkpt lat="46.37939" lon="6.04345">
        <ele>1314</ele>
        <time>2019-04-18T01:43:50Z</time>
      </trkpt>
      <trkpt lat="46.3793" lon="6.04331">
        <ele>1312</ele>
        <time>2019-04-18T01:44:50Z</time>
      </trkpt>
      <trkpt lat="46.37912" lon="6.04292">
        <ele>1310</ele>
        <time>2019-04-18T01:45:50Z</time>
      </trkpt>
      <trkpt lat="46.37833" lon="6.04099">
        <ele>1315</ele>
        <time>2019-04-18T01:46:50Z</time>
      </trkpt>
      <trkpt lat="46.37825" lon="6.04078">
        <ele>1315</ele>
        <time>2019-04-18T01:47:50Z</time>
      </trkpt>
      <trkpt lat="46.37817" lon="6.04046">
        <ele>1316</ele>
        <time>2019-04-18T01:48:50Z</time>
      </trkpt>
      <trkpt lat="46.37797" lon="6.0393">
        <ele>1315</ele>
        <time>2019-04-18T01:49:50Z</time>
      </trkpt>
      <trkpt lat="46.37779" lon="6.03853">
        <ele>1316</ele>
        <time>2019-04-18T01:50:50Z</time>
      </trkpt>
      <trkpt lat="46.37759" lon="6.03788">
        <ele>1315</ele>
        <time>2019-04-18T01:51:50Z</time>
      </trkpt>
      <trkpt lat="46.37732" lon="6.03718">
        <ele>1315</ele>
        <time>2019-04-18T01:52:50Z</time>
      </trkpt>
      <trkpt lat="46.3771" lon="6.03647">
        <ele>1312</ele>
        <time>2019-04-18T01:53:50Z</time>
      </trkpt>
      <trkpt lat="46.37695" lon="6.03612">
        <ele>1314</ele>
        <time>2019-04-18T01:54:50Z</time>
      </trkpt>
      <trkpt lat="46.37646" lon="6.03528">
        <ele>1321</ele>
        <time>2019-04-18T01:55:50Z</time>
      </trkpt>
      <trkpt lat="46.376" lon="6.0344">
        <ele>1326</ele>
        <time>2019-04-18T01:56:50Z</time>
      </trkpt>
      <trkpt lat="46.3758" lon="6.03398">
        <ele>1327</ele>
        <time>2019-04-18T01:57:50Z</time>
      </trkpt>
      <trkpt lat="46.37558" lon="6.03335">
        <ele>1323</ele>
        <time>2019-04-18T01:58:50Z</time>
      </trkpt>
      <trkpt lat="46.37534" lon="6.03281">
        <ele>1323</ele>
        <time>2019-04-18T01:59:50Z</time>
      </trkpt>
      <trkpt lat="46.3751" lon="6.03234">
        <ele>1326</ele>
        <time>2019-04-18T02:00:50Z</time>
      </trkpt>
      <trkpt lat="46.37491" lon="6.03204">
        <ele>1330</ele>
        <time>2019-04-18T02:01:50Z</time>
      </trkpt>
      <trkpt lat="46.37479" lon="6.0318">
        <ele>1332</ele>
        <time>2019-04-18T02:02:50Z</time>
      </trkpt>
      <trkpt lat="46.3747" lon="6.03148">
        <ele>1332</ele>
        <time>2019-04-18T02:03:50Z</time>
      </trkpt>
      <trkpt lat="46.37466" lon="6.03105">
        <ele>1327</ele>
        <time>2019-04-18T02:04:50Z</time>
      </trkpt>
      <trkpt lat="46.37463" lon="6.03049">
        <ele>1320</ele>
        <time>2019-04-18T02:05:50Z</time>
      </trkpt>
      <trkpt lat="46.37458" lon="6.03013">
        <ele>1317</ele>
        <time>2019-04-18T02:06:50Z</time>
      </trkpt>
      <trkpt lat="46.37454" lon="6.02997">
        <ele>1317</ele>
        <time>2019-04-18T02:07:50Z</time>
      </trkpt>
      <trkpt lat="46.37418" lon="6.02909">
        <ele>1320</ele>
        <time>2019-04-18T02:08:50Z</time>
      </trkpt>
      <trkpt lat="46.37403" lon="6.02875">
        <ele>1318</ele>
        <time>2019-04-18T02:09:50Z</time>
      </trkpt>
      <trkpt lat="46.37368" lon="6.02818">
        <ele>1321</ele>
        <time>2019-04-18T02:10:50Z</time>
      </trkpt>
      <trkpt lat="46.37359" lon="6.02788">
        <ele>1321</ele>
        <time>2019-04-18T02:11:50Z</time>
      </trkpt>
      <trkpt lat="46.37343" lon="6.02707">
        <ele>1323</ele>
        <time>2019-04-18T02:12:50Z</time>
      </trkpt>
      <trkpt lat="46.37341" lon="6.02692">
        <ele>1323</ele>
        <time>2019-04-18T02:13:50Z</time>
      </trkpt>
      <trkpt lat="46.3734" lon="6.02585">
        <ele>1318</ele>
        <time>2019-04-18T02:14:50Z</time>
      </trkpt>
      <trkpt lat="46.37333" lon="6.02547">
        <ele>1320</ele>
        <time>2019-04-18T02:15:50Z</time>
      </trkpt>
      <trkpt lat="46.373" lon="6.02452">
        <ele>1322</ele>
        <time>2019-04-18T02:16:50Z</time>
      </trkpt>
      <trkpt lat="46.37255" lon="6.02306">
        <ele>1322</ele>
        <time>2019-04-18T02:17:50Z</time>
      </trkpt>
      <trkpt lat="46.37122" lon="6.01997">
        <ele>1321</ele>
        <time>2019-04-18T02:18:50Z</time>
      </trkpt>
      <trkpt lat="46.37104" lon="6.01969">
        <ele>1321</ele>
        <time>2019-04-18T02:19:50Z</time>
      </trkpt>
      <trkpt lat="46.37065" lon="6.01914">
        <ele>1321</ele>
        <time>2019-04-18T02:20:50Z</time>
      </trkpt>
      <trkpt lat="46.37039" lon="6.0188">
        <ele>1313</ele>
        <time>2019-04-18T02:21:50Z</time>
      </trkpt>
      <trkpt lat="46.37025" lon="6.01868">
        <ele>1313</ele>
        <time>2019-04-18T02:22:50Z</time>
      </trkpt>
      <trkpt lat="46.3701" lon="6.01858">
        <ele>1315</ele>
        <time>2019-04-18T02:23:50Z</time>
      </trkpt>
      <trkpt lat="46.36994" lon="6.01854">
        <ele>1318</ele>
        <time>2019-04-18T02:24:50Z</time>
      </trkpt>
      <trkpt lat="46.36979" lon="6.01857">
        <ele>1319</ele>
        <time>2019-04-18T02:25:50Z</time>
      </trkpt>
      <trkpt lat="46.36971" lon="6.01863">
        <ele>1321</ele>
        <time>2019-04-18T02:26:50Z</time>
      </trkpt>
      <trkpt lat="46.36949" lon="6.01897">
        <ele>1327</ele>
        <time>2019-04-18T02:27:50Z</time>
      </trkpt>
      <trkpt lat="46.36885" lon="6.02005">
        <ele>1332</ele>
        <time>2019-04-18T02:28:50Z</time>
      </trkpt>
      <trkpt lat="46.36818" lon="6.02176">
        <ele>1330</ele>
        <time>2019-04-18T02:29:50Z</time>
      </trkpt>
      <trkpt lat="46.36801" lon="6.02207">
        <ele>1333</ele>
        <time>2019-04-18T02:30:50Z</time>
      </trkpt>
      <trkpt lat="46.36785" lon="6.02227">
        <ele>1332</ele>
        <time>2019-04-18T02:31:50Z</time>
      </trkpt>
      <trkpt lat="46.36776" lon="6.02233">
        <ele>1330</ele>
        <time>2019-04-18T02:32:50Z</time>
      </trkpt>
      <trkpt lat="46.36659" lon="6.02273">
        <ele>1316</ele>
        <time>2019-04-18T02:33:50Z</time>
      </trkpt>
      <trkpt lat="46.36643" lon="6.02282">
        <ele>1316</ele>
        <time>2019-04-18T02:34:50Z</time>
      </trkpt>
      <trkpt lat="46.36637" lon="6.02288">
        <ele>1316</ele>
        <time>2019-04-18T02:35:50Z</time>
      </trkpt>
      <trkpt lat="46.36629" lon="6.02305">
        <ele>1315</ele>
        <time>2019-04-18T02:36:50Z</time>
      </trkpt>
      <trkpt lat="46.36608" lon="6.02385">
        <ele>1312</ele>
        <time>2019-04-18T02:37:50Z</time>
      </trkpt>
      <trkpt lat="46.36594" lon="6.02423">
        <ele>1309</ele>
        <time>2019-04-18T02:38:50Z</time>
      </trkpt>
      <trkpt lat="46.36576" lon="6.02453">
        <ele>1303</ele>
        <time>2019-04-18T02:39:50Z</time>
      </trkpt>
      <trkpt lat="46.36569" lon="6.02462">
        <ele>1302</ele>
        <time>2019-04-18T02:40:50Z</time>
      </trkpt>
      <trkpt lat="46.36554" lon="6.02474">
        <ele>1300</ele>
        <time>2019-04-18T02:41:50Z</time>
      </trkpt>
      <trkpt lat="46.36484" lon="6.02509">
        <ele>1288</ele>
        <time>2019-04-18T02:42:50Z</time>
      </trkpt>
      <trkpt lat="46.36466" lon="6.02506">
        <ele>1284</ele>
        <time>2019-04-18T02:43:50Z</time>
      </trkpt>
      <trkpt lat="46.36454" lon="6.025">
        <ele>1282</ele>
        <time>2019-04-18T02:44:50Z</time>
      </trkpt>
      <trkpt lat="46.36445" lon="6.02491">
        <ele>1282</ele>
        <time>2019-04-18T02:45:50Z</time>
      </trkpt>
      <trkpt lat="46.36434" lon="6.02475">
        <ele>1282</ele>
        <time>2019-04-18T02:46:50Z</time>
      </trkpt>
      <trkpt lat="46.36424" lon="6.02451">
        <ele>1283</ele>
        <time>2019-04-18T02:47:50Z</time>
      </trkpt>
      <trkpt lat="46.36395" lon="6.02356">
        <ele>1284</ele>
        <time>2019-04-18T02:48:50Z</time>
      </trkpt>
      <trkpt lat="46.36388" lon="6.02335">
        <ele>1284</ele>
        <time>2019-04-18T02:49:50Z</time>
      </trkpt>
      <trkpt lat="46.36379" lon="6.02322">
        <ele>1285</ele>
        <time>2019-04-18T02:50:50Z</time>
      </trkpt>
      <trkpt lat="46.36368" lon="6.02316">
        <ele>1286</ele>
        <time>2019-04-18T02:51:50Z</time>
      </trkpt>
      <trkpt lat="46.36358" lon="6.02318">
        <ele>1285</ele>
        <time>2019-04-18T02:52:50Z</time>
      </trkpt>
      <trkpt lat="46.36349" lon="6.02326">
        <ele>1283</ele>
        <time>2019-04-18T02:53:50Z</time>
      </trkpt>
      <trkpt lat="46.36343" lon="6.02339">
        <ele>1280</ele>
        <time>2019-04-18T02:54:50Z</time>
      </trkpt>
      <trkpt lat="46.36338" lon="6.02359">
        <ele>1277</ele>
        <time>2019-04-18T02:55:50Z</time>
      </trkpt>
      <trkpt lat="46.36337" lon="6.02409">
        <ele>1271</ele>
        <time>2019-04-18T02:56:50Z</time>
      </trkpt>
      <trkpt lat="46.36339" lon="6.02422">
        <ele>1270</ele>
        <time>2019-04-18T02:57:50Z</time>
      </trkpt>
      <trkpt lat="46.36348" lon="6.02452">
        <ele>1270</ele>
        <time>2019-04-18T02:58:50Z</time>
      </trkpt>
      <trkpt lat="46.36369" lon="6.02497">
        <ele>1269</ele>
        <time>2019-04-18T02:59:50Z</time>
      </trkpt>
      <trkpt lat="46.36373" lon="6.02511">
        <ele>1267</ele>
        <time>2019-04-18T03:00:50Z</time>
      </trkpt>
      <trkpt lat="46.36375" lon="6.0253">
        <ele>1265</ele>
        <time>2019-04-18T03:01:50Z</time>
      </trkpt>
      <trkpt lat="46.36371" lon="6.0255">
        <ele>1262</ele>
        <time>2019-04-18T03:02:50Z</time>
      </trkpt>
      <trkpt lat="46.36367" lon="6.0256">
        <ele>1261</ele>
        <time>2019-04-18T03:03:50Z</time>
      </trkpt>
      <trkpt lat="46.36346" lon="6.02594">
        <ele>1257</ele>
        <time>2019-04-18T03:04:50Z</time>
      </trkpt>
      <trkpt lat="46.3632" lon="6.02629">
        <ele>1251</ele>
        <time>2019-04-18T03:05:50Z</time>
      </trkpt>
      <trkpt lat="46.36298" lon="6.0265">
        <ele>1247</ele>
        <time>2019-04-18T03:06:50Z</time>
      </trkpt>
      <trkpt lat="46.36274" lon="6.02666">
        <ele>1244</ele>
        <time>2019-04-18T03:07:50Z</time>
      </trkpt>
      <trkpt lat="46.36248" lon="6.02674">
        <ele>1241</ele>
        <time>2019-04-18T03:08:50Z</time>
      </trkpt>
      <trkpt lat="46.362" lon="6.02682">
        <ele>1231</ele>
        <time>2019-04-18T03:09:50Z</time>
      </trkpt>
      <trkpt lat="46.36182" lon="6.02678">
        <ele>1230</ele>
        <time>2019-04-18T03:10:50Z</time>
      </trkpt>
      <trkpt lat="46.36161" lon="6.02664">
        <ele>1231</ele>
        <time>2019-04-18T03:11:50Z</time>
      </trkpt>
      <trkpt lat="46.3613" lon="6.02638">
        <ele>1235</ele>
        <time>2019-04-18T03:12:50Z</time>
      </trkpt>
      <trkpt lat="46.36081" lon="6.02594">
        <ele>1241</ele>
        <time>2019-04-18T03:13:50Z</time>
      </trkpt>
      <trkpt lat="46.36066" lon="6.02585">
        <ele>1242</ele>
        <time>2019-04-18T03:14:50Z</time>
      </trkpt>
      <trkpt lat="46.36039" lon="6.02579">
        <ele>1238</ele>
        <time>2019-04-18T03:15:50Z</time>
      </trkpt>
      <trkpt lat="46.35986" lon="6.02587">
        <ele>1225</ele>
        <time>2019-04-18T03:16:50Z</time>
      </trkpt>
      <trkpt lat="46.35967" lon="6.02583">
        <ele>1223</ele>
        <time>2019-04-18T03:17:50Z</time>
      </trkpt>
      <trkpt lat="46.3591" lon="6.02562">
        <ele>1224</ele>
        <time>2019-04-18T03:18:50Z</time>
      </trkpt>
      <trkpt lat="46.35902" lon="6.02565">
        <ele>1222</ele>
        <time>2019-04-18T03:19:50Z</time>
      </trkpt>
      <trkpt lat="46.35899" lon="6.02575">
        <ele>1218</ele>
        <time>2019-04-18T03:20:50Z</time>
      </trkpt>
      <trkpt lat="46.35899" lon="6.02579">
        <ele>1217</ele>
        <time>2019-04-18T03:21:50Z</time>
      </trkpt>
      <trkpt lat="46.35901" lon="6.02585">
        <ele>1214</ele>
        <time>2019-04-18T03:22:50Z</time>
      </trkpt>
      <trkpt lat="46.35905" lon="6.0259">
        <ele>1213</ele>
        <time>2019-04-18T03:23:50Z</time>
      </trkpt>
      <trkpt lat="46.35915" lon="6.02596">
        <ele>1212</ele>
        <time>2019-04-18T03:24:50Z</time>
      </trkpt>
      <trkpt lat="46.36042" lon="6.02656">
        <ele>1210</ele>
        <time>2019-04-18T03:25:50Z</time>
      </trkpt>
      <trkpt lat="46.3607" lon="6.02677">
        <ele>1206</ele>
        <time>2019-04-18T03:26:50Z</time>
      </trkpt>
      <trkpt lat="46.36103" lon="6.02709">
        <ele>1202</ele>
        <time>2019-04-18T03:27:50Z</time>
      </trkpt>
      <trkpt lat="46.36142" lon="6.02754">
        <ele>1197</ele>
        <time>2019-04-18T03:28:50Z</time>
      </trkpt>
      <trkpt lat="46.36209" lon="6.02854">
        <ele>1181</ele>
        <time>2019-04-18T03:29:50Z</time>
      </trkpt>
      <trkpt lat="46.36246" lon="6.02882">
        <ele>1184</ele>
        <time>2019-04-18T03:30:50Z</time>
      </trkpt>
      <trkpt lat="46.36256" lon="6.02895">
        <ele>1185</ele>
        <time>2019-04-18T03:31:50Z</time>
      </trkpt>
      <trkpt lat="46.36267" lon="6.02926">
        <ele>1183</ele>
        <time>2019-04-18T03:32:50Z</time>
      </trkpt>
      <trkpt lat="46.36281" lon="6.02984">
        <ele>1180</ele>
        <time>2019-04-18T03:33:50Z</time>
      </trkpt>
      <trkpt lat="46.36282" lon="6.02997">
        <ele>1179</ele>
        <time>2019-04-18T03:34:50Z</time>
      </trkpt>
      <trkpt lat="46.36284" lon="6.03024">
        <ele>1177</ele>
        <time>2019-04-18T03:35:50Z</time>
      </trkpt>
      <trkpt lat="46.3628" lon="6.03078">
        <ele>1170</ele>
        <time>2019-04-18T03:36:50Z</time>
      </trkpt>
      <trkpt lat="46.36279" lon="6.03103">
        <ele>1168</ele>
        <time>2019-04-18T03:37:50Z</time>
      </trkpt>
      <trkpt lat="46.36281" lon="6.03122">
        <ele>1169</ele>
        <time>2019-04-18T03:38:50Z</time>
      </trkpt>
      <trkpt lat="46.36289" lon="6.0316">
        <ele>1172</ele>
        <time>2019-04-18T03:39:50Z</time>
      </trkpt>
      <trkpt lat="46.3629" lon="6.03177">
        <ele>1172</ele>
        <time>2019-04-18T03:40:50Z</time>
      </trkpt>
      <trkpt lat="46.36285" lon="6.03207">
        <ele>1171</ele>
        <time>2019-04-18T03:41:50Z</time>
      </trkpt>
      <trkpt lat="46.36238" lon="6.03357">
        <ele>1156</ele>
        <time>2019-04-18T03:42:50Z</time>
      </trkpt>
      <trkpt lat="46.36207" lon="6.03428">
        <ele>1153</ele>
        <time>2019-04-18T03:43:50Z</time>
      </trkpt>
      <trkpt lat="46.36187" lon="6.03503">
        <ele>1153</ele>
        <time>2019-04-18T03:44:50Z</time>
      </trkpt>
      <trkpt lat="46.36179" lon="6.03523">
        <ele>1151</ele>
        <time>2019-04-18T03:45:50Z</time>
      </trkpt>
      <trkpt lat="46.36166" lon="6.03547">
        <ele>1147</ele>
        <time>2019-04-18T03:46:50Z</time>
      </trkpt>
      <trkpt lat="46.36135" lon="6.03587">
        <ele>1143</ele>
        <time>2019-04-18T03:47:50Z</time>
      </trkpt>
      <trkpt lat="46.36126" lon="6.03601">
        <ele>1142</ele>
        <time>2019-04-18T03:48:50Z</time>
      </trkpt>
      <trkpt lat="46.36113" lon="6.0363">
        <ele>1140</ele>
        <time>2019-04-18T03:49:50Z</time>
      </trkpt>
      <trkpt lat="46.36071" lon="6.03742">
        <ele>1133</ele>
        <time>2019-04-18T03:50:50Z</time>
      </trkpt>
      <trkpt lat="46.36063" lon="6.03757">
        <ele>1131</ele>
        <time>2019-04-18T03:51:50Z</time>
      </trkpt>
      <trkpt lat="46.36045" lon="6.03775">
        <ele>1125</ele>
        <time>2019-04-18T03:52:50Z</time>
      </trkpt>
      <trkpt lat="46.36001" lon="6.03798">
        <ele>1110</ele>
        <time>2019-04-18T03:53:50Z</time>
      </trkpt>
      <trkpt lat="46.35986" lon="6.03811">
        <ele>1104</ele>
        <time>2019-04-18T03:54:50Z</time>
      </trkpt>
      <trkpt lat="46.35968" lon="6.03839">
        <ele>1096</ele>
        <time>2019-04-18T03:55:50Z</time>
      </trkpt>
      <trkpt lat="46.35958" lon="6.03865">
        <ele>1091</ele>
        <time>2019-04-18T03:56:50Z</time>
      </trkpt>
      <trkpt lat="46.35926" lon="6.03984">
        <ele>1076</ele>
        <time>2019-04-18T03:57:50Z</time>
      </trkpt>
      <trkpt lat="46.35923" lon="6.04016">
        <ele>1073</ele>
        <time>2019-04-18T03:58:50Z</time>
      </trkpt>
      <trkpt lat="46.35925" lon="6.04033">
        <ele>1074</ele>
        <time>2019-04-18T03:59:50Z</time>
      </trkpt>
      <trkpt lat="46.35929" lon="6.04047">
        <ele>1076</ele>
        <time>2019-04-18T04:00:50Z</time>
      </trkpt>
      <trkpt lat="46.35969" lon="6.04151">
        <ele>1094</ele>
        <time>2019-04-18T04:01:50Z</time>
      </trkpt>
      <trkpt lat="46.35973" lon="6.04165">
        <ele>1096</ele>
        <time>2019-04-18T04:02:50Z</time>
      </trkpt>
      <trkpt lat="46.35977" lon="6.04192">
        <ele>1096</ele>
        <time>2019-04-18T04:03:50Z</time>
      </trkpt>
      <trkpt lat="46.35978" lon="6.04208">
        <ele>1096</ele>
        <time>2019-04-18T04:04:50Z</time>
      </trkpt>
      <trkpt lat="46.35976" lon="6.04231">
        <ele>1092</ele>
        <time>2019-04-18T04:05:50Z</time>
      </trkpt>
      <trkpt lat="46.35965" lon="6.04293">
        <ele>1089</ele>
        <time>2019-04-18T04:06:50Z</time>
      </trkpt>
      <trkpt lat="46.35949" lon="6.04323">
        <ele>1083</ele>
        <time>2019-04-18T04:07:50Z</time>
      </trkpt>
      <trkpt lat="46.35932" lon="6.04348">
        <ele>1073</ele>
        <time>2019-04-18T04:08:50Z</time>
      </trkpt>
      <trkpt lat="46.35925" lon="6.04364">
        <ele>1068</ele>
        <time>2019-04-18T04:09:50Z</time>
      </trkpt>
      <trkpt lat="46.35922" lon="6.04376">
        <ele>1066</ele>
        <time>2019-04-18T04:10:50Z</time>
      </trkpt>
      <trkpt lat="46.35923" lon="6.04424">
        <ele>1066</ele>
        <time>2019-04-18T04:11:50Z</time>
      </trkpt>
      <trkpt lat="46.35921" lon="6.04479">
        <ele>1059</ele>
        <time>2019-04-18T04:12:50Z</time>
      </trkpt>
      <trkpt lat="46.35926" lon="6.04501">
        <ele>1059</ele>
        <time>2019-04-18T04:13:50Z</time>
      </trkpt>
      <trkpt lat="46.35934" lon="6.04512">
        <ele>1061</ele>
        <time>2019-04-18T04:14:50Z</time>
      </trkpt>
      <trkpt lat="46.35957" lon="6.04526">
        <ele>1067</ele>
        <time>2019-04-18T04:15:50Z</time>
      </trkpt>
      <trkpt lat="46.35974" lon="6.04531">
        <ele>1072</ele>
        <time>2019-04-18T04:16:50Z</time>
      </trkpt>
      <trkpt lat="46.35985" lon="6.04536">
        <ele>1075</ele>
        <time>2019-04-18T04:17:50Z</time>
      </trkpt>
      <trkpt lat="46.35987" lon="6.04547">
        <ele>1071</ele>
        <time>2019-04-18T04:18:50Z</time>
      </trkpt>
      <trkpt lat="46.35986" lon="6.04555">
        <ele>1068</ele>
        <time>2019-04-18T04:19:50Z</time>
      </trkpt>
      <trkpt lat="46.35979" lon="6.04563">
        <ele>1063</ele>
        <time>2019-04-18T04:20:50Z</time>
      </trkpt>
      <trkpt lat="46.35974" lon="6.04565">
        <ele>1061</ele>
        <time>2019-04-18T04:21:50Z</time>
      </trkpt>
      <trkpt lat="46.3597" lon="6.04564">
        <ele>1060</ele>
        <time>2019-04-18T04:22:50Z</time>
      </trkpt>
      <trkpt lat="46.35956" lon="6.04555">
        <ele>1059</ele>
        <time>2019-04-18T04:23:50Z</time>
      </trkpt>
      <trkpt lat="46.35941" lon="6.04549">
        <ele>1055</ele>
        <time>2019-04-18T04:24:50Z</time>
      </trkpt>
      <trkpt lat="46.35897" lon="6.04556">
        <ele>1041</ele>
        <time>2019-04-18T04:25:50Z</time>
      </trkpt>
      <trkpt lat="46.35865" lon="6.04568">
        <ele>1034</ele>
        <time>2019-04-18T04:26:50Z</time>
      </trkpt>
      <trkpt lat="46.35849" lon="6.04579">
        <ele>1032</ele>
        <time>2019-04-18T04:27:50Z</time>
      </trkpt>
      <trkpt lat="46.35837" lon="6.04591">
        <ele>1031</ele>
        <time>2019-04-18T04:28:50Z</time>
      </trkpt>
      <trkpt lat="46.35833" lon="6.04599">
        <ele>1031</ele>
        <time>2019-04-18T04:29:50Z</time>
      </trkpt>
      <trkpt lat="46.35823" lon="6.04625">
        <ele>1031</ele>
        <time>2019-04-18T04:30:50Z</time>
      </trkpt>
      <trkpt lat="46.35804" lon="6.04731">
        <ele>1031</ele>
        <time>2019-04-18T04:31:50Z</time>
      </trkpt>
      <trkpt lat="46.35797" lon="6.04801">
        <ele>1026</ele>
        <time>2019-04-18T04:32:50Z</time>
      </trkpt>
      <trkpt lat="46.35782" lon="6.0485">
        <ele>1025</ele>
        <time>2019-04-18T04:33:50Z</time>
      </trkpt>
      <trkpt lat="46.35766" lon="6.04888">
        <ele>1024</ele>
        <time>2019-04-18T04:34:50Z</time>
      </trkpt>
      <trkpt lat="46.35743" lon="6.04936">
        <ele>1021</ele>
        <time>2019-04-18T04:35:50Z</time>
      </trkpt>
      <trkpt lat="46.35737" lon="6.04954">
        <ele>1018</ele>
        <time>2019-04-18T04:36:50Z</time>
      </trkpt>
      <trkpt lat="46.35727" lon="6.04991">
        <ele>1009</ele>
        <time>2019-04-18T04:37:50Z</time>
      </trkpt>
      <trkpt lat="46.3572" lon="6.05006">
        <ele>1006</ele>
        <time>2019-04-18T04:38:50Z</time>
      </trkpt>
      <trkpt lat="46.35713" lon="6.05015">
        <ele>1004</ele>
        <time>2019-04-18T04:39:50Z</time>
      </trkpt>
      <trkpt lat="46.35704" lon="6.0502">
        <ele>1003</ele>
        <time>2019-04-18T04:40:50Z</time>
      </trkpt>
      <trkpt lat="46.35694" lon="6.05022">
        <ele>1003</ele>
        <time>2019-04-18T04:41:50Z</time>
      </trkpt>
      <trkpt lat="46.35681" lon="6.05019">
        <ele>1004</ele>
        <time>2019-04-18T04:42:50Z</time>
      </trkpt>
      <trkpt lat="46.35669" lon="6.05013">
        <ele>1005</ele>
        <time>2019-04-18T04:43:50Z</time>
      </trkpt>
      <trkpt lat="46.3565" lon="6.05">
        <ele>1004</ele>
        <time>2019-04-18T04:44:50Z</time>
      </trkpt>
      <trkpt lat="46.35626" lon="6.04978">
        <ele>1003</ele>
        <time>2019-04-18T04:45:50Z</time>
      </trkpt>
      <trkpt lat="46.35601" lon="6.04945">
        <ele>1002</ele>
        <time>2019-04-18T04:46:50Z</time>
      </trkpt>
      <trkpt lat="46.35557" lon="6.04879">
        <ele>997</ele>
        <time>2019-04-18T04:47:50Z</time>
      </trkpt>
      <trkpt lat="46.35539" lon="6.04849">
        <ele>994</ele>
        <time>2019-04-18T04:48:50Z</time>
      </trkpt>
      <trkpt lat="46.35534" lon="6.04837">
        <ele>994</ele>
        <time>2019-04-18T04:49:50Z</time>
      </trkpt>
      <trkpt lat="46.35508" lon="6.0475">
        <ele>989</ele>
        <time>2019-04-18T04:50:50Z</time>
      </trkpt>
      <trkpt lat="46.35499" lon="6.04729">
        <ele>987</ele>
        <time>2019-04-18T04:51:50Z</time>
      </trkpt>
      <trkpt lat="46.35487" lon="6.04705">
        <ele>988</ele>
        <time>2019-04-18T04:52:50Z</time>
      </trkpt>
      <trkpt lat="46.35471" lon="6.04683">
        <ele>987</ele>
        <time>2019-04-18T04:53:50Z</time>
      </trkpt>
      <trkpt lat="46.35442" lon="6.04657">
        <ele>985</ele>
        <time>2019-04-18T04:54:50Z</time>
      </trkpt>
      <trkpt lat="46.35414" lon="6.04619">
        <ele>984</ele>
        <time>2019-04-18T04:55:50Z</time>
      </trkpt>
      <trkpt lat="46.354" lon="6.04607">
        <ele>984</ele>
        <time>2019-04-18T04:56:50Z</time>
      </trkpt>
      <trkpt lat="46.35385" lon="6.046">
        <ele>983</ele>
        <time>2019-04-18T04:57:50Z</time>
      </trkpt>
      <trkpt lat="46.35367" lon="6.04597">
        <ele>982</ele>
        <time>2019-04-18T04:58:50Z</time>
      </trkpt>
      <trkpt lat="46.35335" lon="6.04604">
        <ele>977</ele>
        <time>2019-04-18T04:59:50Z</time>
      </trkpt>
      <trkpt lat="46.35319" lon="6.04603">
        <ele>974</ele>
        <time>2019-04-18T05:00:50Z</time>
      </trkpt>
      <trkpt lat="46.35304" lon="6.04595">
        <ele>973</ele>
        <time>2019-04-18T05:01:50Z</time>
      </trkpt>
      <trkpt lat="46.35272" lon="6.04572">
        <ele>970</ele>
        <time>2019-04-18T05:02:50Z</time>
      </trkpt>
      <trkpt lat="46.35255" lon="6.04554">
        <ele>969</ele>
        <time>2019-04-18T05:03:50Z</time>
      </trkpt>
      <trkpt lat="46.35242" lon="6.04533">
        <ele>967</ele>
        <time>2019-04-18T05:04:50Z</time>
      </trkpt>
      <trkpt lat="46.35224" lon="6.04498">
        <ele>967</ele>
        <time>2019-04-18T05:05:50Z</time>
      </trkpt>
      <trkpt lat="46.35214" lon="6.04485">
        <ele>966</ele>
        <time>2019-04-18T05:06:50Z</time>
      </trkpt>
      <trkpt lat="46.35208" lon="6.04481">
        <ele>965</ele>
        <time>2019-04-18T05:07:50Z</time>
      </trkpt>
      <trkpt lat="46.35167" lon="6.04464">
        <ele>960</ele>
        <time>2019-04-18T05:08:50Z</time>
      </trkpt>
      <trkpt lat="46.35153" lon="6.04451">
        <ele>958</ele>
        <time>2019-04-18T05:09:50Z</time>
      </trkpt>
      <trkpt lat="46.35146" lon="6.04442">
        <ele>958</ele>
        <time>2019-04-18T05:10:50Z</time>
      </trkpt>
      <trkpt lat="46.35122" lon="6.04388">
        <ele>956</ele>
        <time>2019-04-18T05:11:50Z</time>
      </trkpt>
      <trkpt lat="46.35107" lon="6.04367">
        <ele>954</ele>
        <time>2019-04-18T05:12:50Z</time>
      </trkpt>
      <trkpt lat="46.35088" lon="6.04348">
        <ele>952</ele>
        <time>2019-04-18T05:13:50Z</time>
      </trkpt>
      <trkpt lat="46.35077" lon="6.04345">
        <ele>951</ele>
        <time>2019-04-18T05:14:50Z</time>
      </trkpt>
      <trkpt lat="46.35068" lon="6.04351">
        <ele>949</ele>
        <time>2019-04-18T05:15:50Z</time>
      </trkpt>
      <trkpt lat="46.35066" lon="6.04355">
        <ele>948</ele>
        <time>2019-04-18T05:16:50Z</time>
      </trkpt>
      <trkpt lat="46.35064" lon="6.04365">
        <ele>948</ele>
        <time>2019-04-18T05:17:50Z</time>
      </trkpt>
      <trkpt lat="46.35065" lon="6.04375">
        <ele>947</ele>
        <time>2019-04-18T05:18:50Z</time>
      </trkpt>
      <trkpt lat="46.35067" lon="6.04381">
        <ele>948</ele>
        <time>2019-04-18T05:19:50Z</time>
      </trkpt>
      <trkpt lat="46.35072" lon="6.0439">
        <ele>949</ele>
        <time>2019-04-18T05:20:50Z</time>
      </trkpt>
      <trkpt lat="46.35092" lon="6.04418">
        <ele>952</ele>
        <time>2019-04-18T05:21:50Z</time>
      </trkpt>
      <trkpt lat="46.35105" lon="6.04438">
        <ele>952</ele>
        <time>2019-04-18T05:22:50Z</time>
      </trkpt>
      <trkpt lat="46.3512" lon="6.04466">
        <ele>951</ele>
        <time>2019-04-18T05:23:50Z</time>
      </trkpt>
      <trkpt lat="46.35155" lon="6.04544">
        <ele>949</ele>
        <time>2019-04-18T05:24:50Z</time>
      </trkpt>
      <trkpt lat="46.35176" lon="6.04609">
        <ele>943</ele>
        <time>2019-04-18T05:25:50Z</time>
      </trkpt>
      <trkpt lat="46.35183" lon="6.04626">
        <ele>942</ele>
        <time>2019-04-18T05:26:50Z</time>
      </trkpt>
      <trkpt lat="46.35209" lon="6.0467">
        <ele>941</ele>
        <time>2019-04-18T05:27:50Z</time>
      </trkpt>
      <trkpt lat="46.35225" lon="6.04709">
        <ele>936</ele>
        <time>2019-04-18T05:28:50Z</time>
      </trkpt>
      <trkpt lat="46.35236" lon="6.04726">
        <ele>935</ele>
        <time>2019-04-18T05:29:50Z</time>
      </trkpt>
      <trkpt lat="46.35269" lon="6.04766">
        <ele>934</ele>
        <time>2019-04-18T05:30:50Z</time>
      </trkpt>
      <trkpt lat="46.35324" lon="6.04814">
        <ele>934</ele>
        <time>2019-04-18T05:31:50Z</time>
      </trkpt>
      <trkpt lat="46.35331" lon="6.04824">
        <ele>933</ele>
        <time>2019-04-18T05:32:50Z</time>
      </trkpt>
      <trkpt lat="46.35336" lon="6.04834">
        <ele>933</ele>
        <time>2019-04-18T05:33:50Z</time>
      </trkpt>
      <trkpt lat="46.3534" lon="6.04845">
        <ele>931</ele>
        <time>2019-04-18T05:34:50Z</time>
      </trkpt>
      <trkpt lat="46.35348" lon="6.04881">
        <ele>926</ele>
        <time>2019-04-18T05:35:50Z</time>
      </trkpt>
      <trkpt lat="46.35354" lon="6.04896">
        <ele>924</ele>
        <time>2019-04-18T05:36:50Z</time>
      </trkpt>
      <trkpt lat="46.35364" lon="6.0491">
        <ele>924</ele>
        <time>2019-04-18T05:37:50Z</time>
      </trkpt>
      <trkpt lat="46.35383" lon="6.04928">
        <ele>925</ele>
        <time>2019-04-18T05:38:50Z</time>
      </trkpt>
      <trkpt lat="46.35394" lon="6.04945">
        <ele>924</ele>
        <time>2019-04-18T05:39:50Z</time>
      </trkpt>
      <trkpt lat="46.35461" lon="6.05077">
        <ele>915</ele>
        <time>2019-04-18T05:40:50Z</time>
      </trkpt>
      <trkpt lat="46.35511" lon="6.05148">
        <ele>914</ele>
        <time>2019-04-18T05:41:50Z</time>
      </trkpt>
      <trkpt lat="46.35535" lon="6.05179">
        <ele>913</ele>
        <time>2019-04-18T05:42:50Z</time>
      </trkpt>
      <trkpt lat="46.35634" lon="6.05287">
        <ele>904</ele>
        <time>2019-04-18T05:43:50Z</time>
      </trkpt>
      <trkpt lat="46.35682" lon="6.05353">
        <ele>892</ele>
        <time>2019-04-18T05:44:50Z</time>
      </trkpt>
      <trkpt lat="46.3569" lon="6.05361">
        <ele>891</ele>
        <time>2019-04-18T05:45:50Z</time>
      </trkpt>
      <trkpt lat="46.35698" lon="6.05365">
        <ele>890</ele>
        <time>2019-04-18T05:46:50Z</time>
      </trkpt>
      <trkpt lat="46.35709" lon="6.05367">
        <ele>891</ele>
        <time>2019-04-18T05:47:50Z</time>
      </trkpt>
      <trkpt lat="46.35732" lon="6.0536">
        <ele>895</ele>
        <time>2019-04-18T05:48:50Z</time>
      </trkpt>
      <trkpt lat="46.35745" lon="6.05352">
        <ele>898</ele>
        <time>2019-04-18T05:49:50Z</time>
      </trkpt>
      <trkpt lat="46.35777" lon="6.05326">
        <ele>899</ele>
        <time>2019-04-18T05:50:50Z</time>
      </trkpt>
      <trkpt lat="46.35824" lon="6.05299">
        <ele>894</ele>
        <time>2019-04-18T05:51:50Z</time>
      </trkpt>
      <trkpt lat="46.35832" lon="6.0529">
        <ele>893</ele>
        <time>2019-04-18T05:52:50Z</time>
      </trkpt>
      <trkpt lat="46.35841" lon="6.05272">
        <ele>895</ele>
        <time>2019-04-18T05:53:50Z</time>
      </trkpt>
      <trkpt lat="46.35855" lon="6.05233">
        <ele>901</ele>
        <time>2019-04-18T05:54:50Z</time>
      </trkpt>
      <trkpt lat="46.3586" lon="6.05213">
        <ele>905</ele>
        <time>2019-04-18T05:55:50Z</time>
      </trkpt>
      <trkpt lat="46.35867" lon="6.052">
        <ele>907</ele>
        <time>2019-04-18T05:56:50Z</time>
      </trkpt>
      <trkpt lat="46.35877" lon="6.05198">
        <ele>905</ele>
        <time>2019-04-18T05:57:50Z</time>
      </trkpt>
      <trkpt lat="46.35886" lon="6.05205">
        <ele>902</ele>
        <time>2019-04-18T05:58:50Z</time>
      </trkpt>
      <trkpt lat="46.35891" lon="6.05213">
        <ele>899</ele>
        <time>2019-04-18T05:59:50Z</time>
      </trkpt>
      <trkpt lat="46.35893" lon="6.05225">
        <ele>897</ele>
        <time>2019-04-18T06:00:50Z</time>
      </trkpt>
      <trkpt lat="46.35893" lon="6.0524">
        <ele>893</ele>
        <time>2019-04-18T06:01:50Z</time>
      </trkpt>
      <trkpt lat="46.3589" lon="6.05248">
        <ele>892</ele>
        <time>2019-04-18T06:02:50Z</time>
      </trkpt>
      <trkpt lat="46.35858" lon="6.05292">
        <ele>889</ele>
        <time>2019-04-18T06:03:50Z</time>
      </trkpt>
      <trkpt lat="46.3583" lon="6.05351">
        <ele>882</ele>
        <time>2019-04-18T06:04:50Z</time>
      </trkpt>
      <trkpt lat="46.35812" lon="6.05377">
        <ele>880</ele>
        <time>2019-04-18T06:05:50Z</time>
      </trkpt>
      <trkpt lat="46.35799" lon="6.0539">
        <ele>880</ele>
        <time>2019-04-18T06:06:50Z</time>
      </trkpt>
      <trkpt lat="46.35736" lon="6.05436">
        <ele>878</ele>
        <time>2019-04-18T06:07:50Z</time>
      </trkpt>
      <trkpt lat="46.35688" lon="6.05456">
        <ele>869</ele>
        <time>2019-04-18T06:08:50Z</time>
      </trkpt>
      <trkpt lat="46.35677" lon="6.05459">
        <ele>867</ele>
        <time>2019-04-18T06:09:50Z</time>
      </trkpt>
      <trkpt lat="46.35668" lon="6.05458">
        <ele>866</ele>
        <time>2019-04-18T06:10:50Z</time>
      </trkpt>
      <trkpt lat="46.35655" lon="6.05451">
        <ele>864</ele>
        <time>2019-04-18T06:11:50Z</time>
      </trkpt>
      <trkpt lat="46.35636" lon="6.05419">
        <ele>863</ele>
        <time>2019-04-18T06:12:50Z</time>
      </trkpt>
      <trkpt lat="46.35625" lon="6.05405">
        <ele>863</ele>
        <time>2019-04-18T06:13:50Z</time>
      </trkpt>
      <trkpt lat="46.35617" lon="6.05399">
        <ele>863</ele>
        <time>2019-04-18T06:14:50Z</time>
      </trkpt>
      <trkpt lat="46.35578" lon="6.05375">
        <ele>859</ele>
        <time>2019-04-18T06:15:50Z</time>
      </trkpt>
      <trkpt lat="46.3555" lon="6.05365">
        <ele>857</ele>
        <time>2019-04-18T06:16:50Z</time>
      </trkpt>
      <trkpt lat="46.35526" lon="6.0536">
        <ele>854</ele>
        <time>2019-04-18T06:17:50Z</time>
      </trkpt>
      <trkpt lat="46.35507" lon="6.0536">
        <ele>851</ele>
        <time>2019-04-18T06:18:50Z</time>
      </trkpt>
      <trkpt lat="46.35478" lon="6.05369">
        <ele>847</ele>
        <time>2019-04-18T06:19:50Z</time>
      </trkpt>
      <trkpt lat="46.35402" lon="6.0542">
        <ele>840</ele>
        <time>2019-04-18T06:20:50Z</time>
      </trkpt>
      <trkpt lat="46.35392" lon="6.05422">
        <ele>839</ele>
        <time>2019-04-18T06:21:50Z</time>
      </trkpt>
      <trkpt lat="46.35382" lon="6.05421">
        <ele>838</ele>
        <time>2019-04-18T06:22:50Z</time>
      </trkpt>
      <trkpt lat="46.3537" lon="6.05411">
        <ele>837</ele>
        <time>2019-04-18T06:23:50Z</time>
      </trkpt>
      <trkpt lat="46.35358" lon="6.05397">
        <ele>837</ele>
        <time>2019-04-18T06:24:50Z</time>
      </trkpt>
      <trkpt lat="46.35349" lon="6.05379">
        <ele>836</ele>
        <time>2019-04-18T06:25:50Z</time>
      </trkpt>
      <trkpt lat="46.35345" lon="6.05367">
        <ele>836</ele>
        <time>2019-04-18T06:26:50Z</time>
      </trkpt>
      <trkpt lat="46.35332" lon="6.05313">
        <ele>835</ele>
        <time>2019-04-18T06:27:50Z</time>
      </trkpt>
      <trkpt lat="46.35319" lon="6.05273">
        <ele>832</ele>
        <time>2019-04-18T06:28:50Z</time>
      </trkpt>
      <trkpt lat="46.35293" lon="6.05243">
        <ele>829</ele>
        <time>2019-04-18T06:29:50Z</time>
      </trkpt>
      <trkpt lat="46.35255" lon="6.05211">
        <ele>826</ele>
        <time>2019-04-18T06:30:50Z</time>
      </trkpt>
      <trkpt lat="46.35195" lon="6.05125">
        <ele>821</ele>
        <time>2019-04-18T06:31:50Z</time>
      </trkpt>
      <trkpt lat="46.35169" lon="6.05097">
        <ele>816</ele>
        <time>2019-04-18T06:32:50Z</time>
      </trkpt>
      <trkpt lat="46.35121" lon="6.05052">
        <ele>816</ele>
        <time>2019-04-18T06:33:50Z</time>
      </trkpt>
      <trkpt lat="46.35104" lon="6.05044">
        <ele>815</ele>
        <time>2019-04-18T06:34:50Z</time>
      </trkpt>
      <trkpt lat="46.35091" lon="6.05041">
        <ele>813</ele>
        <time>2019-04-18T06:35:50Z</time>
      </trkpt>
      <trkpt lat="46.34983" lon="6.05024">
        <ele>802</ele>
        <time>2019-04-18T06:36:50Z</time>
      </trkpt>
      <trkpt lat="46.34928" lon="6.05011">
        <ele>798</ele>
        <time>2019-04-18T06:37:50Z</time>
      </trkpt>
      <trkpt lat="46.34876" lon="6.04982">
        <ele>796</ele>
        <time>2019-04-18T06:38:50Z</time>
      </trkpt>
      <trkpt lat="46.34865" lon="6.04978">
        <ele>795</ele>
        <time>2019-04-18T06:39:50Z</time>
      </trkpt>
      <trkpt lat="46.34856" lon="6.0498">
        <ele>794</ele>
        <time>2019-04-18T06:40:50Z</time>
      </trkpt>
      <trkpt lat="46.34852" lon="6.04987">
        <ele>792</ele>
        <time>2019-04-18T06:41:50Z</time>
      </trkpt>
      <trkpt lat="46.34851" lon="6.05">
        <ele>790</ele>
        <time>2019-04-18T06:42:50Z</time>
      </trkpt>
      <trkpt lat="46.34853" lon="6.05011">
        <ele>789</ele>
        <time>2019-04-18T06:43:50Z</time>
      </trkpt>
      <trkpt lat="46.34859" lon="6.05023">
        <ele>788</ele>
        <time>2019-04-18T06:44:50Z</time>
      </trkpt>
      <trkpt lat="46.34952" lon="6.0516">
        <ele>783</ele>
        <time>2019-04-18T06:45:50Z</time>
      </trkpt>
      <trkpt lat="46.34965" lon="6.05183">
        <ele>782</ele>
        <time>2019-04-18T06:46:50Z</time>
      </trkpt>
      <trkpt lat="46.34978" lon="6.05212">
        <ele>782</ele>
        <time>2019-04-18T06:47:50Z</time>
      </trkpt>
      <trkpt lat="46.34999" lon="6.05278">
        <ele>780</ele>
        <time>2019-04-18T06:48:50Z</time>
      </trkpt>
      <trkpt lat="46.35011" lon="6.05303">
        <ele>779</ele>
        <time>2019-04-18T06:49:50Z</time>
      </trkpt>
      <trkpt lat="46.35048" lon="6.05371">
        <ele>776</ele>
        <time>2019-04-18T06:50:50Z</time>
      </trkpt>
      <trkpt lat="46.35066" lon="6.05409">
        <ele>775</ele>
        <time>2019-04-18T06:51:50Z</time>
      </trkpt>
      <trkpt lat="46.35085" lon="6.05463">
        <ele>773</ele>
        <time>2019-04-18T06:52:50Z</time>
      </trkpt>
      <trkpt lat="46.35087" lon="6.0549">
        <ele>772</ele>
        <time>2019-04-18T06:53:50Z</time>
      </trkpt>
      <trkpt lat="46.3508" lon="6.05578">
        <ele>764</ele>
        <time>2019-04-18T06:54:50Z</time>
      </trkpt>
      <trkpt lat="46.35082" lon="6.05597">
        <ele>763</ele>
        <time>2019-04-18T06:55:50Z</time>
      </trkpt>
      <trkpt lat="46.35081" lon="6.05612">
        <ele>761</ele>
        <time>2019-04-18T06:56:50Z</time>
      </trkpt>
      <trkpt lat="46.35083" lon="6.05623">
        <ele>761</ele>
        <time>2019-04-18T06:57:50Z</time>
      </trkpt>
      <trkpt lat="46.35091" lon="6.05647">
        <ele>760</ele>
        <time>2019-04-18T06:58:50Z</time>
      </trkpt>
      <trkpt lat="46.3511" lon="6.05683">
        <ele>761</ele>
        <time>2019-04-18T06:59:50Z</time>
      </trkpt>
      <trkpt lat="46.35142" lon="6.05758">
        <ele>760</ele>
        <time>2019-04-18T07:00:50Z</time>
      </trkpt>
      <trkpt lat="46.35143" lon="6.0578">
        <ele>755</ele>
        <time>2019-04-18T07:01:50Z</time>
      </trkpt>
      <trkpt lat="46.35138" lon="6.05789">
        <ele>752</ele>
        <time>2019-04-18T07:02:50Z</time>
      </trkpt>
      <trkpt lat="46.35132" lon="6.05794">
        <ele>751</ele>
        <time>2019-04-18T07:03:50Z</time>
      </trkpt>
      <trkpt lat="46.35118" lon="6.05796">
        <ele>749</ele>
        <time>2019-04-18T07:04:50Z</time>
      </trkpt>
      <trkpt lat="46.35098" lon="6.0578">
        <ele>750</ele>
        <time>2019-04-18T07:05:50Z</time>
      </trkpt>
      <trkpt lat="46.35068" lon="6.05723">
        <ele>750</ele>
        <time>2019-04-18T07:06:50Z</time>
      </trkpt>
      <trkpt lat="46.35055" lon="6.05705">
        <ele>749</ele>
        <time>2019-04-18T07:07:50Z</time>
      </trkpt>
      <trkpt lat="46.35047" lon="6.05697">
        <ele>748</ele>
        <time>2019-04-18T07:08:50Z</time>
      </trkpt>
      <trkpt lat="46.35035" lon="6.05691">
        <ele>746</ele>
        <time>2019-04-18T07:09:50Z</time>
      </trkpt>
      <trkpt lat="46.34981" lon="6.05687">
        <ele>736</ele>
        <time>2019-04-18T07:10:50Z</time>
      </trkpt>
      <trkpt lat="46.34971" lon="6.05683">
        <ele>735</ele>
        <time>2019-04-18T07:11:50Z</time>
      </trkpt>
      <trkpt lat="46.34967" lon="6.05674">
        <ele>735</ele>
        <time>2019-04-18T07:12:50Z</time>
      </trkpt>
      <trkpt lat="46.34965" lon="6.05663">
        <ele>736</ele>
        <time>2019-04-18T07:13:50Z</time>
      </trkpt>
      <trkpt lat="46.34964" lon="6.0565">
        <ele>737</ele>
        <time>2019-04-18T07:14:50Z</time>
      </trkpt>
      <trkpt lat="46.3497" lon="6.05636">
        <ele>739</ele>
        <time>2019-04-18T07:15:50Z</time>
      </trkpt>
      <trkpt lat="46.34985" lon="6.05587">
        <ele>745</ele>
        <time>2019-04-18T07:16:50Z</time>
      </trkpt>
      <trkpt lat="46.34982" lon="6.05575">
        <ele>745</ele>
        <time>2019-04-18T07:17:50Z</time>
      </trkpt>
      <trkpt lat="46.34975" lon="6.05559">
        <ele>746</ele>
        <time>2019-04-18T07:18:50Z</time>
      </trkpt>
      <trkpt lat="46.34969" lon="6.05552">
        <ele>746</ele>
        <time>2019-04-18T07:19:50Z</time>
      </trkpt>
      <trkpt lat="46.3496" lon="6.05548">
        <ele>745</ele>
        <time>2019-04-18T07:20:50Z</time>
      </trkpt>
      <trkpt lat="46.34945" lon="6.05549">
        <ele>743</ele>
        <time>2019-04-18T07:21:50Z</time>
      </trkpt>
      <trkpt lat="46.34931" lon="6.05553">
        <ele>741</ele>
        <time>2019-04-18T07:22:50Z</time>
      </trkpt>
      <trkpt lat="46.34903" lon="6.05579">
        <ele>734</ele>
        <time>2019-04-18T07:23:50Z</time>
      </trkpt>
      <trkpt lat="46.34879" lon="6.05596">
        <ele>730</ele>
        <time>2019-04-18T07:24:50Z</time>
      </trkpt>
      <trkpt lat="46.34863" lon="6.05605">
        <ele>728</ele>
        <time>2019-04-18T07:25:50Z</time>
      </trkpt>
      <trkpt lat="46.34851" lon="6.05607">
        <ele>727</ele>
        <time>2019-04-18T07:26:50Z</time>
      </trkpt>
      <trkpt lat="46.3484" lon="6.05604">
        <ele>726</ele>
        <time>2019-04-18T07:27:50Z</time>
      </trkpt>
      <trkpt lat="46.34806" lon="6.05578">
        <ele>723</ele>
        <time>2019-04-18T07:28:50Z</time>
      </trkpt>
      <trkpt lat="46.34766" lon="6.05555">
        <ele>718</ele>
        <time>2019-04-18T07:29:50Z</time>
      </trkpt>
      <trkpt lat="46.34737" lon="6.05542">
        <ele>716</ele>
        <time>2019-04-18T07:30:50Z</time>
      </trkpt>
      <trkpt lat="46.34699" lon="6.05528">
        <ele>714</ele>
        <time>2019-04-18T07:31:50Z</time>
      </trkpt>
      <trkpt lat="46.34657" lon="6.05508">
        <ele>714</ele>
        <time>2019-04-18T07:32:50Z</time>
      </trkpt>
      <trkpt lat="46.34644" lon="6.05508">
        <ele>713</ele>
        <time>2019-04-18T07:33:50Z</time>
      </trkpt>
      <trkpt lat="46.34532" lon="6.05533">
        <ele>704</ele>
        <time>2019-04-18T07:34:50Z</time>
      </trkpt>
      <trkpt lat="46.34517" lon="6.05545">
        <ele>702</ele>
        <time>2019-04-18T07:35:50Z</time>
      </trkpt>
      <trkpt lat="46.3448" lon="6.05582">
        <ele>698</ele>
        <time>2019-04-18T07:36:50Z</time>
      </trkpt>
      <trkpt lat="46.34464" lon="6.05596">
        <ele>696</ele>
        <time>2019-04-18T07:37:50Z</time>
      </trkpt>
      <trkpt lat="46.34423" lon="6.05612">
        <ele>695</ele>
        <time>2019-04-18T07:38:50Z</time>
      </trkpt>
      <trkpt lat="46.34407" lon="6.05615">
        <ele>694</ele>
        <time>2019-04-18T07:39:50Z</time>
      </trkpt>
      <trkpt lat="46.3439" lon="6.05614">
        <ele>693</ele>
        <time>2019-04-18T07:40:50Z</time>
      </trkpt>
      <trkpt lat="46.34353" lon="6.05602">
        <ele>692</ele>
        <time>2019-04-18T07:41:50Z</time>
      </trkpt>
      <trkpt lat="46.34338" lon="6.056">
        <ele>692</ele>
        <time>2019-04-18T07:42:50Z</time>
      </trkpt>
      <trkpt lat="46.34324" lon="6.05605">
        <ele>691</ele>
        <time>2019-04-18T07:43:50Z</time>
      </trkpt>
      <trkpt lat="46.34309" lon="6.05614">
        <ele>690</ele>
        <time>2019-04-18T07:44:50Z</time>
      </trkpt>
      <trkpt lat="46.34296" lon="6.05633">
        <ele>688</ele>
        <time>2019-04-18T07:45:50Z</time>
      </trkpt>
      <trkpt lat="46.34276" lon="6.05683">
        <ele>682</ele>
        <time>2019-04-18T07:46:50Z</time>
      </trkpt>
      <trkpt lat="46.34264" lon="6.05704">
        <ele>680</ele>
        <time>2019-04-18T07:47:50Z</time>
      </trkpt>
      <trkpt lat="46.34251" lon="6.05714">
        <ele>678</ele>
        <time>2019-04-18T07:48:50Z</time>
      </trkpt>
      <trkpt lat="46.34239" lon="6.05718">
        <ele>677</ele>
        <time>2019-04-18T07:49:50Z</time>
      </trkpt>
      <trkpt lat="46.34227" lon="6.05718">
        <ele>676</ele>
        <time>2019-04-18T07:50:50Z</time>
      </trkpt>
      <trkpt lat="46.34214" lon="6.05715">
        <ele>675</ele>
        <time>2019-04-18T07:51:50Z</time>
      </trkpt>
      <trkpt lat="46.34176" lon="6.05694">
        <ele>675</ele>
        <time>2019-04-18T07:52:50Z</time>
      </trkpt>
      <trkpt lat="46.34149" lon="6.05674">
        <ele>677</ele>
        <time>2019-04-18T07:53:50Z</time>
      </trkpt>
      <trkpt lat="46.34134" lon="6.05667">
        <ele>677</ele>
        <time>2019-04-18T07:54:50Z</time>
      </trkpt>
      <trkpt lat="46.34111" lon="6.05659">
        <ele>676</ele>
        <time>2019-04-18T07:55:50Z</time>
      </trkpt>
      <trkpt lat="46.34102" lon="6.0566">
        <ele>675</ele>
        <time>2019-04-18T07:56:50Z</time>
      </trkpt>
      <trkpt lat="46.34101" lon="6.05654">
        <ele>675</ele>
        <time>2019-04-18T07:57:50Z</time>
      </trkpt>
      <trkpt lat="46.34096" lon="6.05645">
        <ele>675</ele>
        <time>2019-04-18T07:58:50Z</time>
      </trkpt>
      <trkpt lat="46.34088" lon="6.05642">
        <ele>675</ele>
        <time>2019-04-18T07:59:50Z</time>
      </trkpt>
      <trkpt lat="46.34084" lon="6.05643">
        <ele>674</ele>
        <time>2019-04-18T08:00:50Z</time>
      </trkpt>
      <trkpt lat="46.3408" lon="6.05646">
        <ele>674</ele>
        <time>2019-04-18T08:01:50Z</time>
      </trkpt>
      <trkpt lat="46.34075" lon="6.05658">
        <ele>673</ele>
        <time>2019-04-18T08:02:50Z</time>
      </trkpt>
      <trkpt lat="46.34077" lon="6.05671">
        <ele>672</ele>
        <time>2019-04-18T08:03:50Z</time>
      </trkpt>
      <trkpt lat="46.3403" lon="6.05705">
        <ele>668</ele>
        <time>2019-04-18T08:04:50Z</time>
      </trkpt>
      <trkpt lat="46.3394" lon="6.05781">
        <ele>662</ele>
        <time>2019-04-18T08:05:50Z</time>
      </trkpt>
      <trkpt lat="46.33923" lon="6.05793">
        <ele>661</ele>
        <time>2019-04-18T08:06:50Z</time>
      </trkpt>
      <trkpt lat="46.33909" lon="6.05797">
        <ele>660</ele>
        <time>2019-04-18T08:07:50Z</time>
      </trkpt>
      <trkpt lat="46.33892" lon="6.05797">
        <ele>659</ele>
        <time>2019-04-18T08:08:50Z</time>
      </trkpt>
      <trkpt lat="46.33864" lon="6.05788">
        <ele>657</ele>
        <time>2019-04-18T08:09:50Z</time>
      </trkpt>
      <trkpt lat="46.33837" lon="6.05769">
        <ele>655</ele>
        <time>2019-04-18T08:10:50Z</time>
      </trkpt>
      <trkpt lat="46.3382" lon="6.05753">
        <ele>654</ele>
        <time>2019-04-18T08:11:50Z</time>
      </trkpt>
      <trkpt lat="46.33791" lon="6.05715">
        <ele>653</ele>
        <time>2019-04-18T08:12:50Z</time>
      </trkpt>
      <trkpt lat="46.33751" lon="6.05659">
        <ele>649</ele>
        <time>2019-04-18T08:13:50Z</time>
      </trkpt>
      <trkpt lat="46.33739" lon="6.05651">
        <ele>648</ele>
        <time>2019-04-18T08:14:50Z</time>
      </trkpt>
      <trkpt lat="46.33715" lon="6.05641">
        <ele>647</ele>
        <time>2019-04-18T08:15:50Z</time>
      </trkpt>
      <trkpt lat="46.33707" lon="6.05642">
        <ele>647</ele>
        <time>2019-04-18T08:16:50Z</time>
      </trkpt>
      <trkpt lat="46.33696" lon="6.05647">
        <ele>648</ele>
        <time>2019-04-18T08:17:50Z</time>
      </trkpt>
      <trkpt lat="46.33601" lon="6.05706">
        <ele>645</ele>
        <time>2019-04-18T08:18:50Z</time>
      </trkpt>
      <trkpt lat="46.33563" lon="6.05724">
        <ele>643</ele>
        <time>2019-04-18T08:19:50Z</time>
      </trkpt>
      <trkpt lat="46.33524" lon="6.05789">
        <ele>638</ele>
        <time>2019-04-18T08:20:50Z</time>
      </trkpt>
      <trkpt lat="46.33515" lon="6.05808">
        <ele>637</ele>
        <time>2019-04-18T08:21:50Z</time>
      </trkpt>
      <trkpt lat="46.33511" lon="6.05829">
        <ele>636</ele>
        <time>2019-04-18T08:22:50Z</time>
      </trkpt>
      <trkpt lat="46.33512" lon="6.05837">
        <ele>636</ele>
        <time>2019-04-18T08:23:50Z</time>
      </trkpt>
      <trkpt lat="46.33522" lon="6.05872">
        <ele>635</ele>
        <time>2019-04-18T08:24:50Z</time>
      </trkpt>
      <trkpt lat="46.33599" lon="6.06118">
        <ele>622</ele>
        <time>2019-04-18T08:25:50Z</time>
      </trkpt>
      <trkpt lat="46.33599" lon="6.06132">
        <ele>621</ele>
        <time>2019-04-18T08:26:50Z</time>
      </trkpt>
      <trkpt lat="46.33597" lon="6.06142">
        <ele>620</ele>
        <time>2019-04-18T08:27:50Z</time>
      </trkpt>
      <trkpt lat="46.33589" lon="6.06152">
        <ele>619</ele>
        <time>2019-04-18T08:28:50Z</time>
      </trkpt>
      <trkpt lat="46.33575" lon="6.06152">
        <ele>617</ele>
        <time>2019-04-18T08:29:50Z</time>
      </trkpt>
      <trkpt lat="46.33569" lon="6.06148">
        <ele>616</ele>
        <time>2019-04-18T08:30:50Z</time>
      </trkpt>
      <trkpt lat="46.33561" lon="6.06139">
        <ele>616</ele>
        <time>2019-04-18T08:31:50Z</time>
      </trkpt>
      <trkpt lat="46.33533" lon="6.06064">
        <ele>619</ele>
        <time>2019-04-18T08:32:50Z</time>
      </trkpt>
      <trkpt lat="46.33524" lon="6.0605">
        <ele>619</ele>
        <time>2019-04-18T08:33:50Z</time>
      </trkpt>
      <trkpt lat="46.33512" lon="6.06037">
        <ele>618</ele>
        <time>2019-04-18T08:34:50Z</time>
      </trkpt>
      <trkpt lat="46.33501" lon="6.06029">
        <ele>617</ele>
        <time>2019-04-18T08:35:50Z</time>
      </trkpt>
      <trkpt lat="46.33401" lon="6.05975">
        <ele>612</ele>
        <time>2019-04-18T08:36:50Z</time>
      </trkpt>
      <trkpt lat="46.33304" lon="6.05975">
        <ele>603</ele>
        <time>2019-04-18T08:37:50Z</time>
      </trkpt>
      <trkpt lat="46.33262" lon="6.05964">
        <ele>601</ele>
        <time>2019-04-18T08:38:50Z</time>
      </trkpt>
      <trkpt lat="46.33228" lon="6.05946">
        <ele>599</ele>
        <time>2019-04-18T08:39:50Z</time>
      </trkpt>
      <trkpt lat="46.33213" lon="6.05933">
        <ele>599</ele>
        <time>2019-04-18T08:40:50Z</time>
      </trkpt>
      <trkpt lat="46.33193" lon="6.05906">
        <ele>598</ele>
        <time>2019-04-18T08:41:50Z</time>
      </trkpt>
      <trkpt lat="46.33189" lon="6.05903">
        <ele>598</ele>
        <time>2019-04-18T08:42:50Z</time>
      </trkpt>
      <trkpt lat="46.3319" lon="6.05896">
        <ele>598</ele>
        <time>2019-04-18T08:43:50Z</time>
      </trkpt>
      <trkpt lat="46.33187" lon="6.05883">
        <ele>598</ele>
        <time>2019-04-18T08:44:50Z</time>
      </trkpt>
      <trkpt lat="46.33184" lon="6.05877">
        <ele>598</ele>
        <time>2019-04-18T08:45:50Z</time>
      </trkpt>
      <trkpt lat="46.33177" lon="6.05872">
        <ele>598</ele>
        <time>2019-04-18T08:46:50Z</time>
      </trkpt>
      <trkpt lat="46.33169" lon="6.05872">
        <ele>598</ele>
        <time>2019-04-18T08:47:50Z</time>
      </trkpt>
      <trkpt lat="46.33162" lon="6.05879">
        <ele>597</ele>
        <time>2019-04-18T08:48:50Z</time>
      </trkpt>
      <trkpt lat="46.33157" lon="6.05891">
        <ele>597</ele>
        <time>2019-04-18T08:49:50Z</time>
      </trkpt>
      <trkpt lat="46.33157" lon="6.05898">
        <ele>597</ele>
        <time>2019-04-18T08:50:50Z</time>
      </trkpt>
      <trkpt lat="46.33161" lon="6.05911">
        <ele>597</ele>
        <time>2019-04-18T08:51:50Z</time>
      </trkpt>
      <trkpt lat="46.3317" lon="6.05918">
        <ele>597</ele>
        <time>2019-04-18T08:52:50Z</time>
      </trkpt>
      <trkpt lat="46.33179" lon="6.05917">
        <ele>598</ele>
        <time>2019-04-18T08:53:50Z</time>
      </trkpt>
      <trkpt lat="46.33186" lon="6.05909">
        <ele>598</ele>
        <time>2019-04-18T08:54:50Z</time>
      </trkpt>
      <trkpt lat="46.33189" lon="6.05903">
        <ele>598</ele>
        <time>2019-04-18T08:55:50Z</time>
      </trkpt>
      <trkpt lat="46.3319" lon="6.05896">
        <ele>598</ele>
        <time>2019-04-18T08:56:50Z</time>
      </trkpt>
      <trkpt lat="46.33187" lon="6.05883">
        <ele>598</ele>
        <time>2019-04-18T08:57:50Z</time>
      </trkpt>
      <trkpt lat="46.33184" lon="6.05877">
        <ele>598</ele>
        <time>2019-04-18T08:58:50Z</time>
      </trkpt>
      <trkpt lat="46.33177" lon="6.05872">
        <ele>598</ele>
        <time>2019-04-18T08:59:50Z</time>
      </trkpt>
      <trkpt lat="46.33173" lon="6.05871">
        <ele>598</ele>
        <time>2019-04-18T09:00:50Z</time>
      </trkpt>
      <trkpt lat="46.33165" lon="6.05874">
        <ele>597</ele>
        <time>2019-04-18T09:01:50Z</time>
      </trkpt>
      <trkpt lat="46.33162" lon="6.05879">
        <ele>597</ele>
        <time>2019-04-18T09:02:50Z</time>
      </trkpt>
      <trkpt lat="46.33157" lon="6.05891">
        <ele>597</ele>
        <time>2019-04-18T09:03:50Z</time>
      </trkpt>
      <trkpt lat="46.33159" lon="6.05905">
        <ele>597</ele>
        <time>2019-04-18T09:04:50Z</time>
      </trkpt>
      <trkpt lat="46.33161" lon="6.05911">
        <ele>597</ele>
        <time>2019-04-18T09:05:50Z</time>
      </trkpt>
      <trkpt lat="46.3317" lon="6.05918">
        <ele>597</ele>
        <time>2019-04-18T09:06:50Z</time>
      </trkpt>
      <trkpt lat="46.33174" lon="6.05918">
        <ele>597</ele>
        <time>2019-04-18T09:07:50Z</time>
      </trkpt>
      <trkpt lat="46.33176" lon="6.05933">
        <ele>597</ele>
        <time>2019-04-18T09:08:50Z</time>
      </trkpt>
      <trkpt lat="46.33303" lon="6.062">
        <ele>591</ele>
        <time>2019-04-18T09:09:50Z</time>
      </trkpt>
      <trkpt lat="46.33311" lon="6.06198">
        <ele>592</ele>
        <time>2019-04-18T09:10:50Z</time>
      </trkpt>
      <trkpt lat="46.33322" lon="6.06206">
        <ele>592</ele>
        <time>2019-04-18T09:11:50Z</time>
      </trkpt>
      <trkpt lat="46.33329" lon="6.06221">
        <ele>592</ele>
        <time>2019-04-18T09:12:50Z</time>
      </trkpt>
      <trkpt lat="46.33338" lon="6.06236">
        <ele>592</ele>
        <time>2019-04-18T09:13:50Z</time>
      </trkpt>
      <trkpt lat="46.33367" lon="6.06275">
        <ele>592</ele>
        <time>2019-04-18T09:14:50Z</time>
      </trkpt>
      <trkpt lat="46.33406" lon="6.06351">
        <ele>592</ele>
        <time>2019-04-18T09:15:50Z</time>
      </trkpt>
      <trkpt lat="46.33448" lon="6.06445">
        <ele>590</ele>
        <time>2019-04-18T09:16:50Z</time>
      </trkpt>
      <trkpt lat="46.33453" lon="6.06449">
        <ele>590</ele>
        <time>2019-04-18T09:17:50Z</time>
      </trkpt>
      <trkpt lat="46.33459" lon="6.06461">
        <ele>590</ele>
        <time>2019-04-18T09:18:50Z</time>
      </trkpt>
      <trkpt lat="46.3346" lon="6.06468">
        <ele>590</ele>
        <time>2019-04-18T09:19:50Z</time>
      </trkpt>
      <trkpt lat="46.33567" lon="6.06727">
        <ele>589</ele>
        <time>2019-04-18T09:20:50Z</time>
      </trkpt>
      <trkpt lat="46.33566" lon="6.06733">
        <ele>589</ele>
        <time>2019-04-18T09:21:50Z</time>
      </trkpt>
      <trkpt lat="46.33572" lon="6.06736">
        <ele>589</ele>
        <time>2019-04-18T09:22:50Z</time>
      </trkpt>
      <trkpt lat="46.33682" lon="6.0699">
        <ele>592</ele>
        <time>2019-04-18T09:23:50Z</time>
      </trkpt>
      <trkpt lat="46.33681" lon="6.07001">
        <ele>591</ele>
        <time>2019-04-18T09:24:50Z</time>
      </trkpt>
      <trkpt lat="46.33689" lon="6.07003">
        <ele>592</ele>
        <time>2019-04-18T09:25:50Z</time>
      </trkpt>
      <trkpt lat="46.33749" lon="6.07162">
        <ele>593</ele>
        <time>2019-04-18T09:26:50Z</time>
      </trkpt>
      <trkpt lat="46.33748" lon="6.07171">
        <ele>593</ele>
        <time>2019-04-18T09:27:50Z</time>
      </trkpt>
      <trkpt lat="46.33752" lon="6.07171">
        <ele>593</ele>
        <time>2019-04-18T09:28:50Z</time>
      </trkpt>
      <trkpt lat="46.33774" lon="6.07233">
        <ele>593</ele>
        <time>2019-04-18T09:29:50Z</time>
      </trkpt>
      <trkpt lat="46.33773" lon="6.07237">
        <ele>593</ele>
        <time>2019-04-18T09:30:50Z</time>
      </trkpt>
      <trkpt lat="46.33808" lon="6.07346">
        <ele>593</ele>
        <time>2019-04-18T09:31:50Z</time>
      </trkpt>
      <trkpt lat="46.33805" lon="6.07351">
        <ele>593</ele>
        <time>2019-04-18T09:32:50Z</time>
      </trkpt>
      <trkpt lat="46.33801" lon="6.07363">
        <ele>592</ele>
        <time>2019-04-18T09:33:50Z</time>
      </trkpt>
      <trkpt lat="46.33803" lon="6.07377">
        <ele>592</ele>
        <time>2019-04-18T09:34:50Z</time>
      </trkpt>
      <trkpt lat="46.33805" lon="6.07382">
        <ele>592</ele>
        <time>2019-04-18T09:35:50Z</time>
      </trkpt>
      <trkpt lat="46.33813" lon="6.0739">
        <ele>592</ele>
        <time>2019-04-18T09:36:50Z</time>
      </trkpt>
      <trkpt lat="46.33822" lon="6.07391">
        <ele>592</ele>
        <time>2019-04-18T09:37:50Z</time>
      </trkpt>
      <trkpt lat="46.33865" lon="6.07771">
        <ele>589</ele>
        <time>2019-04-18T09:38:50Z</time>
      </trkpt>
      <trkpt lat="46.33888" lon="6.07989">
        <ele>590</ele>
        <time>2019-04-18T09:39:50Z</time>
      </trkpt>
      <trkpt lat="46.3391" lon="6.08112">
        <ele>589</ele>
        <time>2019-04-18T09:40:50Z</time>
      </trkpt>
      <trkpt lat="46.33926" lon="6.08175">
        <ele>587</ele>
        <time>2019-04-18T09:41:50Z</time>
      </trkpt>
      <trkpt lat="46.33949" lon="6.08256">
        <ele>586</ele>
        <time>2019-04-18T09:42:50Z</time>
      </trkpt>
      <trkpt lat="46.34239" lon="6.09134">
        <ele>608</ele>
        <time>2019-04-18T09:43:50Z</time>
      </trkpt>
      <trkpt lat="46.34281" lon="6.09251">
        <ele>608</ele>
        <time>2019-04-18T09:44:50Z</time>
      </trkpt>
      <trkpt lat="46.34389" lon="6.09505">
        <ele>613</ele>
        <time>2019-04-18T09:45:50Z</time>
      </trkpt>
      <trkpt lat="46.3462" lon="6.10029">
        <ele>611</ele>
        <time>2019-04-18T09:46:50Z</time>
      </trkpt>
      <trkpt lat="46.34688" lon="6.10154">
        <ele>617</ele>
        <time>2019-04-18T09:47:50Z</time>
      </trkpt>
      <trkpt lat="46.34736" lon="6.10222">
        <ele>620</ele>
        <time>2019-04-18T09:48:50Z</time>
      </trkpt>
      <trkpt lat="46.34834" lon="6.10349">
        <ele>624</ele>
        <time>2019-04-18T09:49:50Z</time>
      </trkpt>
      <trkpt lat="46.34964" lon="6.10536">
        <ele>627</ele>
        <time>2019-04-18T09:50:50Z</time>
      </trkpt>
      <trkpt lat="46.35006" lon="6.10607">
        <ele>626</ele>
        <time>2019-04-18T09:51:50Z</time>
      </trkpt>
      <trkpt lat="46.35038" lon="6.10671">
        <ele>625</ele>
        <time>2019-04-18T09:52:50Z</time>
      </trkpt>
      <trkpt lat="46.35231" lon="6.11073">
        <ele>619</ele>
        <time>2019-04-18T09:53:50Z</time>
      </trkpt>
      <trkpt lat="46.35252" lon="6.11108">
        <ele>621</ele>
        <time>2019-04-18T09:54:50Z</time>
      </trkpt>
      <trkpt lat="46.35282" lon="6.1115">
        <ele>622</ele>
        <time>2019-04-18T09:55:50Z</time>
      </trkpt>
      <trkpt lat="46.35402" lon="6.11291">
        <ele>624</ele>
        <time>2019-04-18T09:56:50Z</time>
      </trkpt>
      <trkpt lat="46.35517" lon="6.11399">
        <ele>614</ele>
        <time>2019-04-18T09:57:50Z</time>
      </trkpt>
      <trkpt lat="46.35579" lon="6.11448">
        <ele>610</ele>
        <time>2019-04-18T09:58:50Z</time>
      </trkpt>
      <trkpt lat="46.35634" lon="6.11486">
        <ele>607</ele>
        <time>2019-04-18T09:59:50Z</time>
      </trkpt>
      <trkpt lat="46.35699" lon="6.11528">
        <ele>601</ele>
        <time>2019-04-18T10:00:50Z</time>
      </trkpt>
      <trkpt lat="46.35812" lon="6.11591">
        <ele>587</ele>
        <time>2019-04-18T10:01:50Z</time>
      </trkpt>
      <trkpt lat="46.35852" lon="6.11624">
        <ele>584</ele>
        <time>2019-04-18T10:02:50Z</time>
      </trkpt>
      <trkpt lat="46.35872" lon="6.11645">
        <ele>583</ele>
        <time>2019-04-18T10:03:50Z</time>
      </trkpt>
      <trkpt lat="46.3591" lon="6.11693">
        <ele>580</ele>
        <time>2019-04-18T10:04:50Z</time>
      </trkpt>
      <trkpt lat="46.35926" lon="6.11721">
        <ele>580</ele>
        <time>2019-04-18T10:05:50Z</time>
      </trkpt>
      <trkpt lat="46.35956" lon="6.11785">
        <ele>577</ele>
        <time>2019-04-18T10:06:50Z</time>
      </trkpt>
      <trkpt lat="46.35967" lon="6.11818">
        <ele>576</ele>
        <time>2019-04-18T10:07:50Z</time>
      </trkpt>
      <trkpt lat="46.3598" lon="6.11864">
        <ele>572</ele>
        <time>2019-04-18T10:08:50Z</time>
      </trkpt>
      <trkpt lat="46.35986" lon="6.11894">
        <ele>570</ele>
        <time>2019-04-18T10:09:50Z</time>
      </trkpt>
      <trkpt lat="46.35995" lon="6.11954">
        <ele>566</ele>
        <time>2019-04-18T10:10:50Z</time>
      </trkpt>
      <trkpt lat="46.35998" lon="6.11993">
        <ele>566</ele>
        <time>2019-04-18T10:11:50Z</time>
      </trkpt>
      <trkpt lat="46.35999" lon="6.12059">
        <ele>563</ele>
        <time>2019-04-18T10:12:50Z</time>
      </trkpt>
      <trkpt lat="46.35999" lon="6.12118">
        <ele>558</ele>
        <time>2019-04-18T10:13:50Z</time>
      </trkpt>
      <trkpt lat="46.35995" lon="6.12166">
        <ele>555</ele>
        <time>2019-04-18T10:14:50Z</time>
      </trkpt>
      <trkpt lat="46.35988" lon="6.12229">
        <ele>553</ele>
        <time>2019-04-18T10:15:50Z</time>
      </trkpt>
      <trkpt lat="46.3598" lon="6.12276">
        <ele>552</ele>
        <time>2019-04-18T10:16:50Z</time>
      </trkpt>
      <trkpt lat="46.3593" lon="6.12524">
        <ele>544</ele>
        <time>2019-04-18T10:17:50Z</time>
      </trkpt>
      <trkpt lat="46.35897" lon="6.12678">
        <ele>542</ele>
        <time>2019-04-18T10:18:50Z</time>
      </trkpt>
      <trkpt lat="46.35861" lon="6.12893">
        <ele>544</ele>
        <time>2019-04-18T10:19:50Z</time>
      </trkpt>
      <trkpt lat="46.35859" lon="6.12912">
        <ele>543</ele>
        <time>2019-04-18T10:20:50Z</time>
      </trkpt>
      <trkpt lat="46.3586" lon="6.12935">
        <ele>541</ele>
        <time>2019-04-18T10:21:50Z</time>
      </trkpt>
      <trkpt lat="46.35863" lon="6.12988">
        <ele>536</ele>
        <time>2019-04-18T10:22:50Z</time>
      </trkpt>
      <trkpt lat="46.35867" lon="6.13018">
        <ele>532</ele>
        <time>2019-04-18T10:23:50Z</time>
      </trkpt>
      <trkpt lat="46.35863" lon="6.13067">
        <ele>525</ele>
        <time>2019-04-18T10:24:50Z</time>
      </trkpt>
      <trkpt lat="46.35852" lon="6.13118">
        <ele>521</ele>
        <time>2019-04-18T10:25:50Z</time>
      </trkpt>
      <trkpt lat="46.35839" lon="6.13153">
        <ele>519</ele>
        <time>2019-04-18T10:26:50Z</time>
      </trkpt>
      <trkpt lat="46.35802" lon="6.13366">
        <ele>510</ele>
        <time>2019-04-18T10:27:50Z</time>
      </trkpt>
    </trkseg>
  </trk>
</gpx>